<?xml version="1.0" encoding="UTF-8" standalone="no" ?>
<gpx xmlns="http://www.topografix.com/GPX/1/1" xmlns:xsi="http://www.w3.org/2001/XMLSchema-instance" xsi:schemaLocation="http://www.topografix.com/GPX/1/1 http://www.topografix.com/GPX/1/1/gpx.xsd" version="1.1" creator="VisuGPX - https://www.visugpx.com">
  <metadata>
    <name>ferriere st vincent 30kms</name>
    <desc><![CDATA[boucle au depart de ferrieres sur sichon de belles bosses qui font mal aux cuissots, nombreuses traversée de ruisseau . ]]></desc>
  </metadata>
  <wpt lat="45.99333" lon="3.69072">
    <ele>816.43</ele>
    <name><![CDATA[WPT_0000135]]></name>
    <desc><![CDATA[]]></desc>
    <type><![CDATA[Photo]]></type>
  </wpt>
  <wpt lat="45.9933" lon="3.69083">
    <ele>819.49</ele>
    <name><![CDATA[WPT_0000136]]></name>
    <desc><![CDATA[]]></desc>
    <type><![CDATA[Point de navigation]]></type>
  </wpt>
  <wpt lat="45.99313" lon="3.69091">
    <ele>821.55</ele>
    <name><![CDATA[WPT_0000137]]></name>
    <desc><![CDATA[]]></desc>
    <type><![CDATA[Photo]]></type>
  </wpt>
  <trk>
    <name><![CDATA[2013-11-01 13:30]]></name>
    <desc><![CDATA[<h1>OruxMaps</h1><br /><hr align="center" width="480" style="height: 2px; width: 517px"/><h2>Nom: 2013-11-01 13:30</h2><br /><p>Temps de départ: 11/01/2013 13:30</p><p>Temps d'arrivée: 11/01/2013 17:15</p><p>Distance: 29,4 km (03:45)</p><p>Temps déplacement: 01:54</p><p>Vitesse moyenne: 7,8 km/h</p><p>Vitesse moyenne: 15,2 km/h</p><p>Vitess Max.: 71,9 km/h</p><p>Altitude minimale: 471 m</p><p>Altitude maximale: 894 m</p><p>Vitesse d'élévation: 473,8 m/h</p><p>Vitesse de descente: -911,2 m/h</p><p>Gain Altitude: 1033 m</p><p>Perte Altitude: -1050 m</p><p>Temps d'élévation: 02:10</p><p>Temps de descente: 01:09</p><hr align="center" width="480" style="height: 2px; width: 517px"/>]]></desc>
    <trkseg>
      <trkpt lat="46.02343" lon="3.65173">
        <ele>577.05</ele>
        <time>2013-11-01T12:30:04Z</time>
      </trkpt>
      <trkpt lat="46.02333" lon="3.65152">
        <ele>551.68</ele>
        <time>2013-11-01T12:34:01Z</time>
      </trkpt>
      <trkpt lat="46.02328" lon="3.65122">
        <ele>551.55</ele>
        <time>2013-11-01T12:34:07Z</time>
      </trkpt>
      <trkpt lat="46.02324" lon="3.65092">
        <ele>547.99</ele>
        <time>2013-11-01T12:34:12Z</time>
      </trkpt>
      <trkpt lat="46.0232" lon="3.65062">
        <ele>546.6</ele>
        <time>2013-11-01T12:34:17Z</time>
      </trkpt>
      <trkpt lat="46.02314" lon="3.65034">
        <ele>547.3</ele>
        <time>2013-11-01T12:34:22Z</time>
      </trkpt>
      <trkpt lat="46.0231" lon="3.65008">
        <ele>548.42</ele>
        <time>2013-11-01T12:34:27Z</time>
      </trkpt>
      <trkpt lat="46.02312" lon="3.64982">
        <ele>548.55</ele>
        <time>2013-11-01T12:34:32Z</time>
      </trkpt>
      <trkpt lat="46.02319" lon="3.64956">
        <ele>549.3</ele>
        <time>2013-11-01T12:34:38Z</time>
      </trkpt>
      <trkpt lat="46.02324" lon="3.64926">
        <ele>549.55</ele>
        <time>2013-11-01T12:34:44Z</time>
      </trkpt>
      <trkpt lat="46.02324" lon="3.64894">
        <ele>551.96</ele>
        <time>2013-11-01T12:34:49Z</time>
      </trkpt>
      <trkpt lat="46.0232" lon="3.64866">
        <ele>552.54</ele>
        <time>2013-11-01T12:34:55Z</time>
      </trkpt>
      <trkpt lat="46.02331" lon="3.64845">
        <ele>552.55</ele>
        <time>2013-11-01T12:35:02Z</time>
      </trkpt>
      <trkpt lat="46.02343" lon="3.64825">
        <ele>552.55</ele>
        <time>2013-11-01T12:35:09Z</time>
      </trkpt>
      <trkpt lat="46.02357" lon="3.64806">
        <ele>552.55</ele>
        <time>2013-11-01T12:35:16Z</time>
      </trkpt>
      <trkpt lat="46.02372" lon="3.64791">
        <ele>552.55</ele>
        <time>2013-11-01T12:35:23Z</time>
      </trkpt>
      <trkpt lat="46.02383" lon="3.6477">
        <ele>551.58</ele>
        <time>2013-11-01T12:35:29Z</time>
      </trkpt>
      <trkpt lat="46.02393" lon="3.64746">
        <ele>551.55</ele>
        <time>2013-11-01T12:35:36Z</time>
      </trkpt>
      <trkpt lat="46.0241" lon="3.64735">
        <ele>551.55</ele>
        <time>2013-11-01T12:35:43Z</time>
      </trkpt>
      <trkpt lat="46.02429" lon="3.64727">
        <ele>551.55</ele>
        <time>2013-11-01T12:35:49Z</time>
      </trkpt>
      <trkpt lat="46.02449" lon="3.64718">
        <ele>550.68</ele>
        <time>2013-11-01T12:35:56Z</time>
      </trkpt>
      <trkpt lat="46.02464" lon="3.64699">
        <ele>550.55</ele>
        <time>2013-11-01T12:36:05Z</time>
      </trkpt>
      <trkpt lat="46.02474" lon="3.64677">
        <ele>550.55</ele>
        <time>2013-11-01T12:36:10Z</time>
      </trkpt>
      <trkpt lat="46.02485" lon="3.64652">
        <ele>550.55</ele>
        <time>2013-11-01T12:36:16Z</time>
      </trkpt>
      <trkpt lat="46.02499" lon="3.64632">
        <ele>550.55</ele>
        <time>2013-11-01T12:36:23Z</time>
      </trkpt>
      <trkpt lat="46.02517" lon="3.64619">
        <ele>549.68</ele>
        <time>2013-11-01T12:36:31Z</time>
      </trkpt>
      <trkpt lat="46.02532" lon="3.64598">
        <ele>549.55</ele>
        <time>2013-11-01T12:36:41Z</time>
      </trkpt>
      <trkpt lat="46.02543" lon="3.64577">
        <ele>550.55</ele>
        <time>2013-11-01T12:36:53Z</time>
      </trkpt>
      <trkpt lat="46.02558" lon="3.64592">
        <ele>552.05</ele>
        <time>2013-11-01T12:37:12Z</time>
      </trkpt>
      <trkpt lat="46.02571" lon="3.64611">
        <ele>553.52</ele>
        <time>2013-11-01T12:37:21Z</time>
      </trkpt>
      <trkpt lat="46.02586" lon="3.64626">
        <ele>555.49</ele>
        <time>2013-11-01T12:37:30Z</time>
      </trkpt>
      <trkpt lat="46.02604" lon="3.64628">
        <ele>557.43</ele>
        <time>2013-11-01T12:37:40Z</time>
      </trkpt>
      <trkpt lat="46.02622" lon="3.64635">
        <ele>559.49</ele>
        <time>2013-11-01T12:37:52Z</time>
      </trkpt>
      <trkpt lat="46.02637" lon="3.64652">
        <ele>561.52</ele>
        <time>2013-11-01T12:38:04Z</time>
      </trkpt>
      <trkpt lat="46.02647" lon="3.64675">
        <ele>564.49</ele>
        <time>2013-11-01T12:38:18Z</time>
      </trkpt>
      <trkpt lat="46.0266" lon="3.64695">
        <ele>568.04</ele>
        <time>2013-11-01T12:38:33Z</time>
      </trkpt>
      <trkpt lat="46.02678" lon="3.64697">
        <ele>570.42</ele>
        <time>2013-11-01T12:38:45Z</time>
      </trkpt>
      <trkpt lat="46.02695" lon="3.64686">
        <ele>572.52</ele>
        <time>2013-11-01T12:38:58Z</time>
      </trkpt>
      <trkpt lat="46.02714" lon="3.64682">
        <ele>574.54</ele>
        <time>2013-11-01T12:39:12Z</time>
      </trkpt>
      <trkpt lat="46.02732" lon="3.64682">
        <ele>576.55</ele>
        <time>2013-11-01T12:39:26Z</time>
      </trkpt>
      <trkpt lat="46.02751" lon="3.64686">
        <ele>579.05</ele>
        <time>2013-11-01T12:39:41Z</time>
      </trkpt>
      <trkpt lat="46.0277" lon="3.64686">
        <ele>580.55</ele>
        <time>2013-11-01T12:39:54Z</time>
      </trkpt>
      <trkpt lat="46.02789" lon="3.64695">
        <ele>583.29</ele>
        <time>2013-11-01T12:40:05Z</time>
      </trkpt>
      <trkpt lat="46.02807" lon="3.64707">
        <ele>586.98</ele>
        <time>2013-11-01T12:40:16Z</time>
      </trkpt>
      <trkpt lat="46.02825" lon="3.64716">
        <ele>591.41</ele>
        <time>2013-11-01T12:40:28Z</time>
      </trkpt>
      <trkpt lat="46.02841" lon="3.64703">
        <ele>595.41</ele>
        <time>2013-11-01T12:40:40Z</time>
      </trkpt>
      <trkpt lat="46.02857" lon="3.64688">
        <ele>599.41</ele>
        <time>2013-11-01T12:40:52Z</time>
      </trkpt>
      <trkpt lat="46.02872" lon="3.64671">
        <ele>603.02</ele>
        <time>2013-11-01T12:41:04Z</time>
      </trkpt>
      <trkpt lat="46.02886" lon="3.64654">
        <ele>606.29</ele>
        <time>2013-11-01T12:41:16Z</time>
      </trkpt>
      <trkpt lat="46.02901" lon="3.64637">
        <ele>608.42</ele>
        <time>2013-11-01T12:41:27Z</time>
      </trkpt>
      <trkpt lat="46.02916" lon="3.64622">
        <ele>611.27</ele>
        <time>2013-11-01T12:41:36Z</time>
      </trkpt>
      <trkpt lat="46.02927" lon="3.64598">
        <ele>615.29</ele>
        <time>2013-11-01T12:41:50Z</time>
      </trkpt>
      <trkpt lat="46.02935" lon="3.64574">
        <ele>617.3</ele>
        <time>2013-11-01T12:42:01Z</time>
      </trkpt>
      <trkpt lat="46.02942" lon="3.64549">
        <ele>618.54</ele>
        <time>2013-11-01T12:42:11Z</time>
      </trkpt>
      <trkpt lat="46.02953" lon="3.64525">
        <ele>620.05</ele>
        <time>2013-11-01T12:42:23Z</time>
      </trkpt>
      <trkpt lat="46.02967" lon="3.64506">
        <ele>621.52</ele>
        <time>2013-11-01T12:42:34Z</time>
      </trkpt>
      <trkpt lat="46.02974" lon="3.6448">
        <ele>622.05</ele>
        <time>2013-11-01T12:42:44Z</time>
      </trkpt>
      <trkpt lat="46.02975" lon="3.64448">
        <ele>622.55</ele>
        <time>2013-11-01T12:42:51Z</time>
      </trkpt>
      <trkpt lat="46.02978" lon="3.64418">
        <ele>623.49</ele>
        <time>2013-11-01T12:42:57Z</time>
      </trkpt>
      <trkpt lat="46.02993" lon="3.64403">
        <ele>624.49</ele>
        <time>2013-11-01T12:43:04Z</time>
      </trkpt>
      <trkpt lat="46.0301" lon="3.64388">
        <ele>624.57</ele>
        <time>2013-11-01T12:45:23Z</time>
      </trkpt>
      <trkpt lat="46.03023" lon="3.64366">
        <ele>624.55</ele>
        <time>2013-11-01T12:45:29Z</time>
      </trkpt>
      <trkpt lat="46.03035" lon="3.64345">
        <ele>623.58</ele>
        <time>2013-11-01T12:45:34Z</time>
      </trkpt>
      <trkpt lat="46.03048" lon="3.64323">
        <ele>623.55</ele>
        <time>2013-11-01T12:45:39Z</time>
      </trkpt>
      <trkpt lat="46.03058" lon="3.643">
        <ele>622.58</ele>
        <time>2013-11-01T12:45:44Z</time>
      </trkpt>
      <trkpt lat="46.03067" lon="3.64274">
        <ele>622.55</ele>
        <time>2013-11-01T12:45:49Z</time>
      </trkpt>
      <trkpt lat="46.03075" lon="3.64246">
        <ele>621.58</ele>
        <time>2013-11-01T12:45:54Z</time>
      </trkpt>
      <trkpt lat="46.03082" lon="3.64218">
        <ele>621.55</ele>
        <time>2013-11-01T12:45:59Z</time>
      </trkpt>
      <trkpt lat="46.03087" lon="3.64192">
        <ele>622.43</ele>
        <time>2013-11-01T12:46:05Z</time>
      </trkpt>
      <trkpt lat="46.0309" lon="3.64162">
        <ele>622.55</ele>
        <time>2013-11-01T12:46:11Z</time>
      </trkpt>
      <trkpt lat="46.03091" lon="3.64135">
        <ele>623.05</ele>
        <time>2013-11-01T12:46:16Z</time>
      </trkpt>
      <trkpt lat="46.03092" lon="3.64105">
        <ele>623.55</ele>
        <time>2013-11-01T12:46:22Z</time>
      </trkpt>
      <trkpt lat="46.03093" lon="3.64074">
        <ele>624.05</ele>
        <time>2013-11-01T12:46:28Z</time>
      </trkpt>
      <trkpt lat="46.03088" lon="3.64049">
        <ele>624.55</ele>
        <time>2013-11-01T12:46:35Z</time>
      </trkpt>
      <trkpt lat="46.03078" lon="3.64025">
        <ele>625.3</ele>
        <time>2013-11-01T12:46:43Z</time>
      </trkpt>
      <trkpt lat="46.03072" lon="3.63999">
        <ele>626.49</ele>
        <time>2013-11-01T12:46:52Z</time>
      </trkpt>
      <trkpt lat="46.0307" lon="3.63974">
        <ele>627.54</ele>
        <time>2013-11-01T12:47:00Z</time>
      </trkpt>
      <trkpt lat="46.0307" lon="3.63946">
        <ele>629.49</ele>
        <time>2013-11-01T12:47:10Z</time>
      </trkpt>
      <trkpt lat="46.03069" lon="3.63918">
        <ele>632.02</ele>
        <time>2013-11-01T12:47:20Z</time>
      </trkpt>
      <trkpt lat="46.03067" lon="3.63892">
        <ele>634.42</ele>
        <time>2013-11-01T12:47:30Z</time>
      </trkpt>
      <trkpt lat="46.03068" lon="3.63862">
        <ele>637.42</ele>
        <time>2013-11-01T12:47:41Z</time>
      </trkpt>
      <trkpt lat="46.0307" lon="3.63832">
        <ele>640.42</ele>
        <time>2013-11-01T12:47:52Z</time>
      </trkpt>
      <trkpt lat="46.03074" lon="3.63806">
        <ele>643.29</ele>
        <time>2013-11-01T12:48:01Z</time>
      </trkpt>
      <trkpt lat="46.03072" lon="3.63778">
        <ele>645.42</ele>
        <time>2013-11-01T12:48:09Z</time>
      </trkpt>
      <trkpt lat="46.03068" lon="3.63753">
        <ele>650.73</ele>
        <time>2013-11-01T12:48:13Z</time>
      </trkpt>
      <trkpt lat="46.03061" lon="3.63725">
        <ele>655</ele>
        <time>2013-11-01T12:48:17Z</time>
      </trkpt>
      <trkpt lat="46.03056" lon="3.63699">
        <ele>656.46</ele>
        <time>2013-11-01T12:48:21Z</time>
      </trkpt>
      <trkpt lat="46.03047" lon="3.63671">
        <ele>657.52</ele>
        <time>2013-11-01T12:48:26Z</time>
      </trkpt>
      <trkpt lat="46.0304" lon="3.63647">
        <ele>657.55</ele>
        <time>2013-11-01T12:48:30Z</time>
      </trkpt>
      <trkpt lat="46.03031" lon="3.63624">
        <ele>657.55</ele>
        <time>2013-11-01T12:48:34Z</time>
      </trkpt>
      <trkpt lat="46.03023" lon="3.636">
        <ele>657.55</ele>
        <time>2013-11-01T12:48:38Z</time>
      </trkpt>
      <trkpt lat="46.03012" lon="3.63579">
        <ele>657.55</ele>
        <time>2013-11-01T12:48:42Z</time>
      </trkpt>
      <trkpt lat="46.02999" lon="3.63553">
        <ele>657.55</ele>
        <time>2013-11-01T12:48:47Z</time>
      </trkpt>
      <trkpt lat="46.02987" lon="3.63532">
        <ele>657.55</ele>
        <time>2013-11-01T12:48:52Z</time>
      </trkpt>
      <trkpt lat="46.02975" lon="3.63506">
        <ele>658.05</ele>
        <time>2013-11-01T12:48:58Z</time>
      </trkpt>
      <trkpt lat="46.02969" lon="3.63476">
        <ele>658.54</ele>
        <time>2013-11-01T12:49:03Z</time>
      </trkpt>
      <trkpt lat="46.02962" lon="3.6345">
        <ele>658.55</ele>
        <time>2013-11-01T12:49:07Z</time>
      </trkpt>
      <trkpt lat="46.02954" lon="3.63426">
        <ele>658.55</ele>
        <time>2013-11-01T12:49:11Z</time>
      </trkpt>
      <trkpt lat="46.02945" lon="3.63401">
        <ele>658.55</ele>
        <time>2013-11-01T12:49:16Z</time>
      </trkpt>
      <trkpt lat="46.02938" lon="3.63371">
        <ele>658.55</ele>
        <time>2013-11-01T12:49:21Z</time>
      </trkpt>
      <trkpt lat="46.0293" lon="3.63345">
        <ele>658.55</ele>
        <time>2013-11-01T12:49:25Z</time>
      </trkpt>
      <trkpt lat="46.02923" lon="3.63319">
        <ele>658.55</ele>
        <time>2013-11-01T12:49:29Z</time>
      </trkpt>
      <trkpt lat="46.02914" lon="3.63296">
        <ele>658.55</ele>
        <time>2013-11-01T12:49:33Z</time>
      </trkpt>
      <trkpt lat="46.02902" lon="3.63268">
        <ele>657.68</ele>
        <time>2013-11-01T12:49:38Z</time>
      </trkpt>
      <trkpt lat="46.02893" lon="3.63242">
        <ele>656.69</ele>
        <time>2013-11-01T12:49:42Z</time>
      </trkpt>
      <trkpt lat="46.02882" lon="3.63216">
        <ele>655.62</ele>
        <time>2013-11-01T12:49:46Z</time>
      </trkpt>
      <trkpt lat="46.0287" lon="3.6319">
        <ele>655.56</ele>
        <time>2013-11-01T12:49:50Z</time>
      </trkpt>
      <trkpt lat="46.02858" lon="3.63167">
        <ele>655.55</ele>
        <time>2013-11-01T12:49:54Z</time>
      </trkpt>
      <trkpt lat="46.02849" lon="3.63143">
        <ele>655.55</ele>
        <time>2013-11-01T12:49:58Z</time>
      </trkpt>
      <trkpt lat="46.02841" lon="3.63115">
        <ele>655.55</ele>
        <time>2013-11-01T12:50:03Z</time>
      </trkpt>
      <trkpt lat="46.02832" lon="3.6309">
        <ele>655.55</ele>
        <time>2013-11-01T12:50:07Z</time>
      </trkpt>
      <trkpt lat="46.02821" lon="3.63066">
        <ele>655.55</ele>
        <time>2013-11-01T12:50:10Z</time>
      </trkpt>
      <trkpt lat="46.0281" lon="3.63045">
        <ele>654.68</ele>
        <time>2013-11-01T12:50:13Z</time>
      </trkpt>
      <trkpt lat="46.02795" lon="3.63021">
        <ele>655.5</ele>
        <time>2013-11-01T12:50:17Z</time>
      </trkpt>
      <trkpt lat="46.02783" lon="3.62999">
        <ele>655.55</ele>
        <time>2013-11-01T12:50:22Z</time>
      </trkpt>
      <trkpt lat="46.02772" lon="3.62978">
        <ele>655.55</ele>
        <time>2013-11-01T12:50:27Z</time>
      </trkpt>
      <trkpt lat="46.0276" lon="3.62954">
        <ele>655.55</ele>
        <time>2013-11-01T12:50:32Z</time>
      </trkpt>
      <trkpt lat="46.02749" lon="3.62931">
        <ele>655.55</ele>
        <time>2013-11-01T12:50:36Z</time>
      </trkpt>
      <trkpt lat="46.02741" lon="3.62903">
        <ele>656.05</ele>
        <time>2013-11-01T12:50:40Z</time>
      </trkpt>
      <trkpt lat="46.02736" lon="3.62871">
        <ele>656.52</ele>
        <time>2013-11-01T12:50:44Z</time>
      </trkpt>
      <trkpt lat="46.02732" lon="3.62841">
        <ele>656.55</ele>
        <time>2013-11-01T12:50:48Z</time>
      </trkpt>
      <trkpt lat="46.02726" lon="3.62813">
        <ele>655.68</ele>
        <time>2013-11-01T12:50:52Z</time>
      </trkpt>
      <trkpt lat="46.0272" lon="3.62785">
        <ele>655.56</ele>
        <time>2013-11-01T12:50:56Z</time>
      </trkpt>
      <trkpt lat="46.02714" lon="3.62757">
        <ele>656.52</ele>
        <time>2013-11-01T12:51:01Z</time>
      </trkpt>
      <trkpt lat="46.02708" lon="3.62727">
        <ele>656.74</ele>
        <time>2013-11-01T12:51:06Z</time>
      </trkpt>
      <trkpt lat="46.02705" lon="3.62699">
        <ele>654.72</ele>
        <time>2013-11-01T12:51:11Z</time>
      </trkpt>
      <trkpt lat="46.02702" lon="3.62673">
        <ele>653.81</ele>
        <time>2013-11-01T12:51:15Z</time>
      </trkpt>
      <trkpt lat="46.02697" lon="3.62645">
        <ele>652.69</ele>
        <time>2013-11-01T12:51:20Z</time>
      </trkpt>
      <trkpt lat="46.02696" lon="3.62611">
        <ele>652.56</ele>
        <time>2013-11-01T12:51:25Z</time>
      </trkpt>
      <trkpt lat="46.02696" lon="3.62581">
        <ele>651.68</ele>
        <time>2013-11-01T12:51:29Z</time>
      </trkpt>
      <trkpt lat="46.02699" lon="3.62553">
        <ele>650.69</ele>
        <time>2013-11-01T12:51:32Z</time>
      </trkpt>
      <trkpt lat="46.02702" lon="3.62525">
        <ele>650.07</ele>
        <time>2013-11-01T12:51:35Z</time>
      </trkpt>
      <trkpt lat="46.02707" lon="3.62499">
        <ele>649.62</ele>
        <time>2013-11-01T12:51:38Z</time>
      </trkpt>
      <trkpt lat="46.02713" lon="3.62474">
        <ele>649.56</ele>
        <time>2013-11-01T12:51:41Z</time>
      </trkpt>
      <trkpt lat="46.02717" lon="3.62446">
        <ele>649.05</ele>
        <time>2013-11-01T12:51:44Z</time>
      </trkpt>
      <trkpt lat="46.02719" lon="3.62416">
        <ele>648.12</ele>
        <time>2013-11-01T12:51:47Z</time>
      </trkpt>
      <trkpt lat="46.02721" lon="3.62388">
        <ele>647.62</ele>
        <time>2013-11-01T12:51:50Z</time>
      </trkpt>
      <trkpt lat="46.02725" lon="3.62356">
        <ele>646.18</ele>
        <time>2013-11-01T12:51:54Z</time>
      </trkpt>
      <trkpt lat="46.02731" lon="3.62328">
        <ele>643.51</ele>
        <time>2013-11-01T12:51:57Z</time>
      </trkpt>
      <trkpt lat="46.02736" lon="3.62291">
        <ele>640.55</ele>
        <time>2013-11-01T12:52:00Z</time>
      </trkpt>
      <trkpt lat="46.02744" lon="3.62255">
        <ele>639.68</ele>
        <time>2013-11-01T12:52:03Z</time>
      </trkpt>
      <trkpt lat="46.02752" lon="3.62225">
        <ele>638.69</ele>
        <time>2013-11-01T12:52:06Z</time>
      </trkpt>
      <trkpt lat="46.0276" lon="3.62201">
        <ele>636.55</ele>
        <time>2013-11-01T12:52:52Z</time>
      </trkpt>
      <trkpt lat="46.02767" lon="3.62173">
        <ele>634.59</ele>
        <time>2013-11-01T12:52:59Z</time>
      </trkpt>
      <trkpt lat="46.02774" lon="3.62148">
        <ele>631.8</ele>
        <time>2013-11-01T12:53:39Z</time>
      </trkpt>
      <trkpt lat="46.02778" lon="3.6212">
        <ele>628.58</ele>
        <time>2013-11-01T12:53:42Z</time>
      </trkpt>
      <trkpt lat="46.02784" lon="3.62085">
        <ele>627.68</ele>
        <time>2013-11-01T12:53:45Z</time>
      </trkpt>
      <trkpt lat="46.0279" lon="3.6206">
        <ele>628.09</ele>
        <time>2013-11-01T12:53:47Z</time>
      </trkpt>
      <trkpt lat="46.02799" lon="3.62023">
        <ele>629.24</ele>
        <time>2013-11-01T12:53:50Z</time>
      </trkpt>
      <trkpt lat="46.02811" lon="3.61989">
        <ele>630.39</ele>
        <time>2013-11-01T12:53:53Z</time>
      </trkpt>
      <trkpt lat="46.02822" lon="3.61959">
        <ele>629.16</ele>
        <time>2013-11-01T12:53:56Z</time>
      </trkpt>
      <trkpt lat="46.02833" lon="3.61929">
        <ele>628.13</ele>
        <time>2013-11-01T12:53:59Z</time>
      </trkpt>
      <trkpt lat="46.02841" lon="3.61901">
        <ele>627.62</ele>
        <time>2013-11-01T12:54:02Z</time>
      </trkpt>
      <trkpt lat="46.0285" lon="3.61873">
        <ele>627.56</ele>
        <time>2013-11-01T12:54:05Z</time>
      </trkpt>
      <trkpt lat="46.02858" lon="3.61847">
        <ele>625.87</ele>
        <time>2013-11-01T12:54:09Z</time>
      </trkpt>
      <trkpt lat="46.02846" lon="3.61826">
        <ele>622.39</ele>
        <time>2013-11-01T12:54:15Z</time>
      </trkpt>
      <trkpt lat="46.02824" lon="3.61826">
        <ele>620.05</ele>
        <time>2013-11-01T12:54:25Z</time>
      </trkpt>
      <trkpt lat="46.02806" lon="3.61836">
        <ele>617.83</ele>
        <time>2013-11-01T12:54:56Z</time>
      </trkpt>
      <trkpt lat="46.02785" lon="3.61847">
        <ele>613.82</ele>
        <time>2013-11-01T12:55:00Z</time>
      </trkpt>
      <trkpt lat="46.02768" lon="3.61856">
        <ele>610.59</ele>
        <time>2013-11-01T12:55:03Z</time>
      </trkpt>
      <trkpt lat="46.02749" lon="3.6186">
        <ele>608.93</ele>
        <time>2013-11-01T12:55:06Z</time>
      </trkpt>
      <trkpt lat="46.02731" lon="3.61862">
        <ele>608.6</ele>
        <time>2013-11-01T12:55:09Z</time>
      </trkpt>
      <trkpt lat="46.02711" lon="3.61864">
        <ele>608.56</ele>
        <time>2013-11-01T12:55:12Z</time>
      </trkpt>
      <trkpt lat="46.02691" lon="3.61875">
        <ele>607.62</ele>
        <time>2013-11-01T12:55:16Z</time>
      </trkpt>
      <trkpt lat="46.02674" lon="3.61886">
        <ele>607.06</ele>
        <time>2013-11-01T12:55:20Z</time>
      </trkpt>
      <trkpt lat="46.02655" lon="3.6189">
        <ele>606.58</ele>
        <time>2013-11-01T12:55:24Z</time>
      </trkpt>
      <trkpt lat="46.02633" lon="3.6189">
        <ele>606.55</ele>
        <time>2013-11-01T12:55:28Z</time>
      </trkpt>
      <trkpt lat="46.02611" lon="3.61884">
        <ele>605.62</ele>
        <time>2013-11-01T12:55:32Z</time>
      </trkpt>
      <trkpt lat="46.02591" lon="3.61875">
        <ele>604.81</ele>
        <time>2013-11-01T12:55:35Z</time>
      </trkpt>
      <trkpt lat="46.02574" lon="3.61862">
        <ele>604.56</ele>
        <time>2013-11-01T12:55:41Z</time>
      </trkpt>
      <trkpt lat="46.02556" lon="3.61849">
        <ele>603.3</ele>
        <time>2013-11-01T12:55:48Z</time>
      </trkpt>
      <trkpt lat="46.02538" lon="3.61839">
        <ele>600.36</ele>
        <time>2013-11-01T12:55:53Z</time>
      </trkpt>
      <trkpt lat="46.0252" lon="3.61828">
        <ele>599.58</ele>
        <time>2013-11-01T12:55:58Z</time>
      </trkpt>
      <trkpt lat="46.02499" lon="3.61819">
        <ele>598.8</ele>
        <time>2013-11-01T12:56:04Z</time>
      </trkpt>
      <trkpt lat="46.02478" lon="3.61815">
        <ele>598.06</ele>
        <time>2013-11-01T12:56:09Z</time>
      </trkpt>
      <trkpt lat="46.02457" lon="3.61819">
        <ele>592.46</ele>
        <time>2013-11-01T12:56:13Z</time>
      </trkpt>
      <trkpt lat="46.02438" lon="3.61824">
        <ele>586.05</ele>
        <time>2013-11-01T12:56:17Z</time>
      </trkpt>
      <trkpt lat="46.0242" lon="3.61824">
        <ele>583.65</ele>
        <time>2013-11-01T12:56:21Z</time>
      </trkpt>
      <trkpt lat="46.02399" lon="3.61828">
        <ele>579.81</ele>
        <time>2013-11-01T12:56:26Z</time>
      </trkpt>
      <trkpt lat="46.02381" lon="3.61841">
        <ele>579.57</ele>
        <time>2013-11-01T12:56:30Z</time>
      </trkpt>
      <trkpt lat="46.02361" lon="3.61851">
        <ele>580.43</ele>
        <time>2013-11-01T12:56:34Z</time>
      </trkpt>
      <trkpt lat="46.02343" lon="3.6186">
        <ele>581.41</ele>
        <time>2013-11-01T12:56:37Z</time>
      </trkpt>
      <trkpt lat="46.02326" lon="3.61873">
        <ele>582.04</ele>
        <time>2013-11-01T12:56:40Z</time>
      </trkpt>
      <trkpt lat="46.02308" lon="3.61894">
        <ele>582.52</ele>
        <time>2013-11-01T12:56:44Z</time>
      </trkpt>
      <trkpt lat="46.02286" lon="3.6192">
        <ele>581.55</ele>
        <time>2013-11-01T12:57:02Z</time>
      </trkpt>
      <trkpt lat="46.02268" lon="3.61942">
        <ele>580.3</ele>
        <time>2013-11-01T12:57:04Z</time>
      </trkpt>
      <trkpt lat="46.02248" lon="3.61961">
        <ele>578.99</ele>
        <time>2013-11-01T12:57:06Z</time>
      </trkpt>
      <trkpt lat="46.02234" lon="3.61978">
        <ele>577.91</ele>
        <time>2013-11-01T12:57:08Z</time>
      </trkpt>
      <trkpt lat="46.02221" lon="3.61997">
        <ele>576.89</ele>
        <time>2013-11-01T12:57:10Z</time>
      </trkpt>
      <trkpt lat="46.02209" lon="3.62019">
        <ele>575.39</ele>
        <time>2013-11-01T12:57:12Z</time>
      </trkpt>
      <trkpt lat="46.02199" lon="3.6204">
        <ele>573.51</ele>
        <time>2013-11-01T12:57:14Z</time>
      </trkpt>
      <trkpt lat="46.02183" lon="3.6207">
        <ele>571.92</ele>
        <time>2013-11-01T12:57:17Z</time>
      </trkpt>
      <trkpt lat="46.02165" lon="3.621">
        <ele>570.22</ele>
        <time>2013-11-01T12:57:20Z</time>
      </trkpt>
      <trkpt lat="46.02149" lon="3.62122">
        <ele>568.39</ele>
        <time>2013-11-01T12:57:23Z</time>
      </trkpt>
      <trkpt lat="46.02131" lon="3.62135">
        <ele>565.53</ele>
        <time>2013-11-01T12:57:26Z</time>
      </trkpt>
      <trkpt lat="46.02112" lon="3.62139">
        <ele>563.05</ele>
        <time>2013-11-01T12:57:29Z</time>
      </trkpt>
      <trkpt lat="46.02088" lon="3.62139">
        <ele>561.74</ele>
        <time>2013-11-01T12:57:32Z</time>
      </trkpt>
      <trkpt lat="46.02062" lon="3.62139">
        <ele>560.7</ele>
        <time>2013-11-01T12:57:35Z</time>
      </trkpt>
      <trkpt lat="46.02044" lon="3.62139">
        <ele>560.59</ele>
        <time>2013-11-01T12:57:37Z</time>
      </trkpt>
      <trkpt lat="46.02026" lon="3.62139">
        <ele>560.06</ele>
        <time>2013-11-01T12:57:39Z</time>
      </trkpt>
      <trkpt lat="46.02008" lon="3.62139">
        <ele>559.68</ele>
        <time>2013-11-01T12:57:41Z</time>
      </trkpt>
      <trkpt lat="46.01989" lon="3.62139">
        <ele>558.83</ele>
        <time>2013-11-01T12:57:43Z</time>
      </trkpt>
      <trkpt lat="46.01968" lon="3.6213">
        <ele>558.62</ele>
        <time>2013-11-01T12:57:45Z</time>
      </trkpt>
      <trkpt lat="46.01948" lon="3.62118">
        <ele>557.82</ele>
        <time>2013-11-01T12:57:47Z</time>
      </trkpt>
      <trkpt lat="46.01929" lon="3.621">
        <ele>557.12</ele>
        <time>2013-11-01T12:57:49Z</time>
      </trkpt>
      <trkpt lat="46.01912" lon="3.62085">
        <ele>556.69</ele>
        <time>2013-11-01T12:57:51Z</time>
      </trkpt>
      <trkpt lat="46.01896" lon="3.6207">
        <ele>555.84</ele>
        <time>2013-11-01T12:57:53Z</time>
      </trkpt>
      <trkpt lat="46.01881" lon="3.62055">
        <ele>554.37</ele>
        <time>2013-11-01T12:57:55Z</time>
      </trkpt>
      <trkpt lat="46.01862" lon="3.62032">
        <ele>552.41</ele>
        <time>2013-11-01T12:57:58Z</time>
      </trkpt>
      <trkpt lat="46.01852" lon="3.62006">
        <ele>551.27</ele>
        <time>2013-11-01T12:58:00Z</time>
      </trkpt>
      <trkpt lat="46.01845" lon="3.61982">
        <ele>549.48</ele>
        <time>2013-11-01T12:58:02Z</time>
      </trkpt>
      <trkpt lat="46.01835" lon="3.6195">
        <ele>546.92</ele>
        <time>2013-11-01T12:58:05Z</time>
      </trkpt>
      <trkpt lat="46.01826" lon="3.61918">
        <ele>542.58</ele>
        <time>2013-11-01T12:58:09Z</time>
      </trkpt>
      <trkpt lat="46.01816" lon="3.61897">
        <ele>538.68</ele>
        <time>2013-11-01T12:58:12Z</time>
      </trkpt>
      <trkpt lat="46.01802" lon="3.61877">
        <ele>533.44</ele>
        <time>2013-11-01T12:58:15Z</time>
      </trkpt>
      <trkpt lat="46.01783" lon="3.61866">
        <ele>529.53</ele>
        <time>2013-11-01T12:58:17Z</time>
      </trkpt>
      <trkpt lat="46.01762" lon="3.61856">
        <ele>525.55</ele>
        <time>2013-11-01T12:58:19Z</time>
      </trkpt>
      <trkpt lat="46.01739" lon="3.61845">
        <ele>521.55</ele>
        <time>2013-11-01T12:58:21Z</time>
      </trkpt>
      <trkpt lat="46.01721" lon="3.61836">
        <ele>518.3</ele>
        <time>2013-11-01T12:58:23Z</time>
      </trkpt>
      <trkpt lat="46.017" lon="3.61826">
        <ele>512.9</ele>
        <time>2013-11-01T12:58:26Z</time>
      </trkpt>
      <trkpt lat="46.01677" lon="3.61809">
        <ele>509.57</ele>
        <time>2013-11-01T12:58:33Z</time>
      </trkpt>
      <trkpt lat="46.0166" lon="3.618">
        <ele>505.07</ele>
        <time>2013-11-01T12:58:47Z</time>
      </trkpt>
      <trkpt lat="46.0164" lon="3.61794">
        <ele>500.59</ele>
        <time>2013-11-01T12:58:57Z</time>
      </trkpt>
      <trkpt lat="46.01621" lon="3.61776">
        <ele>497.18</ele>
        <time>2013-11-01T12:59:11Z</time>
      </trkpt>
      <trkpt lat="46.01605" lon="3.61759">
        <ele>495.15</ele>
        <time>2013-11-01T12:59:15Z</time>
      </trkpt>
      <trkpt lat="46.0159" lon="3.61744">
        <ele>493.72</ele>
        <time>2013-11-01T12:59:19Z</time>
      </trkpt>
      <trkpt lat="46.0157" lon="3.61723">
        <ele>491.12</ele>
        <time>2013-11-01T12:59:26Z</time>
      </trkpt>
      <trkpt lat="46.01554" lon="3.6171">
        <ele>489.7</ele>
        <time>2013-11-01T12:59:31Z</time>
      </trkpt>
      <trkpt lat="46.01536" lon="3.61697">
        <ele>488.62</ele>
        <time>2013-11-01T12:59:36Z</time>
      </trkpt>
      <trkpt lat="46.01515" lon="3.61697">
        <ele>486.55</ele>
        <time>2013-11-01T12:59:50Z</time>
      </trkpt>
      <trkpt lat="46.0151" lon="3.61729">
        <ele>481.56</ele>
        <time>2013-11-01T13:00:50Z</time>
      </trkpt>
      <trkpt lat="46.01494" lon="3.61746">
        <ele>481.55</ele>
        <time>2013-11-01T13:00:59Z</time>
      </trkpt>
      <trkpt lat="46.01473" lon="3.61755">
        <ele>481.55</ele>
        <time>2013-11-01T13:01:07Z</time>
      </trkpt>
      <trkpt lat="46.01452" lon="3.61761">
        <ele>481.55</ele>
        <time>2013-11-01T13:01:15Z</time>
      </trkpt>
      <trkpt lat="46.0143" lon="3.61763">
        <ele>481.55</ele>
        <time>2013-11-01T13:01:22Z</time>
      </trkpt>
      <trkpt lat="46.01412" lon="3.61772">
        <ele>481.55</ele>
        <time>2013-11-01T13:01:27Z</time>
      </trkpt>
      <trkpt lat="46.01391" lon="3.61783">
        <ele>481.55</ele>
        <time>2013-11-01T13:01:32Z</time>
      </trkpt>
      <trkpt lat="46.01372" lon="3.61798">
        <ele>479.93</ele>
        <time>2013-11-01T13:01:35Z</time>
      </trkpt>
      <trkpt lat="46.01355" lon="3.61811">
        <ele>478.6</ele>
        <time>2013-11-01T13:01:40Z</time>
      </trkpt>
      <trkpt lat="46.01335" lon="3.61819">
        <ele>477.8</ele>
        <time>2013-11-01T13:01:46Z</time>
      </trkpt>
      <trkpt lat="46.01333" lon="3.61845">
        <ele>476.81</ele>
        <time>2013-11-01T13:01:51Z</time>
      </trkpt>
      <trkpt lat="46.01332" lon="3.61875">
        <ele>476.06</ele>
        <time>2013-11-01T13:01:56Z</time>
      </trkpt>
      <trkpt lat="46.0133" lon="3.61903">
        <ele>475.06</ele>
        <time>2013-11-01T13:02:02Z</time>
      </trkpt>
      <trkpt lat="46.0133" lon="3.61933">
        <ele>474.56</ele>
        <time>2013-11-01T13:02:08Z</time>
      </trkpt>
      <trkpt lat="46.01332" lon="3.61959">
        <ele>473.08</ele>
        <time>2013-11-01T13:02:13Z</time>
      </trkpt>
      <trkpt lat="46.01336" lon="3.61991">
        <ele>472.06</ele>
        <time>2013-11-01T13:02:20Z</time>
      </trkpt>
      <trkpt lat="46.01341" lon="3.62021">
        <ele>471.55</ele>
        <time>2013-11-01T13:02:28Z</time>
      </trkpt>
      <trkpt lat="46.01342" lon="3.62053">
        <ele>471.55</ele>
        <time>2013-11-01T13:02:36Z</time>
      </trkpt>
      <trkpt lat="46.01335" lon="3.62077">
        <ele>471.55</ele>
        <time>2013-11-01T13:02:47Z</time>
      </trkpt>
      <trkpt lat="46.01325" lon="3.621">
        <ele>472.55</ele>
        <time>2013-11-01T13:02:58Z</time>
      </trkpt>
      <trkpt lat="46.01306" lon="3.62111">
        <ele>474.04</ele>
        <time>2013-11-01T13:03:09Z</time>
      </trkpt>
      <trkpt lat="46.01286" lon="3.62113">
        <ele>476.02</ele>
        <time>2013-11-01T13:03:17Z</time>
      </trkpt>
      <trkpt lat="46.01273" lon="3.62133">
        <ele>479.05</ele>
        <time>2013-11-01T13:03:31Z</time>
      </trkpt>
      <trkpt lat="46.01269" lon="3.6216">
        <ele>482.99</ele>
        <time>2013-11-01T13:03:41Z</time>
      </trkpt>
      <trkpt lat="46.0126" lon="3.62193">
        <ele>485.48</ele>
        <time>2013-11-01T13:03:47Z</time>
      </trkpt>
      <trkpt lat="46.01245" lon="3.62214">
        <ele>488.01</ele>
        <time>2013-11-01T13:03:54Z</time>
      </trkpt>
      <trkpt lat="46.01224" lon="3.62223">
        <ele>489.99</ele>
        <time>2013-11-01T13:04:01Z</time>
      </trkpt>
      <trkpt lat="46.01209" lon="3.6224">
        <ele>491.48</ele>
        <time>2013-11-01T13:04:07Z</time>
      </trkpt>
      <trkpt lat="46.01199" lon="3.62266">
        <ele>493.05</ele>
        <time>2013-11-01T13:04:17Z</time>
      </trkpt>
      <trkpt lat="46.01188" lon="3.62289">
        <ele>494.4</ele>
        <time>2013-11-01T13:04:21Z</time>
      </trkpt>
      <trkpt lat="46.01172" lon="3.62306">
        <ele>495.41</ele>
        <time>2013-11-01T13:04:24Z</time>
      </trkpt>
      <trkpt lat="46.01153" lon="3.62319">
        <ele>495.54</ele>
        <time>2013-11-01T13:04:28Z</time>
      </trkpt>
      <trkpt lat="46.01135" lon="3.62332">
        <ele>496.43</ele>
        <time>2013-11-01T13:04:33Z</time>
      </trkpt>
      <trkpt lat="46.0112" lon="3.62347">
        <ele>496.55</ele>
        <time>2013-11-01T13:04:38Z</time>
      </trkpt>
      <trkpt lat="46.01113" lon="3.62371">
        <ele>496.55</ele>
        <time>2013-11-01T13:04:43Z</time>
      </trkpt>
      <trkpt lat="46.01111" lon="3.62399">
        <ele>496.55</ele>
        <time>2013-11-01T13:04:48Z</time>
      </trkpt>
      <trkpt lat="46.01109" lon="3.62431">
        <ele>496.55</ele>
        <time>2013-11-01T13:04:55Z</time>
      </trkpt>
      <trkpt lat="46.01103" lon="3.62467">
        <ele>496.05</ele>
        <time>2013-11-01T13:05:06Z</time>
      </trkpt>
      <trkpt lat="46.01085" lon="3.62467">
        <ele>501.12</ele>
        <time>2013-11-01T13:07:00Z</time>
      </trkpt>
      <trkpt lat="46.01071" lon="3.62448">
        <ele>503.04</ele>
        <time>2013-11-01T13:07:07Z</time>
      </trkpt>
      <trkpt lat="46.01057" lon="3.62431">
        <ele>503.55</ele>
        <time>2013-11-01T13:07:13Z</time>
      </trkpt>
      <trkpt lat="46.01042" lon="3.62411">
        <ele>503.55</ele>
        <time>2013-11-01T13:07:20Z</time>
      </trkpt>
      <trkpt lat="46.01022" lon="3.62405">
        <ele>503.55</ele>
        <time>2013-11-01T13:07:27Z</time>
      </trkpt>
      <trkpt lat="46.01001" lon="3.62409">
        <ele>503.55</ele>
        <time>2013-11-01T13:07:33Z</time>
      </trkpt>
      <trkpt lat="46.00983" lon="3.62409">
        <ele>503.55</ele>
        <time>2013-11-01T13:07:39Z</time>
      </trkpt>
      <trkpt lat="46.00963" lon="3.62411">
        <ele>503.55</ele>
        <time>2013-11-01T13:07:46Z</time>
      </trkpt>
      <trkpt lat="46.00943" lon="3.62411">
        <ele>503.55</ele>
        <time>2013-11-01T13:07:54Z</time>
      </trkpt>
      <trkpt lat="46.00925" lon="3.62405">
        <ele>504.55</ele>
        <time>2013-11-01T13:08:03Z</time>
      </trkpt>
      <trkpt lat="46.00906" lon="3.62401">
        <ele>505.55</ele>
        <time>2013-11-01T13:08:13Z</time>
      </trkpt>
      <trkpt lat="46.0091" lon="3.62427">
        <ele>506.55</ele>
        <time>2013-11-01T13:08:34Z</time>
      </trkpt>
      <trkpt lat="46.00923" lon="3.62448">
        <ele>507.05</ele>
        <time>2013-11-01T13:08:47Z</time>
      </trkpt>
      <trkpt lat="46.00932" lon="3.62474">
        <ele>505.8</ele>
        <time>2013-11-01T13:08:55Z</time>
      </trkpt>
      <trkpt lat="46.00929" lon="3.62499">
        <ele>504.69</ele>
        <time>2013-11-01T13:08:59Z</time>
      </trkpt>
      <trkpt lat="46.00928" lon="3.62534">
        <ele>502.71</ele>
        <time>2013-11-01T13:09:04Z</time>
      </trkpt>
      <trkpt lat="46.0093" lon="3.62568">
        <ele>497.13</ele>
        <time>2013-11-01T13:09:08Z</time>
      </trkpt>
      <trkpt lat="46.00928" lon="3.62596">
        <ele>490.62</ele>
        <time>2013-11-01T13:09:11Z</time>
      </trkpt>
      <trkpt lat="46.00926" lon="3.62624">
        <ele>485.44</ele>
        <time>2013-11-01T13:09:14Z</time>
      </trkpt>
      <trkpt lat="46.00922" lon="3.62654">
        <ele>483.73</ele>
        <time>2013-11-01T13:09:18Z</time>
      </trkpt>
      <trkpt lat="46.00909" lon="3.62688">
        <ele>481.56</ele>
        <time>2013-11-01T13:09:25Z</time>
      </trkpt>
      <trkpt lat="46.00898" lon="3.6271">
        <ele>479.13</ele>
        <time>2013-11-01T13:09:31Z</time>
      </trkpt>
      <trkpt lat="46.0089" lon="3.62733">
        <ele>479.06</ele>
        <time>2013-11-01T13:09:39Z</time>
      </trkpt>
      <trkpt lat="46.00884" lon="3.62761">
        <ele>488.43</ele>
        <time>2013-11-01T13:12:15Z</time>
      </trkpt>
      <trkpt lat="46.00881" lon="3.62789">
        <ele>490.86</ele>
        <time>2013-11-01T13:12:19Z</time>
      </trkpt>
      <trkpt lat="46.00881" lon="3.62819">
        <ele>492.34</ele>
        <time>2013-11-01T13:12:22Z</time>
      </trkpt>
      <trkpt lat="46.00883" lon="3.62845">
        <ele>492.53</ele>
        <time>2013-11-01T13:12:25Z</time>
      </trkpt>
      <trkpt lat="46.00889" lon="3.62875">
        <ele>494.18</ele>
        <time>2013-11-01T13:12:29Z</time>
      </trkpt>
      <trkpt lat="46.00898" lon="3.62901">
        <ele>495.53</ele>
        <time>2013-11-01T13:12:35Z</time>
      </trkpt>
      <trkpt lat="46.00913" lon="3.62916">
        <ele>500.2</ele>
        <time>2013-11-01T13:12:43Z</time>
      </trkpt>
      <trkpt lat="46.0093" lon="3.62926">
        <ele>506.89</ele>
        <time>2013-11-01T13:13:00Z</time>
      </trkpt>
      <trkpt lat="46.00945" lon="3.62942">
        <ele>510.05</ele>
        <time>2013-11-01T13:13:17Z</time>
      </trkpt>
      <trkpt lat="46.00963" lon="3.62954">
        <ele>515.2</ele>
        <time>2013-11-01T13:13:27Z</time>
      </trkpt>
      <trkpt lat="46.00979" lon="3.62967">
        <ele>520.88</ele>
        <time>2013-11-01T13:13:37Z</time>
      </trkpt>
      <trkpt lat="46.00996" lon="3.62976">
        <ele>526.22</ele>
        <time>2013-11-01T13:13:48Z</time>
      </trkpt>
      <trkpt lat="46.01011" lon="3.62991">
        <ele>530.92</ele>
        <time>2013-11-01T13:14:01Z</time>
      </trkpt>
      <trkpt lat="46.01024" lon="3.63012">
        <ele>537.26</ele>
        <time>2013-11-01T13:14:17Z</time>
      </trkpt>
      <trkpt lat="46.01038" lon="3.63029">
        <ele>541.42</ele>
        <time>2013-11-01T13:14:31Z</time>
      </trkpt>
      <trkpt lat="46.01051" lon="3.63049">
        <ele>544.49</ele>
        <time>2013-11-01T13:14:44Z</time>
      </trkpt>
      <trkpt lat="46.01063" lon="3.6307">
        <ele>547.49</ele>
        <time>2013-11-01T13:14:59Z</time>
      </trkpt>
      <trkpt lat="46.01074" lon="3.63092">
        <ele>549.55</ele>
        <time>2013-11-01T13:15:16Z</time>
      </trkpt>
      <trkpt lat="46.01081" lon="3.63117">
        <ele>551.55</ele>
        <time>2013-11-01T13:15:30Z</time>
      </trkpt>
      <trkpt lat="46.0109" lon="3.63141">
        <ele>553.54</ele>
        <time>2013-11-01T13:15:44Z</time>
      </trkpt>
      <trkpt lat="46.01101" lon="3.63163">
        <ele>554.55</ele>
        <time>2013-11-01T13:16:07Z</time>
      </trkpt>
      <trkpt lat="46.01109" lon="3.63186">
        <ele>569.3</ele>
        <time>2013-11-01T13:18:38Z</time>
      </trkpt>
      <trkpt lat="46.01116" lon="3.6321">
        <ele>570.55</ele>
        <time>2013-11-01T13:18:55Z</time>
      </trkpt>
      <trkpt lat="46.01126" lon="3.63233">
        <ele>571.52</ele>
        <time>2013-11-01T13:19:10Z</time>
      </trkpt>
      <trkpt lat="46.01133" lon="3.63257">
        <ele>586.55</ele>
        <time>2013-11-01T13:30:11Z</time>
      </trkpt>
      <trkpt lat="46.01144" lon="3.63283">
        <ele>586.55</ele>
        <time>2013-11-01T13:30:18Z</time>
      </trkpt>
      <trkpt lat="46.01154" lon="3.63308">
        <ele>585.62</ele>
        <time>2013-11-01T13:30:26Z</time>
      </trkpt>
      <trkpt lat="46.01161" lon="3.63334">
        <ele>585.55</ele>
        <time>2013-11-01T13:30:35Z</time>
      </trkpt>
      <trkpt lat="46.0117" lon="3.63358">
        <ele>584.57</ele>
        <time>2013-11-01T13:30:44Z</time>
      </trkpt>
      <trkpt lat="46.01177" lon="3.63384">
        <ele>584.55</ele>
        <time>2013-11-01T13:30:52Z</time>
      </trkpt>
      <trkpt lat="46.01189" lon="3.63405">
        <ele>584.55</ele>
        <time>2013-11-01T13:31:01Z</time>
      </trkpt>
      <trkpt lat="46.01202" lon="3.63426">
        <ele>583.56</ele>
        <time>2013-11-01T13:31:09Z</time>
      </trkpt>
      <trkpt lat="46.01217" lon="3.63446">
        <ele>583.55</ele>
        <time>2013-11-01T13:31:16Z</time>
      </trkpt>
      <trkpt lat="46.0123" lon="3.63467">
        <ele>583.55</ele>
        <time>2013-11-01T13:31:23Z</time>
      </trkpt>
      <trkpt lat="46.01238" lon="3.63491">
        <ele>582.68</ele>
        <time>2013-11-01T13:31:29Z</time>
      </trkpt>
      <trkpt lat="46.01247" lon="3.63514">
        <ele>582.55</ele>
        <time>2013-11-01T13:31:36Z</time>
      </trkpt>
      <trkpt lat="46.01257" lon="3.6354">
        <ele>581.68</ele>
        <time>2013-11-01T13:31:43Z</time>
      </trkpt>
      <trkpt lat="46.01268" lon="3.63564">
        <ele>581.55</ele>
        <time>2013-11-01T13:31:50Z</time>
      </trkpt>
      <trkpt lat="46.01279" lon="3.63585">
        <ele>582.3</ele>
        <time>2013-11-01T13:31:57Z</time>
      </trkpt>
      <trkpt lat="46.01292" lon="3.63605">
        <ele>584.02</ele>
        <time>2013-11-01T13:32:04Z</time>
      </trkpt>
      <trkpt lat="46.01295" lon="3.63641">
        <ele>604.55</ele>
        <time>2013-11-01T13:39:43Z</time>
      </trkpt>
      <trkpt lat="46.01303" lon="3.63617">
        <ele>604.55</ele>
        <time>2013-11-01T13:40:11Z</time>
      </trkpt>
      <trkpt lat="46.01316" lon="3.63637">
        <ele>607.54</ele>
        <time>2013-11-01T13:43:25Z</time>
      </trkpt>
      <trkpt lat="46.0133" lon="3.63654">
        <ele>608.55</ele>
        <time>2013-11-01T13:43:32Z</time>
      </trkpt>
      <trkpt lat="46.01346" lon="3.63669">
        <ele>609.55</ele>
        <time>2013-11-01T13:43:39Z</time>
      </trkpt>
      <trkpt lat="46.01361" lon="3.63684">
        <ele>610.54</ele>
        <time>2013-11-01T13:43:46Z</time>
      </trkpt>
      <trkpt lat="46.01377" lon="3.63701">
        <ele>612.05</ele>
        <time>2013-11-01T13:43:55Z</time>
      </trkpt>
      <trkpt lat="46.0139" lon="3.63725">
        <ele>613.3</ele>
        <time>2013-11-01T13:44:04Z</time>
      </trkpt>
      <trkpt lat="46.01403" lon="3.63746">
        <ele>614.3</ele>
        <time>2013-11-01T13:44:11Z</time>
      </trkpt>
      <trkpt lat="46.01416" lon="3.63765">
        <ele>614.55</ele>
        <time>2013-11-01T13:44:18Z</time>
      </trkpt>
      <trkpt lat="46.01429" lon="3.63789">
        <ele>615.55</ele>
        <time>2013-11-01T13:44:25Z</time>
      </trkpt>
      <trkpt lat="46.01442" lon="3.63811">
        <ele>616.43</ele>
        <time>2013-11-01T13:44:32Z</time>
      </trkpt>
      <trkpt lat="46.01455" lon="3.6383">
        <ele>616.55</ele>
        <time>2013-11-01T13:44:38Z</time>
      </trkpt>
      <trkpt lat="46.01469" lon="3.63851">
        <ele>616.55</ele>
        <time>2013-11-01T13:44:45Z</time>
      </trkpt>
      <trkpt lat="46.01483" lon="3.63871">
        <ele>616.55</ele>
        <time>2013-11-01T13:44:52Z</time>
      </trkpt>
      <trkpt lat="46.015" lon="3.63886">
        <ele>615.56</ele>
        <time>2013-11-01T13:45:00Z</time>
      </trkpt>
      <trkpt lat="46.01513" lon="3.63905">
        <ele>615.55</ele>
        <time>2013-11-01T13:45:08Z</time>
      </trkpt>
      <trkpt lat="46.01528" lon="3.63922">
        <ele>616.52</ele>
        <time>2013-11-01T13:45:16Z</time>
      </trkpt>
      <trkpt lat="46.01546" lon="3.63935">
        <ele>617.49</ele>
        <time>2013-11-01T13:45:24Z</time>
      </trkpt>
      <trkpt lat="46.01563" lon="3.63948">
        <ele>617.55</ele>
        <time>2013-11-01T13:45:33Z</time>
      </trkpt>
      <trkpt lat="46.0158" lon="3.63963">
        <ele>618.43</ele>
        <time>2013-11-01T13:45:43Z</time>
      </trkpt>
      <trkpt lat="46.01597" lon="3.63978">
        <ele>619.3</ele>
        <time>2013-11-01T13:45:54Z</time>
      </trkpt>
      <trkpt lat="46.01614" lon="3.63991">
        <ele>620.54</ele>
        <time>2013-11-01T13:46:04Z</time>
      </trkpt>
      <trkpt lat="46.01628" lon="3.6401">
        <ele>622.49</ele>
        <time>2013-11-01T13:46:13Z</time>
      </trkpt>
      <trkpt lat="46.01641" lon="3.64029">
        <ele>624.52</ele>
        <time>2013-11-01T13:46:24Z</time>
      </trkpt>
      <trkpt lat="46.01656" lon="3.64044">
        <ele>625.55</ele>
        <time>2013-11-01T13:46:36Z</time>
      </trkpt>
      <trkpt lat="46.01672" lon="3.64059">
        <ele>627.3</ele>
        <time>2013-11-01T13:46:47Z</time>
      </trkpt>
      <trkpt lat="46.01685" lon="3.64079">
        <ele>629.42</ele>
        <time>2013-11-01T13:47:01Z</time>
      </trkpt>
      <trkpt lat="46.0169" lon="3.64105">
        <ele>632.04</ele>
        <time>2013-11-01T13:47:15Z</time>
      </trkpt>
      <trkpt lat="46.01692" lon="3.6413">
        <ele>634.29</ele>
        <time>2013-11-01T13:47:26Z</time>
      </trkpt>
      <trkpt lat="46.01699" lon="3.64156">
        <ele>638.27</ele>
        <time>2013-11-01T13:47:39Z</time>
      </trkpt>
      <trkpt lat="46.01699" lon="3.64184">
        <ele>642.42</ele>
        <time>2013-11-01T13:47:53Z</time>
      </trkpt>
      <trkpt lat="46.01699" lon="3.64212">
        <ele>648.98</ele>
        <time>2013-11-01T13:48:16Z</time>
      </trkpt>
      <trkpt lat="46.01701" lon="3.64238">
        <ele>652.29</ele>
        <time>2013-11-01T13:48:28Z</time>
      </trkpt>
      <trkpt lat="46.01703" lon="3.64263">
        <ele>654.49</ele>
        <time>2013-11-01T13:48:40Z</time>
      </trkpt>
      <trkpt lat="46.017" lon="3.64291">
        <ele>657.02</ele>
        <time>2013-11-01T13:48:49Z</time>
      </trkpt>
      <trkpt lat="46.01685" lon="3.64308">
        <ele>658.49</ele>
        <time>2013-11-01T13:48:56Z</time>
      </trkpt>
      <trkpt lat="46.01662" lon="3.64321">
        <ele>663.17</ele>
        <time>2013-11-01T13:49:00Z</time>
      </trkpt>
      <trkpt lat="46.01643" lon="3.64332">
        <ele>666.15</ele>
        <time>2013-11-01T13:49:04Z</time>
      </trkpt>
      <trkpt lat="46.01622" lon="3.64338">
        <ele>668.22</ele>
        <time>2013-11-01T13:49:08Z</time>
      </trkpt>
      <trkpt lat="46.01601" lon="3.64343">
        <ele>669.41</ele>
        <time>2013-11-01T13:49:12Z</time>
      </trkpt>
      <trkpt lat="46.0158" lon="3.64347">
        <ele>666.77</ele>
        <time>2013-11-01T13:49:17Z</time>
      </trkpt>
      <trkpt lat="46.01559" lon="3.64351">
        <ele>666.56</ele>
        <time>2013-11-01T13:49:22Z</time>
      </trkpt>
      <trkpt lat="46.01542" lon="3.64364">
        <ele>665.62</ele>
        <time>2013-11-01T13:49:27Z</time>
      </trkpt>
      <trkpt lat="46.01525" lon="3.64379">
        <ele>664.68</ele>
        <time>2013-11-01T13:49:32Z</time>
      </trkpt>
      <trkpt lat="46.01509" lon="3.64392">
        <ele>663.81</ele>
        <time>2013-11-01T13:49:37Z</time>
      </trkpt>
      <trkpt lat="46.01492" lon="3.64409">
        <ele>662.31</ele>
        <time>2013-11-01T13:49:42Z</time>
      </trkpt>
      <trkpt lat="46.01474" lon="3.64426">
        <ele>660.61</ele>
        <time>2013-11-01T13:49:47Z</time>
      </trkpt>
      <trkpt lat="46.01458" lon="3.64448">
        <ele>660.55</ele>
        <time>2013-11-01T13:49:52Z</time>
      </trkpt>
      <trkpt lat="46.01445" lon="3.64467">
        <ele>660.55</ele>
        <time>2013-11-01T13:49:56Z</time>
      </trkpt>
      <trkpt lat="46.01429" lon="3.64484">
        <ele>660.55</ele>
        <time>2013-11-01T13:50:00Z</time>
      </trkpt>
      <trkpt lat="46.01413" lon="3.64499">
        <ele>661.55</ele>
        <time>2013-11-01T13:50:04Z</time>
      </trkpt>
      <trkpt lat="46.01393" lon="3.6451">
        <ele>668.12</ele>
        <time>2013-11-01T13:50:08Z</time>
      </trkpt>
      <trkpt lat="46.01372" lon="3.64525">
        <ele>673.46</ele>
        <time>2013-11-01T13:50:12Z</time>
      </trkpt>
      <trkpt lat="46.01355" lon="3.64538">
        <ele>675.17</ele>
        <time>2013-11-01T13:50:15Z</time>
      </trkpt>
      <trkpt lat="46.01336" lon="3.64547">
        <ele>677.13</ele>
        <time>2013-11-01T13:50:18Z</time>
      </trkpt>
      <trkpt lat="46.0132" lon="3.64559">
        <ele>678.38</ele>
        <time>2013-11-01T13:50:21Z</time>
      </trkpt>
      <trkpt lat="46.01304" lon="3.64574">
        <ele>679.28</ele>
        <time>2013-11-01T13:50:24Z</time>
      </trkpt>
      <trkpt lat="46.01288" lon="3.64604">
        <ele>678.77</ele>
        <time>2013-11-01T13:50:27Z</time>
      </trkpt>
      <trkpt lat="46.01275" lon="3.64628">
        <ele>678.61</ele>
        <time>2013-11-01T13:50:29Z</time>
      </trkpt>
      <trkpt lat="46.01262" lon="3.6465">
        <ele>678.57</ele>
        <time>2013-11-01T13:50:31Z</time>
      </trkpt>
      <trkpt lat="46.01249" lon="3.64669">
        <ele>678.06</ele>
        <time>2013-11-01T13:50:33Z</time>
      </trkpt>
      <trkpt lat="46.01235" lon="3.64686">
        <ele>677.68</ele>
        <time>2013-11-01T13:50:35Z</time>
      </trkpt>
      <trkpt lat="46.01218" lon="3.64699">
        <ele>675.94</ele>
        <time>2013-11-01T13:50:38Z</time>
      </trkpt>
      <trkpt lat="46.01198" lon="3.64714">
        <ele>677.2</ele>
        <time>2013-11-01T13:50:42Z</time>
      </trkpt>
      <trkpt lat="46.01179" lon="3.64712">
        <ele>678.38</ele>
        <time>2013-11-01T13:50:45Z</time>
      </trkpt>
      <trkpt lat="46.01157" lon="3.64716">
        <ele>677.17</ele>
        <time>2013-11-01T13:50:49Z</time>
      </trkpt>
      <trkpt lat="46.01139" lon="3.64722">
        <ele>675.25</ele>
        <time>2013-11-01T13:50:52Z</time>
      </trkpt>
      <trkpt lat="46.0112" lon="3.64727">
        <ele>673.39</ele>
        <time>2013-11-01T13:50:55Z</time>
      </trkpt>
      <trkpt lat="46.01103" lon="3.64735">
        <ele>670.53</ele>
        <time>2013-11-01T13:50:58Z</time>
      </trkpt>
      <trkpt lat="46.01084" lon="3.64746">
        <ele>667.49</ele>
        <time>2013-11-01T13:51:02Z</time>
      </trkpt>
      <trkpt lat="46.01066" lon="3.64755">
        <ele>665.67</ele>
        <time>2013-11-01T13:51:06Z</time>
      </trkpt>
      <trkpt lat="46.01044" lon="3.64755">
        <ele>666.53</ele>
        <time>2013-11-01T13:51:11Z</time>
      </trkpt>
      <trkpt lat="46.01024" lon="3.64753">
        <ele>666.55</ele>
        <time>2013-11-01T13:51:15Z</time>
      </trkpt>
      <trkpt lat="46.01002" lon="3.6475">
        <ele>662.74</ele>
        <time>2013-11-01T13:51:19Z</time>
      </trkpt>
      <trkpt lat="46.00982" lon="3.64746">
        <ele>658.56</ele>
        <time>2013-11-01T13:51:23Z</time>
      </trkpt>
      <trkpt lat="46.00963" lon="3.64738">
        <ele>656.87</ele>
        <time>2013-11-01T13:51:27Z</time>
      </trkpt>
      <trkpt lat="46.00948" lon="3.64714">
        <ele>655.7</ele>
        <time>2013-11-01T13:51:31Z</time>
      </trkpt>
      <trkpt lat="46.00937" lon="3.64692">
        <ele>655.56</ele>
        <time>2013-11-01T13:51:35Z</time>
      </trkpt>
      <trkpt lat="46.00924" lon="3.64673">
        <ele>655.05</ele>
        <time>2013-11-01T13:51:40Z</time>
      </trkpt>
      <trkpt lat="46.00909" lon="3.6465">
        <ele>654.57</ele>
        <time>2013-11-01T13:51:45Z</time>
      </trkpt>
      <trkpt lat="46.00894" lon="3.64624">
        <ele>648.62</ele>
        <time>2013-11-01T13:51:49Z</time>
      </trkpt>
      <trkpt lat="46.00881" lon="3.64604">
        <ele>643.81</ele>
        <time>2013-11-01T13:51:52Z</time>
      </trkpt>
      <trkpt lat="46.00869" lon="3.64583">
        <ele>640.21</ele>
        <time>2013-11-01T13:51:55Z</time>
      </trkpt>
      <trkpt lat="46.00855" lon="3.64566">
        <ele>637.51</ele>
        <time>2013-11-01T13:51:58Z</time>
      </trkpt>
      <trkpt lat="46.00841" lon="3.64549">
        <ele>635.92</ele>
        <time>2013-11-01T13:52:01Z</time>
      </trkpt>
      <trkpt lat="46.00824" lon="3.64529">
        <ele>634.14</ele>
        <time>2013-11-01T13:52:05Z</time>
      </trkpt>
      <trkpt lat="46.0081" lon="3.6451">
        <ele>633.63</ele>
        <time>2013-11-01T13:52:08Z</time>
      </trkpt>
      <trkpt lat="46.00794" lon="3.64482">
        <ele>633.56</ele>
        <time>2013-11-01T13:52:11Z</time>
      </trkpt>
      <trkpt lat="46.0078" lon="3.64454">
        <ele>633.55</ele>
        <time>2013-11-01T13:52:14Z</time>
      </trkpt>
      <trkpt lat="46.00765" lon="3.64426">
        <ele>633.55</ele>
        <time>2013-11-01T13:52:17Z</time>
      </trkpt>
      <trkpt lat="46.00749" lon="3.64405">
        <ele>634.3</ele>
        <time>2013-11-01T13:52:20Z</time>
      </trkpt>
      <trkpt lat="46.0073" lon="3.6439">
        <ele>630.27</ele>
        <time>2013-11-01T13:52:23Z</time>
      </trkpt>
      <trkpt lat="46.00708" lon="3.64375">
        <ele>625.27</ele>
        <time>2013-11-01T13:52:26Z</time>
      </trkpt>
      <trkpt lat="46.00685" lon="3.64362">
        <ele>621.64</ele>
        <time>2013-11-01T13:52:29Z</time>
      </trkpt>
      <trkpt lat="46.0066" lon="3.64353">
        <ele>619.44</ele>
        <time>2013-11-01T13:52:32Z</time>
      </trkpt>
      <trkpt lat="46.00641" lon="3.64351">
        <ele>614.41</ele>
        <time>2013-11-01T13:52:35Z</time>
      </trkpt>
      <trkpt lat="46.00619" lon="3.64347">
        <ele>611.67</ele>
        <time>2013-11-01T13:52:40Z</time>
      </trkpt>
      <trkpt lat="46.00598" lon="3.64345">
        <ele>611.56</ele>
        <time>2013-11-01T13:52:44Z</time>
      </trkpt>
      <trkpt lat="46.00577" lon="3.64345">
        <ele>610.62</ele>
        <time>2013-11-01T13:52:48Z</time>
      </trkpt>
      <trkpt lat="46.0056" lon="3.64358">
        <ele>610.56</ele>
        <time>2013-11-01T13:52:52Z</time>
      </trkpt>
      <trkpt lat="46.00546" lon="3.64377">
        <ele>610.55</ele>
        <time>2013-11-01T13:52:57Z</time>
      </trkpt>
      <trkpt lat="46.00532" lon="3.64401">
        <ele>610.55</ele>
        <time>2013-11-01T13:53:02Z</time>
      </trkpt>
      <trkpt lat="46.00518" lon="3.6442">
        <ele>611.49</ele>
        <time>2013-11-01T13:53:06Z</time>
      </trkpt>
      <trkpt lat="46.00505" lon="3.64437">
        <ele>611.55</ele>
        <time>2013-11-01T13:53:10Z</time>
      </trkpt>
      <trkpt lat="46.00487" lon="3.64454">
        <ele>612.3</ele>
        <time>2013-11-01T13:53:14Z</time>
      </trkpt>
      <trkpt lat="46.00468" lon="3.64471">
        <ele>613.04</ele>
        <time>2013-11-01T13:53:18Z</time>
      </trkpt>
      <trkpt lat="46.00452" lon="3.64486">
        <ele>614.02</ele>
        <time>2013-11-01T13:53:22Z</time>
      </trkpt>
      <trkpt lat="46.00437" lon="3.64504">
        <ele>615.04</ele>
        <time>2013-11-01T13:53:27Z</time>
      </trkpt>
      <trkpt lat="46.00426" lon="3.64527">
        <ele>618.39</ele>
        <time>2013-11-01T13:53:36Z</time>
      </trkpt>
      <trkpt lat="46.00418" lon="3.64551">
        <ele>620.48</ele>
        <time>2013-11-01T13:53:43Z</time>
      </trkpt>
      <trkpt lat="46.00415" lon="3.64577">
        <ele>623.29</ele>
        <time>2013-11-01T13:53:52Z</time>
      </trkpt>
      <trkpt lat="46.00415" lon="3.64607">
        <ele>624.49</ele>
        <time>2013-11-01T13:54:00Z</time>
      </trkpt>
      <trkpt lat="46.0042" lon="3.64632">
        <ele>625.42</ele>
        <time>2013-11-01T13:54:04Z</time>
      </trkpt>
      <trkpt lat="46.00428" lon="3.6466">
        <ele>628.04</ele>
        <time>2013-11-01T13:54:08Z</time>
      </trkpt>
      <trkpt lat="46.00437" lon="3.64686">
        <ele>630.33</ele>
        <time>2013-11-01T13:54:12Z</time>
      </trkpt>
      <trkpt lat="46.00446" lon="3.6471">
        <ele>630.54</ele>
        <time>2013-11-01T13:54:16Z</time>
      </trkpt>
      <trkpt lat="46.00456" lon="3.64742">
        <ele>630.55</ele>
        <time>2013-11-01T13:54:22Z</time>
      </trkpt>
      <trkpt lat="46.00446" lon="3.64765">
        <ele>630.55</ele>
        <time>2013-11-01T13:54:28Z</time>
      </trkpt>
      <trkpt lat="46.00429" lon="3.64787">
        <ele>630.55</ele>
        <time>2013-11-01T13:54:36Z</time>
      </trkpt>
      <trkpt lat="46.00411" lon="3.64802">
        <ele>630.55</ele>
        <time>2013-11-01T13:54:42Z</time>
      </trkpt>
      <trkpt lat="46.00392" lon="3.64817">
        <ele>630.55</ele>
        <time>2013-11-01T13:54:48Z</time>
      </trkpt>
      <trkpt lat="46.00374" lon="3.64828">
        <ele>630.55</ele>
        <time>2013-11-01T13:54:54Z</time>
      </trkpt>
      <trkpt lat="46.00355" lon="3.64838">
        <ele>630.55</ele>
        <time>2013-11-01T13:55:00Z</time>
      </trkpt>
      <trkpt lat="46.00338" lon="3.64847">
        <ele>630.55</ele>
        <time>2013-11-01T13:55:06Z</time>
      </trkpt>
      <trkpt lat="46.00319" lon="3.64858">
        <ele>630.55</ele>
        <time>2013-11-01T13:55:12Z</time>
      </trkpt>
      <trkpt lat="46.00301" lon="3.64868">
        <ele>630.55</ele>
        <time>2013-11-01T13:55:18Z</time>
      </trkpt>
      <trkpt lat="46.0028" lon="3.64877">
        <ele>630.55</ele>
        <time>2013-11-01T13:55:24Z</time>
      </trkpt>
      <trkpt lat="46.00262" lon="3.64877">
        <ele>630.55</ele>
        <time>2013-11-01T13:55:29Z</time>
      </trkpt>
      <trkpt lat="46.00244" lon="3.64875">
        <ele>630.55</ele>
        <time>2013-11-01T13:55:33Z</time>
      </trkpt>
      <trkpt lat="46.00224" lon="3.64873">
        <ele>630.55</ele>
        <time>2013-11-01T13:55:37Z</time>
      </trkpt>
      <trkpt lat="46.00202" lon="3.64875">
        <ele>632.18</ele>
        <time>2013-11-01T13:55:41Z</time>
      </trkpt>
      <trkpt lat="46.00182" lon="3.64877">
        <ele>633.47</ele>
        <time>2013-11-01T13:55:45Z</time>
      </trkpt>
      <trkpt lat="46.00161" lon="3.64877">
        <ele>633.55</ele>
        <time>2013-11-01T13:55:50Z</time>
      </trkpt>
      <trkpt lat="46.00143" lon="3.64879">
        <ele>633.55</ele>
        <time>2013-11-01T13:55:54Z</time>
      </trkpt>
      <trkpt lat="46.00125" lon="3.64886">
        <ele>632.18</ele>
        <time>2013-11-01T13:55:58Z</time>
      </trkpt>
      <trkpt lat="46.00108" lon="3.64894">
        <ele>630.22</ele>
        <time>2013-11-01T13:56:02Z</time>
      </trkpt>
      <trkpt lat="46.00086" lon="3.64901">
        <ele>628.14</ele>
        <time>2013-11-01T13:56:07Z</time>
      </trkpt>
      <trkpt lat="46.00064" lon="3.64905">
        <ele>627.57</ele>
        <time>2013-11-01T13:56:12Z</time>
      </trkpt>
      <trkpt lat="46.00043" lon="3.64909">
        <ele>627.05</ele>
        <time>2013-11-01T13:56:16Z</time>
      </trkpt>
      <trkpt lat="46.00025" lon="3.64909">
        <ele>627.12</ele>
        <time>2013-11-01T13:56:19Z</time>
      </trkpt>
      <trkpt lat="46.00001" lon="3.64911">
        <ele>625.21</ele>
        <time>2013-11-01T13:56:23Z</time>
      </trkpt>
      <trkpt lat="45.99983" lon="3.64913">
        <ele>623.89</ele>
        <time>2013-11-01T13:56:26Z</time>
      </trkpt>
      <trkpt lat="45.99965" lon="3.64918">
        <ele>621.97</ele>
        <time>2013-11-01T13:56:29Z</time>
      </trkpt>
      <trkpt lat="45.99947" lon="3.64924">
        <ele>620.86</ele>
        <time>2013-11-01T13:56:32Z</time>
      </trkpt>
      <trkpt lat="45.99928" lon="3.64928">
        <ele>620.59</ele>
        <time>2013-11-01T13:56:35Z</time>
      </trkpt>
      <trkpt lat="45.99905" lon="3.64937">
        <ele>620.56</ele>
        <time>2013-11-01T13:56:39Z</time>
      </trkpt>
      <trkpt lat="45.99884" lon="3.64946">
        <ele>619.68</ele>
        <time>2013-11-01T13:56:43Z</time>
      </trkpt>
      <trkpt lat="45.99864" lon="3.64959">
        <ele>618.12</ele>
        <time>2013-11-01T13:56:47Z</time>
      </trkpt>
      <trkpt lat="45.99847" lon="3.64969">
        <ele>616.87</ele>
        <time>2013-11-01T13:56:50Z</time>
      </trkpt>
      <trkpt lat="45.9983" lon="3.64978">
        <ele>615.84</ele>
        <time>2013-11-01T13:56:53Z</time>
      </trkpt>
      <trkpt lat="45.99813" lon="3.64986">
        <ele>615.59</ele>
        <time>2013-11-01T13:56:56Z</time>
      </trkpt>
      <trkpt lat="45.99792" lon="3.65001">
        <ele>613.24</ele>
        <time>2013-11-01T13:57:00Z</time>
      </trkpt>
      <trkpt lat="45.99766" lon="3.65023">
        <ele>611.56</ele>
        <time>2013-11-01T13:57:08Z</time>
      </trkpt>
      <trkpt lat="45.99748" lon="3.65016">
        <ele>611.05</ele>
        <time>2013-11-01T13:57:13Z</time>
      </trkpt>
      <trkpt lat="45.99734" lon="3.64993">
        <ele>610.56</ele>
        <time>2013-11-01T13:57:20Z</time>
      </trkpt>
      <trkpt lat="45.9972" lon="3.64976">
        <ele>610.55</ele>
        <time>2013-11-01T13:57:28Z</time>
      </trkpt>
      <trkpt lat="45.9971" lon="3.64952">
        <ele>610.55</ele>
        <time>2013-11-01T13:57:41Z</time>
      </trkpt>
      <trkpt lat="45.99698" lon="3.64931">
        <ele>611.05</ele>
        <time>2013-11-01T13:57:57Z</time>
      </trkpt>
      <trkpt lat="45.99678" lon="3.64918">
        <ele>613.04</ele>
        <time>2013-11-01T13:58:19Z</time>
      </trkpt>
      <trkpt lat="45.9966" lon="3.64907">
        <ele>615.04</ele>
        <time>2013-11-01T13:58:30Z</time>
      </trkpt>
      <trkpt lat="45.99642" lon="3.64896">
        <ele>617.55</ele>
        <time>2013-11-01T13:58:43Z</time>
      </trkpt>
      <trkpt lat="45.99623" lon="3.64901">
        <ele>621.05</ele>
        <time>2013-11-01T13:58:59Z</time>
      </trkpt>
      <trkpt lat="45.9961" lon="3.64922">
        <ele>624.05</ele>
        <time>2013-11-01T13:59:12Z</time>
      </trkpt>
      <trkpt lat="45.99593" lon="3.64933">
        <ele>626.55</ele>
        <time>2013-11-01T13:59:48Z</time>
      </trkpt>
      <trkpt lat="45.99575" lon="3.64946">
        <ele>629.04</ele>
        <time>2013-11-01T13:59:58Z</time>
      </trkpt>
      <trkpt lat="45.99558" lon="3.64954">
        <ele>631.3</ele>
        <time>2013-11-01T14:00:10Z</time>
      </trkpt>
      <trkpt lat="45.9954" lon="3.64948">
        <ele>632.49</ele>
        <time>2013-11-01T14:00:21Z</time>
      </trkpt>
      <trkpt lat="45.99521" lon="3.64946">
        <ele>634.29</ele>
        <time>2013-11-01T14:00:29Z</time>
      </trkpt>
      <trkpt lat="45.99502" lon="3.64946">
        <ele>636.29</ele>
        <time>2013-11-01T14:00:38Z</time>
      </trkpt>
      <trkpt lat="45.99483" lon="3.6495">
        <ele>639.27</ele>
        <time>2013-11-01T14:00:47Z</time>
      </trkpt>
      <trkpt lat="45.99465" lon="3.64954">
        <ele>642.27</ele>
        <time>2013-11-01T14:00:56Z</time>
      </trkpt>
      <trkpt lat="45.99448" lon="3.64965">
        <ele>644.04</ele>
        <time>2013-11-01T14:01:04Z</time>
      </trkpt>
      <trkpt lat="45.99429" lon="3.6498">
        <ele>645.04</ele>
        <time>2013-11-01T14:01:10Z</time>
      </trkpt>
      <trkpt lat="45.99411" lon="3.64991">
        <ele>646.05</ele>
        <time>2013-11-01T14:01:17Z</time>
      </trkpt>
      <trkpt lat="45.99392" lon="3.64999">
        <ele>648.04</ele>
        <time>2013-11-01T14:01:27Z</time>
      </trkpt>
      <trkpt lat="45.99375" lon="3.65008">
        <ele>650.42</ele>
        <time>2013-11-01T14:01:39Z</time>
      </trkpt>
      <trkpt lat="45.99358" lon="3.65016">
        <ele>652.49</ele>
        <time>2013-11-01T14:01:49Z</time>
      </trkpt>
      <trkpt lat="45.9934" lon="3.65025">
        <ele>654.49</ele>
        <time>2013-11-01T14:01:59Z</time>
      </trkpt>
      <trkpt lat="45.99351" lon="3.65047">
        <ele>657.52</ele>
        <time>2013-11-01T14:02:20Z</time>
      </trkpt>
      <trkpt lat="45.99369" lon="3.65051">
        <ele>658.55</ele>
        <time>2013-11-01T14:02:35Z</time>
      </trkpt>
      <trkpt lat="45.99388" lon="3.65053">
        <ele>659.55</ele>
        <time>2013-11-01T14:02:48Z</time>
      </trkpt>
      <trkpt lat="45.99407" lon="3.65055">
        <ele>661.52</ele>
        <time>2013-11-01T14:03:00Z</time>
      </trkpt>
      <trkpt lat="45.99426" lon="3.65057">
        <ele>663.54</ele>
        <time>2013-11-01T14:03:11Z</time>
      </trkpt>
      <trkpt lat="45.99446" lon="3.65059">
        <ele>665.52</ele>
        <time>2013-11-01T14:03:22Z</time>
      </trkpt>
      <trkpt lat="45.99464" lon="3.65059">
        <ele>666.55</ele>
        <time>2013-11-01T14:03:32Z</time>
      </trkpt>
      <trkpt lat="45.99482" lon="3.65062">
        <ele>668.52</ele>
        <time>2013-11-01T14:03:44Z</time>
      </trkpt>
      <trkpt lat="45.995" lon="3.65062">
        <ele>670.05</ele>
        <time>2013-11-01T14:03:57Z</time>
      </trkpt>
      <trkpt lat="45.99516" lon="3.65083">
        <ele>671.52</ele>
        <time>2013-11-01T14:04:09Z</time>
      </trkpt>
      <trkpt lat="45.99526" lon="3.65111">
        <ele>673.68</ele>
        <time>2013-11-01T14:04:13Z</time>
      </trkpt>
      <trkpt lat="45.99534" lon="3.65141">
        <ele>674.5</ele>
        <time>2013-11-01T14:04:17Z</time>
      </trkpt>
      <trkpt lat="45.99541" lon="3.65171">
        <ele>674.55</ele>
        <time>2013-11-01T14:04:21Z</time>
      </trkpt>
      <trkpt lat="45.99551" lon="3.65197">
        <ele>674.55</ele>
        <time>2013-11-01T14:04:25Z</time>
      </trkpt>
      <trkpt lat="45.99561" lon="3.65225">
        <ele>672.37</ele>
        <time>2013-11-01T14:04:30Z</time>
      </trkpt>
      <trkpt lat="45.99569" lon="3.65248">
        <ele>669.48</ele>
        <time>2013-11-01T14:04:34Z</time>
      </trkpt>
      <trkpt lat="45.99574" lon="3.65276">
        <ele>664.61</ele>
        <time>2013-11-01T14:04:38Z</time>
      </trkpt>
      <trkpt lat="45.99578" lon="3.65304">
        <ele>659.81</ele>
        <time>2013-11-01T14:04:42Z</time>
      </trkpt>
      <trkpt lat="45.9958" lon="3.65347">
        <ele>651.21</ele>
        <time>2013-11-01T14:04:51Z</time>
      </trkpt>
      <trkpt lat="45.99579" lon="3.65386">
        <ele>648.28</ele>
        <time>2013-11-01T14:04:55Z</time>
      </trkpt>
      <trkpt lat="45.99585" lon="3.65424">
        <ele>647.6</ele>
        <time>2013-11-01T14:04:59Z</time>
      </trkpt>
      <trkpt lat="45.996" lon="3.65448">
        <ele>646.68</ele>
        <time>2013-11-01T14:05:03Z</time>
      </trkpt>
      <trkpt lat="45.99623" lon="3.65463">
        <ele>646.05</ele>
        <time>2013-11-01T14:05:09Z</time>
      </trkpt>
      <trkpt lat="45.99645" lon="3.65452">
        <ele>645.56</ele>
        <time>2013-11-01T14:05:15Z</time>
      </trkpt>
      <trkpt lat="45.99662" lon="3.65433">
        <ele>645.05</ele>
        <time>2013-11-01T14:05:22Z</time>
      </trkpt>
      <trkpt lat="45.99676" lon="3.65413">
        <ele>643.06</ele>
        <time>2013-11-01T14:05:32Z</time>
      </trkpt>
      <trkpt lat="45.9969" lon="3.65394">
        <ele>642.55</ele>
        <time>2013-11-01T14:05:43Z</time>
      </trkpt>
      <trkpt lat="45.99681" lon="3.65418">
        <ele>643.05</ele>
        <time>2013-11-01T14:06:45Z</time>
      </trkpt>
      <trkpt lat="45.99667" lon="3.65439">
        <ele>645.05</ele>
        <time>2013-11-01T14:06:58Z</time>
      </trkpt>
      <trkpt lat="45.99651" lon="3.65458">
        <ele>648.02</ele>
        <time>2013-11-01T14:07:09Z</time>
      </trkpt>
      <trkpt lat="45.99637" lon="3.65476">
        <ele>651.49</ele>
        <time>2013-11-01T14:07:18Z</time>
      </trkpt>
      <trkpt lat="45.9963" lon="3.65501">
        <ele>655.26</ele>
        <time>2013-11-01T14:07:26Z</time>
      </trkpt>
      <trkpt lat="45.99629" lon="3.65529">
        <ele>657.29</ele>
        <time>2013-11-01T14:07:33Z</time>
      </trkpt>
      <trkpt lat="45.99629" lon="3.65559">
        <ele>657.55</ele>
        <time>2013-11-01T14:07:40Z</time>
      </trkpt>
      <trkpt lat="45.99626" lon="3.65585">
        <ele>658.55</ele>
        <time>2013-11-01T14:07:51Z</time>
      </trkpt>
      <trkpt lat="45.99618" lon="3.65609">
        <ele>659.55</ele>
        <time>2013-11-01T14:08:06Z</time>
      </trkpt>
      <trkpt lat="45.99604" lon="3.65626">
        <ele>661.3</ele>
        <time>2013-11-01T14:08:24Z</time>
      </trkpt>
      <trkpt lat="45.99596" lon="3.65649">
        <ele>662.43</ele>
        <time>2013-11-01T14:08:40Z</time>
      </trkpt>
      <trkpt lat="45.99595" lon="3.65677">
        <ele>666.39</ele>
        <time>2013-11-01T14:08:55Z</time>
      </trkpt>
      <trkpt lat="45.99604" lon="3.65701">
        <ele>670.04</ele>
        <time>2013-11-01T14:09:08Z</time>
      </trkpt>
      <trkpt lat="45.99614" lon="3.65725">
        <ele>672.02</ele>
        <time>2013-11-01T14:09:17Z</time>
      </trkpt>
      <trkpt lat="45.99624" lon="3.65748">
        <ele>674.48</ele>
        <time>2013-11-01T14:09:27Z</time>
      </trkpt>
      <trkpt lat="45.99634" lon="3.65772">
        <ele>677.98</ele>
        <time>2013-11-01T14:09:40Z</time>
      </trkpt>
      <trkpt lat="45.99648" lon="3.65791">
        <ele>682.91</ele>
        <time>2013-11-01T14:09:54Z</time>
      </trkpt>
      <trkpt lat="45.99662" lon="3.6581">
        <ele>688.26</ele>
        <time>2013-11-01T14:10:08Z</time>
      </trkpt>
      <trkpt lat="45.99675" lon="3.6583">
        <ele>691.02</ele>
        <time>2013-11-01T14:10:17Z</time>
      </trkpt>
      <trkpt lat="45.99689" lon="3.65847">
        <ele>692.54</ele>
        <time>2013-11-01T14:10:27Z</time>
      </trkpt>
      <trkpt lat="45.99705" lon="3.65862">
        <ele>694.52</ele>
        <time>2013-11-01T14:10:38Z</time>
      </trkpt>
      <trkpt lat="45.99719" lon="3.65881">
        <ele>696.49</ele>
        <time>2013-11-01T14:10:48Z</time>
      </trkpt>
      <trkpt lat="45.99734" lon="3.65898">
        <ele>697.55</ele>
        <time>2013-11-01T14:10:57Z</time>
      </trkpt>
      <trkpt lat="45.99749" lon="3.65916">
        <ele>697.55</ele>
        <time>2013-11-01T14:11:06Z</time>
      </trkpt>
      <trkpt lat="45.99763" lon="3.65935">
        <ele>697.55</ele>
        <time>2013-11-01T14:11:14Z</time>
      </trkpt>
      <trkpt lat="45.99776" lon="3.65954">
        <ele>697.55</ele>
        <time>2013-11-01T14:11:22Z</time>
      </trkpt>
      <trkpt lat="45.99784" lon="3.65978">
        <ele>697.06</ele>
        <time>2013-11-01T14:11:31Z</time>
      </trkpt>
      <trkpt lat="45.9979" lon="3.66004">
        <ele>697.55</ele>
        <time>2013-11-01T14:11:39Z</time>
      </trkpt>
      <trkpt lat="45.99797" lon="3.66031">
        <ele>698.49</ele>
        <time>2013-11-01T14:11:48Z</time>
      </trkpt>
      <trkpt lat="45.99806" lon="3.66055">
        <ele>700.04</ele>
        <time>2013-11-01T14:11:57Z</time>
      </trkpt>
      <trkpt lat="45.99811" lon="3.66081">
        <ele>701.52</ele>
        <time>2013-11-01T14:12:06Z</time>
      </trkpt>
      <trkpt lat="45.99819" lon="3.66104">
        <ele>704.43</ele>
        <time>2013-11-01T14:12:20Z</time>
      </trkpt>
      <trkpt lat="45.99832" lon="3.66126">
        <ele>708.02</ele>
        <time>2013-11-01T14:12:33Z</time>
      </trkpt>
      <trkpt lat="45.99845" lon="3.66145">
        <ele>710.49</ele>
        <time>2013-11-01T14:12:47Z</time>
      </trkpt>
      <trkpt lat="45.99877" lon="3.66188">
        <ele>710.55</ele>
        <time>2013-11-01T14:12:52Z</time>
      </trkpt>
      <trkpt lat="45.99885" lon="3.66212">
        <ele>717.21</ele>
        <time>2013-11-01T14:13:05Z</time>
      </trkpt>
      <trkpt lat="45.99904" lon="3.66218">
        <ele>724.98</ele>
        <time>2013-11-01T14:13:25Z</time>
      </trkpt>
      <trkpt lat="45.99921" lon="3.66227">
        <ele>730.29</ele>
        <time>2013-11-01T14:13:41Z</time>
      </trkpt>
      <trkpt lat="45.99936" lon="3.66244">
        <ele>734.04</ele>
        <time>2013-11-01T14:13:54Z</time>
      </trkpt>
      <trkpt lat="45.99935" lon="3.66272">
        <ele>735.52</ele>
        <time>2013-11-01T14:14:14Z</time>
      </trkpt>
      <trkpt lat="45.99925" lon="3.66295">
        <ele>737.55</ele>
        <time>2013-11-01T14:14:32Z</time>
      </trkpt>
      <trkpt lat="45.99914" lon="3.66319">
        <ele>738.55</ele>
        <time>2013-11-01T14:14:44Z</time>
      </trkpt>
      <trkpt lat="45.99904" lon="3.66343">
        <ele>739.55</ele>
        <time>2013-11-01T14:14:52Z</time>
      </trkpt>
      <trkpt lat="45.99893" lon="3.66366">
        <ele>740.55</ele>
        <time>2013-11-01T14:15:01Z</time>
      </trkpt>
      <trkpt lat="45.99882" lon="3.66392">
        <ele>742.42</ele>
        <time>2013-11-01T14:15:08Z</time>
      </trkpt>
      <trkpt lat="45.9987" lon="3.66413">
        <ele>745.39</ele>
        <time>2013-11-01T14:15:16Z</time>
      </trkpt>
      <trkpt lat="45.99858" lon="3.66433">
        <ele>748.97</ele>
        <time>2013-11-01T14:15:25Z</time>
      </trkpt>
      <trkpt lat="45.99843" lon="3.66452">
        <ele>753.22</ele>
        <time>2013-11-01T14:15:34Z</time>
      </trkpt>
      <trkpt lat="45.99829" lon="3.66469">
        <ele>755.89</ele>
        <time>2013-11-01T14:15:39Z</time>
      </trkpt>
      <trkpt lat="45.99814" lon="3.66486">
        <ele>757.97</ele>
        <time>2013-11-01T14:15:44Z</time>
      </trkpt>
      <trkpt lat="45.99797" lon="3.66499">
        <ele>759.41</ele>
        <time>2013-11-01T14:15:49Z</time>
      </trkpt>
      <trkpt lat="45.99781" lon="3.66514">
        <ele>760.49</ele>
        <time>2013-11-01T14:15:54Z</time>
      </trkpt>
      <trkpt lat="45.99765" lon="3.66529">
        <ele>761.3</ele>
        <time>2013-11-01T14:15:59Z</time>
      </trkpt>
      <trkpt lat="45.99748" lon="3.66544">
        <ele>762.3</ele>
        <time>2013-11-01T14:16:05Z</time>
      </trkpt>
      <trkpt lat="45.99731" lon="3.66555">
        <ele>763.42</ele>
        <time>2013-11-01T14:16:11Z</time>
      </trkpt>
      <trkpt lat="45.99714" lon="3.6657">
        <ele>764.49</ele>
        <time>2013-11-01T14:16:18Z</time>
      </trkpt>
      <trkpt lat="45.99696" lon="3.66583">
        <ele>766.04</ele>
        <time>2013-11-01T14:16:26Z</time>
      </trkpt>
      <trkpt lat="45.99679" lon="3.666">
        <ele>767.43</ele>
        <time>2013-11-01T14:16:34Z</time>
      </trkpt>
      <trkpt lat="45.99668" lon="3.66624">
        <ele>768.54</ele>
        <time>2013-11-01T14:16:43Z</time>
      </trkpt>
      <trkpt lat="45.99661" lon="3.66652">
        <ele>769.55</ele>
        <time>2013-11-01T14:16:51Z</time>
      </trkpt>
      <trkpt lat="45.99655" lon="3.66679">
        <ele>769.55</ele>
        <time>2013-11-01T14:16:59Z</time>
      </trkpt>
      <trkpt lat="45.9966" lon="3.66705">
        <ele>769.55</ele>
        <time>2013-11-01T14:17:11Z</time>
      </trkpt>
      <trkpt lat="45.99674" lon="3.66724">
        <ele>770.54</ele>
        <time>2013-11-01T14:17:21Z</time>
      </trkpt>
      <trkpt lat="45.99687" lon="3.66703">
        <ele>772.55</ele>
        <time>2013-11-01T14:17:37Z</time>
      </trkpt>
      <trkpt lat="45.99705" lon="3.66686">
        <ele>775.65</ele>
        <time>2013-11-01T14:17:42Z</time>
      </trkpt>
      <trkpt lat="45.99725" lon="3.66682">
        <ele>777.19</ele>
        <time>2013-11-01T14:17:45Z</time>
      </trkpt>
      <trkpt lat="45.99745" lon="3.66677">
        <ele>777.51</ele>
        <time>2013-11-01T14:17:48Z</time>
      </trkpt>
      <trkpt lat="45.99765" lon="3.66671">
        <ele>777.55</ele>
        <time>2013-11-01T14:17:51Z</time>
      </trkpt>
      <trkpt lat="45.99784" lon="3.66667">
        <ele>777.55</ele>
        <time>2013-11-01T14:17:54Z</time>
      </trkpt>
      <trkpt lat="45.99802" lon="3.66662">
        <ele>776.18</ele>
        <time>2013-11-01T14:17:58Z</time>
      </trkpt>
      <trkpt lat="45.99821" lon="3.66658">
        <ele>774.57</ele>
        <time>2013-11-01T14:18:05Z</time>
      </trkpt>
      <trkpt lat="45.99843" lon="3.66658">
        <ele>774.55</ele>
        <time>2013-11-01T14:18:11Z</time>
      </trkpt>
      <trkpt lat="45.99862" lon="3.66662">
        <ele>774.05</ele>
        <time>2013-11-01T14:18:17Z</time>
      </trkpt>
      <trkpt lat="45.99881" lon="3.66669">
        <ele>773.56</ele>
        <time>2013-11-01T14:18:23Z</time>
      </trkpt>
      <trkpt lat="45.99903" lon="3.66677">
        <ele>773.55</ele>
        <time>2013-11-01T14:18:29Z</time>
      </trkpt>
      <trkpt lat="45.99922" lon="3.66684">
        <ele>771.87</ele>
        <time>2013-11-01T14:18:34Z</time>
      </trkpt>
      <trkpt lat="45.9994" lon="3.66694">
        <ele>769.84</ele>
        <time>2013-11-01T14:18:39Z</time>
      </trkpt>
      <trkpt lat="45.99957" lon="3.66705">
        <ele>770.07</ele>
        <time>2013-11-01T14:18:43Z</time>
      </trkpt>
      <trkpt lat="45.99975" lon="3.66718">
        <ele>771.4</ele>
        <time>2013-11-01T14:18:47Z</time>
      </trkpt>
      <trkpt lat="45.99994" lon="3.66733">
        <ele>771.55</ele>
        <time>2013-11-01T14:18:52Z</time>
      </trkpt>
      <trkpt lat="46.00011" lon="3.66752">
        <ele>770.58</ele>
        <time>2013-11-01T14:18:57Z</time>
      </trkpt>
      <trkpt lat="46.00002" lon="3.6678">
        <ele>770.55</ele>
        <time>2013-11-01T14:19:02Z</time>
      </trkpt>
      <trkpt lat="45.99985" lon="3.668">
        <ele>769.8</ele>
        <time>2013-11-01T14:19:07Z</time>
      </trkpt>
      <trkpt lat="45.99969" lon="3.66817">
        <ele>768.81</ele>
        <time>2013-11-01T14:19:13Z</time>
      </trkpt>
      <trkpt lat="45.99953" lon="3.66836">
        <ele>768.06</ele>
        <time>2013-11-01T14:19:18Z</time>
      </trkpt>
      <trkpt lat="45.99936" lon="3.66851">
        <ele>766.82</ele>
        <time>2013-11-01T14:19:23Z</time>
      </trkpt>
      <trkpt lat="45.99926" lon="3.66875">
        <ele>761.44</ele>
        <time>2013-11-01T14:19:28Z</time>
      </trkpt>
      <trkpt lat="45.99921" lon="3.669">
        <ele>754.42</ele>
        <time>2013-11-01T14:19:32Z</time>
      </trkpt>
      <trkpt lat="45.99913" lon="3.6693">
        <ele>746.36</ele>
        <time>2013-11-01T14:19:36Z</time>
      </trkpt>
      <trkpt lat="45.99906" lon="3.66954">
        <ele>741.78</ele>
        <time>2013-11-01T14:19:39Z</time>
      </trkpt>
      <trkpt lat="45.99896" lon="3.66978">
        <ele>740.21</ele>
        <time>2013-11-01T14:19:42Z</time>
      </trkpt>
      <trkpt lat="45.99884" lon="3.67003">
        <ele>738.38</ele>
        <time>2013-11-01T14:19:45Z</time>
      </trkpt>
      <trkpt lat="45.99872" lon="3.67027">
        <ele>734.78</ele>
        <time>2013-11-01T14:19:48Z</time>
      </trkpt>
      <trkpt lat="45.99859" lon="3.67053">
        <ele>730.71</ele>
        <time>2013-11-01T14:19:51Z</time>
      </trkpt>
      <trkpt lat="45.99846" lon="3.67083">
        <ele>727.57</ele>
        <time>2013-11-01T14:19:54Z</time>
      </trkpt>
      <trkpt lat="45.99833" lon="3.67113">
        <ele>725.81</ele>
        <time>2013-11-01T14:19:57Z</time>
      </trkpt>
      <trkpt lat="45.99819" lon="3.67143">
        <ele>725.58</ele>
        <time>2013-11-01T14:20:00Z</time>
      </trkpt>
      <trkpt lat="45.99803" lon="3.67173">
        <ele>726.06</ele>
        <time>2013-11-01T14:20:03Z</time>
      </trkpt>
      <trkpt lat="45.99789" lon="3.67199">
        <ele>726.49</ele>
        <time>2013-11-01T14:20:06Z</time>
      </trkpt>
      <trkpt lat="45.99775" lon="3.67222">
        <ele>726.55</ele>
        <time>2013-11-01T14:20:09Z</time>
      </trkpt>
      <trkpt lat="45.99757" lon="3.67246">
        <ele>726.05</ele>
        <time>2013-11-01T14:20:12Z</time>
      </trkpt>
      <trkpt lat="45.99737" lon="3.67261">
        <ele>725.07</ele>
        <time>2013-11-01T14:20:17Z</time>
      </trkpt>
      <trkpt lat="45.99718" lon="3.67274">
        <ele>724.06</ele>
        <time>2013-11-01T14:20:24Z</time>
      </trkpt>
      <trkpt lat="45.99701" lon="3.67285">
        <ele>722.07</ele>
        <time>2013-11-01T14:20:34Z</time>
      </trkpt>
      <trkpt lat="45.99686" lon="3.67304">
        <ele>720.55</ele>
        <time>2013-11-01T14:20:43Z</time>
      </trkpt>
      <trkpt lat="45.99679" lon="3.6733">
        <ele>716.05</ele>
        <time>2013-11-01T14:20:57Z</time>
      </trkpt>
      <trkpt lat="45.99677" lon="3.6736">
        <ele>712.69</ele>
        <time>2013-11-01T14:21:04Z</time>
      </trkpt>
      <trkpt lat="45.99679" lon="3.67388">
        <ele>711.12</ele>
        <time>2013-11-01T14:21:09Z</time>
      </trkpt>
      <trkpt lat="45.99683" lon="3.67413">
        <ele>709.7</ele>
        <time>2013-11-01T14:21:14Z</time>
      </trkpt>
      <trkpt lat="45.99683" lon="3.67441">
        <ele>707.71</ele>
        <time>2013-11-01T14:21:19Z</time>
      </trkpt>
      <trkpt lat="45.99685" lon="3.67469">
        <ele>705.84</ele>
        <time>2013-11-01T14:21:24Z</time>
      </trkpt>
      <trkpt lat="45.99682" lon="3.67497">
        <ele>704.82</ele>
        <time>2013-11-01T14:21:28Z</time>
      </trkpt>
      <trkpt lat="45.99675" lon="3.67533">
        <ele>704.06</ele>
        <time>2013-11-01T14:21:34Z</time>
      </trkpt>
      <trkpt lat="45.99663" lon="3.67561">
        <ele>702.19</ele>
        <time>2013-11-01T14:21:39Z</time>
      </trkpt>
      <trkpt lat="45.99648" lon="3.67589">
        <ele>701.09</ele>
        <time>2013-11-01T14:21:43Z</time>
      </trkpt>
      <trkpt lat="45.99633" lon="3.67611">
        <ele>699.71</ele>
        <time>2013-11-01T14:21:47Z</time>
      </trkpt>
      <trkpt lat="45.99617" lon="3.67634">
        <ele>698.12</ele>
        <time>2013-11-01T14:21:53Z</time>
      </trkpt>
      <trkpt lat="45.99605" lon="3.67658">
        <ele>696.12</ele>
        <time>2013-11-01T14:21:59Z</time>
      </trkpt>
      <trkpt lat="45.9959" lon="3.67677">
        <ele>694.09</ele>
        <time>2013-11-01T14:22:07Z</time>
      </trkpt>
      <trkpt lat="45.99579" lon="3.67701">
        <ele>692.07</ele>
        <time>2013-11-01T14:22:17Z</time>
      </trkpt>
      <trkpt lat="45.99569" lon="3.67729">
        <ele>691.06</ele>
        <time>2013-11-01T14:22:23Z</time>
      </trkpt>
      <trkpt lat="45.99561" lon="3.67757">
        <ele>690.06</ele>
        <time>2013-11-01T14:22:30Z</time>
      </trkpt>
      <trkpt lat="45.99555" lon="3.67782">
        <ele>686.58</ele>
        <time>2013-11-01T14:22:41Z</time>
      </trkpt>
      <trkpt lat="45.99549" lon="3.67812">
        <ele>682.59</ele>
        <time>2013-11-01T14:22:50Z</time>
      </trkpt>
      <trkpt lat="45.99538" lon="3.6784">
        <ele>680.12</ele>
        <time>2013-11-01T14:22:57Z</time>
      </trkpt>
      <trkpt lat="45.99524" lon="3.67866">
        <ele>679.06</ele>
        <time>2013-11-01T14:23:03Z</time>
      </trkpt>
      <trkpt lat="45.99514" lon="3.6789">
        <ele>677.59</ele>
        <time>2013-11-01T14:23:11Z</time>
      </trkpt>
      <trkpt lat="45.99512" lon="3.67915">
        <ele>675.55</ele>
        <time>2013-11-01T14:23:28Z</time>
      </trkpt>
      <trkpt lat="45.99519" lon="3.67941">
        <ele>670.55</ele>
        <time>2013-11-01T14:26:46Z</time>
      </trkpt>
      <trkpt lat="45.99534" lon="3.67956">
        <ele>669.57</ele>
        <time>2013-11-01T14:27:12Z</time>
      </trkpt>
      <trkpt lat="45.99551" lon="3.67965">
        <ele>669.55</ele>
        <time>2013-11-01T14:27:23Z</time>
      </trkpt>
      <trkpt lat="45.99568" lon="3.67973">
        <ele>668.57</ele>
        <time>2013-11-01T14:27:35Z</time>
      </trkpt>
      <trkpt lat="45.99587" lon="3.6798">
        <ele>668.55</ele>
        <time>2013-11-01T14:27:48Z</time>
      </trkpt>
      <trkpt lat="45.99605" lon="3.67986">
        <ele>669.49</ele>
        <time>2013-11-01T14:27:59Z</time>
      </trkpt>
      <trkpt lat="45.99623" lon="3.67995">
        <ele>669.55</ele>
        <time>2013-11-01T14:28:18Z</time>
      </trkpt>
      <trkpt lat="45.99638" lon="3.68012">
        <ele>669.55</ele>
        <time>2013-11-01T14:28:37Z</time>
      </trkpt>
      <trkpt lat="45.99643" lon="3.68038">
        <ele>668.55</ele>
        <time>2013-11-01T14:29:02Z</time>
      </trkpt>
      <trkpt lat="45.99639" lon="3.68063">
        <ele>668.58</ele>
        <time>2013-11-01T14:29:22Z</time>
      </trkpt>
      <trkpt lat="45.99628" lon="3.68087">
        <ele>669.55</ele>
        <time>2013-11-01T14:29:42Z</time>
      </trkpt>
      <trkpt lat="45.99619" lon="3.68111">
        <ele>672.05</ele>
        <time>2013-11-01T14:29:59Z</time>
      </trkpt>
      <trkpt lat="45.99612" lon="3.68134">
        <ele>675.05</ele>
        <time>2013-11-01T14:30:20Z</time>
      </trkpt>
      <trkpt lat="45.99604" lon="3.6816">
        <ele>681.27</ele>
        <time>2013-11-01T14:30:38Z</time>
      </trkpt>
      <trkpt lat="45.99594" lon="3.68181">
        <ele>686.3</ele>
        <time>2013-11-01T14:31:04Z</time>
      </trkpt>
      <trkpt lat="45.99582" lon="3.68203">
        <ele>689.54</ele>
        <time>2013-11-01T14:31:23Z</time>
      </trkpt>
      <trkpt lat="45.99569" lon="3.68222">
        <ele>693.29</ele>
        <time>2013-11-01T14:31:47Z</time>
      </trkpt>
      <trkpt lat="45.99553" lon="3.68237">
        <ele>696.04</ele>
        <time>2013-11-01T14:32:00Z</time>
      </trkpt>
      <trkpt lat="45.99537" lon="3.6825">
        <ele>698.49</ele>
        <time>2013-11-01T14:32:14Z</time>
      </trkpt>
      <trkpt lat="45.9952" lon="3.68259">
        <ele>700.49</ele>
        <time>2013-11-01T14:32:26Z</time>
      </trkpt>
      <trkpt lat="45.99502" lon="3.68272">
        <ele>702.3</ele>
        <time>2013-11-01T14:32:37Z</time>
      </trkpt>
      <trkpt lat="45.99487" lon="3.68289">
        <ele>704.29</ele>
        <time>2013-11-01T14:32:47Z</time>
      </trkpt>
      <trkpt lat="45.99476" lon="3.6831">
        <ele>707.02</ele>
        <time>2013-11-01T14:32:58Z</time>
      </trkpt>
      <trkpt lat="45.99465" lon="3.68332">
        <ele>710.42</ele>
        <time>2013-11-01T14:33:10Z</time>
      </trkpt>
      <trkpt lat="45.99455" lon="3.68355">
        <ele>714.29</ele>
        <time>2013-11-01T14:33:23Z</time>
      </trkpt>
      <trkpt lat="45.99448" lon="3.68379">
        <ele>716.52</ele>
        <time>2013-11-01T14:33:35Z</time>
      </trkpt>
      <trkpt lat="45.99439" lon="3.68402">
        <ele>719.99</ele>
        <time>2013-11-01T14:33:47Z</time>
      </trkpt>
      <trkpt lat="45.99434" lon="3.68428">
        <ele>723.41</ele>
        <time>2013-11-01T14:34:00Z</time>
      </trkpt>
      <trkpt lat="45.99432" lon="3.68454">
        <ele>728.02</ele>
        <time>2013-11-01T14:34:19Z</time>
      </trkpt>
      <trkpt lat="45.99417" lon="3.68471">
        <ele>736.55</ele>
        <time>2013-11-01T14:35:06Z</time>
      </trkpt>
      <trkpt lat="45.99403" lon="3.68488">
        <ele>738.52</ele>
        <time>2013-11-01T14:35:18Z</time>
      </trkpt>
      <trkpt lat="45.99387" lon="3.68501">
        <ele>741.22</ele>
        <time>2013-11-01T14:35:25Z</time>
      </trkpt>
      <trkpt lat="45.99367" lon="3.68505">
        <ele>744.27</ele>
        <time>2013-11-01T14:35:33Z</time>
      </trkpt>
      <trkpt lat="45.99348" lon="3.68501">
        <ele>747.02</ele>
        <time>2013-11-01T14:35:43Z</time>
      </trkpt>
      <trkpt lat="45.99333" lon="3.68516">
        <ele>747.55</ele>
        <time>2013-11-01T14:35:51Z</time>
      </trkpt>
      <trkpt lat="45.99321" lon="3.68538">
        <ele>748.52</ele>
        <time>2013-11-01T14:35:59Z</time>
      </trkpt>
      <trkpt lat="45.99311" lon="3.68561">
        <ele>749.3</ele>
        <time>2013-11-01T14:36:07Z</time>
      </trkpt>
      <trkpt lat="45.99304" lon="3.68587">
        <ele>750.52</ele>
        <time>2013-11-01T14:36:16Z</time>
      </trkpt>
      <trkpt lat="45.99306" lon="3.68613">
        <ele>752.99</ele>
        <time>2013-11-01T14:36:25Z</time>
      </trkpt>
      <trkpt lat="45.99321" lon="3.6863">
        <ele>755.54</ele>
        <time>2013-11-01T14:36:39Z</time>
      </trkpt>
      <trkpt lat="45.99322" lon="3.68658">
        <ele>757.3</ele>
        <time>2013-11-01T14:37:06Z</time>
      </trkpt>
      <trkpt lat="45.99315" lon="3.68684">
        <ele>758.54</ele>
        <time>2013-11-01T14:37:25Z</time>
      </trkpt>
      <trkpt lat="45.99306" lon="3.68707">
        <ele>759.55</ele>
        <time>2013-11-01T14:37:38Z</time>
      </trkpt>
      <trkpt lat="45.99295" lon="3.68729">
        <ele>761.49</ele>
        <time>2013-11-01T14:37:49Z</time>
      </trkpt>
      <trkpt lat="45.99285" lon="3.68752">
        <ele>765.49</ele>
        <time>2013-11-01T14:38:09Z</time>
      </trkpt>
      <trkpt lat="45.99274" lon="3.68774">
        <ele>767.52</ele>
        <time>2013-11-01T14:38:24Z</time>
      </trkpt>
      <trkpt lat="45.99267" lon="3.68799">
        <ele>769.05</ele>
        <time>2013-11-01T14:38:38Z</time>
      </trkpt>
      <trkpt lat="45.99265" lon="3.68825">
        <ele>770.52</ele>
        <time>2013-11-01T14:38:50Z</time>
      </trkpt>
      <trkpt lat="45.9926" lon="3.68851">
        <ele>772.52</ele>
        <time>2013-11-01T14:39:04Z</time>
      </trkpt>
      <trkpt lat="45.99255" lon="3.68877">
        <ele>774.54</ele>
        <time>2013-11-01T14:39:18Z</time>
      </trkpt>
      <trkpt lat="45.9925" lon="3.68902">
        <ele>776.54</ele>
        <time>2013-11-01T14:39:32Z</time>
      </trkpt>
      <trkpt lat="45.99246" lon="3.68928">
        <ele>777.55</ele>
        <time>2013-11-01T14:39:46Z</time>
      </trkpt>
      <trkpt lat="45.99245" lon="3.68956">
        <ele>779.49</ele>
        <time>2013-11-01T14:39:59Z</time>
      </trkpt>
      <trkpt lat="45.99243" lon="3.68982">
        <ele>781.54</ele>
        <time>2013-11-01T14:40:15Z</time>
      </trkpt>
      <trkpt lat="45.99245" lon="3.69008">
        <ele>784.05</ele>
        <time>2013-11-01T14:40:32Z</time>
      </trkpt>
      <trkpt lat="45.99262" lon="3.69016">
        <ele>785.55</ele>
        <time>2013-11-01T14:40:56Z</time>
      </trkpt>
      <trkpt lat="45.9928" lon="3.69008">
        <ele>789.24</ele>
        <time>2013-11-01T14:41:16Z</time>
      </trkpt>
      <trkpt lat="45.99299" lon="3.69003">
        <ele>794.97</ele>
        <time>2013-11-01T14:41:30Z</time>
      </trkpt>
      <trkpt lat="45.99317" lon="3.69005">
        <ele>799.41</ele>
        <time>2013-11-01T14:41:43Z</time>
      </trkpt>
      <trkpt lat="45.99332" lon="3.69023">
        <ele>802.49</ele>
        <time>2013-11-01T14:41:55Z</time>
      </trkpt>
      <trkpt lat="45.99345" lon="3.69042">
        <ele>805.04</ele>
        <time>2013-11-01T14:42:07Z</time>
      </trkpt>
      <trkpt lat="45.99358" lon="3.69061">
        <ele>807.3</ele>
        <time>2013-11-01T14:42:22Z</time>
      </trkpt>
      <trkpt lat="45.9935" lon="3.69087">
        <ele>812.42</ele>
        <time>2013-11-01T14:42:54Z</time>
      </trkpt>
      <trkpt lat="45.99334" lon="3.69074">
        <ele>815.55</ele>
        <time>2013-11-01T14:43:40Z</time>
      </trkpt>
      <trkpt lat="45.99318" lon="3.69087">
        <ele>821.55</ele>
        <time>2013-11-01T14:46:00Z</time>
      </trkpt>
      <trkpt lat="45.99299" lon="3.69104">
        <ele>821.55</ele>
        <time>2013-11-01T14:46:08Z</time>
      </trkpt>
      <trkpt lat="45.99281" lon="3.69115">
        <ele>822.49</ele>
        <time>2013-11-01T14:46:12Z</time>
      </trkpt>
      <trkpt lat="45.99266" lon="3.6913">
        <ele>822.55</ele>
        <time>2013-11-01T14:46:16Z</time>
      </trkpt>
      <trkpt lat="45.9925" lon="3.69147">
        <ele>826.12</ele>
        <time>2013-11-01T14:46:20Z</time>
      </trkpt>
      <trkpt lat="45.99235" lon="3.69169">
        <ele>829.09</ele>
        <time>2013-11-01T14:46:24Z</time>
      </trkpt>
      <trkpt lat="45.99225" lon="3.69196">
        <ele>829.76</ele>
        <time>2013-11-01T14:46:29Z</time>
      </trkpt>
      <trkpt lat="45.99219" lon="3.69226">
        <ele>828.68</ele>
        <time>2013-11-01T14:46:34Z</time>
      </trkpt>
      <trkpt lat="45.99216" lon="3.69254">
        <ele>826.21</ele>
        <time>2013-11-01T14:46:39Z</time>
      </trkpt>
      <trkpt lat="45.9921" lon="3.69282">
        <ele>823.89</ele>
        <time>2013-11-01T14:46:44Z</time>
      </trkpt>
      <trkpt lat="45.99203" lon="3.6931">
        <ele>822.63</ele>
        <time>2013-11-01T14:46:49Z</time>
      </trkpt>
      <trkpt lat="45.99196" lon="3.69334">
        <ele>821.62</ele>
        <time>2013-11-01T14:46:55Z</time>
      </trkpt>
      <trkpt lat="45.99188" lon="3.69357">
        <ele>820.58</ele>
        <time>2013-11-01T14:47:02Z</time>
      </trkpt>
      <trkpt lat="45.9921" lon="3.69357">
        <ele>823.05</ele>
        <time>2013-11-01T14:47:54Z</time>
      </trkpt>
      <trkpt lat="45.99228" lon="3.69364">
        <ele>824.55</ele>
        <time>2013-11-01T14:48:11Z</time>
      </trkpt>
      <trkpt lat="45.99251" lon="3.69379">
        <ele>829.05</ele>
        <time>2013-11-01T14:48:40Z</time>
      </trkpt>
      <trkpt lat="45.99269" lon="3.6939">
        <ele>833.55</ele>
        <time>2013-11-01T14:49:39Z</time>
      </trkpt>
      <trkpt lat="45.99287" lon="3.69385">
        <ele>840.21</ele>
        <time>2013-11-01T14:49:54Z</time>
      </trkpt>
      <trkpt lat="45.99305" lon="3.69383">
        <ele>842.04</ele>
        <time>2013-11-01T14:50:01Z</time>
      </trkpt>
      <trkpt lat="45.99322" lon="3.69394">
        <ele>845.26</ele>
        <time>2013-11-01T14:50:10Z</time>
      </trkpt>
      <trkpt lat="45.99337" lon="3.69411">
        <ele>849.23</ele>
        <time>2013-11-01T14:50:22Z</time>
      </trkpt>
      <trkpt lat="45.99349" lon="3.69432">
        <ele>854.43</ele>
        <time>2013-11-01T14:50:40Z</time>
      </trkpt>
      <trkpt lat="45.99355" lon="3.69458">
        <ele>860.27</ele>
        <time>2013-11-01T14:50:57Z</time>
      </trkpt>
      <trkpt lat="45.99351" lon="3.69484">
        <ele>865.05</ele>
        <time>2013-11-01T14:51:17Z</time>
      </trkpt>
      <trkpt lat="45.99337" lon="3.69503">
        <ele>868.52</ele>
        <time>2013-11-01T14:51:35Z</time>
      </trkpt>
      <trkpt lat="45.99323" lon="3.6952">
        <ele>871.29</ele>
        <time>2013-11-01T14:51:46Z</time>
      </trkpt>
      <trkpt lat="45.99306" lon="3.69533">
        <ele>874.52</ele>
        <time>2013-11-01T14:52:02Z</time>
      </trkpt>
      <trkpt lat="45.99289" lon="3.69544">
        <ele>878.55</ele>
        <time>2013-11-01T14:52:46Z</time>
      </trkpt>
      <trkpt lat="45.99274" lon="3.69561">
        <ele>884.86</ele>
        <time>2013-11-01T14:53:50Z</time>
      </trkpt>
      <trkpt lat="45.99256" lon="3.69578">
        <ele>889.22</ele>
        <time>2013-11-01T14:53:58Z</time>
      </trkpt>
      <trkpt lat="45.99249" lon="3.69606">
        <ele>892.91</ele>
        <time>2013-11-01T14:54:06Z</time>
      </trkpt>
      <trkpt lat="45.99262" lon="3.69628">
        <ele>894.52</ele>
        <time>2013-11-01T14:54:14Z</time>
      </trkpt>
      <trkpt lat="45.99269" lon="3.69653">
        <ele>893.57</ele>
        <time>2013-11-01T14:54:21Z</time>
      </trkpt>
      <trkpt lat="45.99277" lon="3.69681">
        <ele>892.58</ele>
        <time>2013-11-01T14:54:27Z</time>
      </trkpt>
      <trkpt lat="45.99289" lon="3.69703">
        <ele>891.62</ele>
        <time>2013-11-01T14:54:32Z</time>
      </trkpt>
      <trkpt lat="45.99289" lon="3.69733">
        <ele>889.69</ele>
        <time>2013-11-01T14:54:40Z</time>
      </trkpt>
      <trkpt lat="45.99277" lon="3.69756">
        <ele>887.81</ele>
        <time>2013-11-01T14:54:47Z</time>
      </trkpt>
      <trkpt lat="45.99265" lon="3.69784">
        <ele>887.56</ele>
        <time>2013-11-01T14:54:52Z</time>
      </trkpt>
      <trkpt lat="45.99257" lon="3.6981">
        <ele>886.58</ele>
        <time>2013-11-01T14:54:57Z</time>
      </trkpt>
      <trkpt lat="45.9925" lon="3.69838">
        <ele>885.08</ele>
        <time>2013-11-01T14:55:04Z</time>
      </trkpt>
      <trkpt lat="45.99248" lon="3.69864">
        <ele>883.07</ele>
        <time>2013-11-01T14:55:14Z</time>
      </trkpt>
      <trkpt lat="45.99244" lon="3.69892">
        <ele>881.8</ele>
        <time>2013-11-01T14:55:26Z</time>
      </trkpt>
      <trkpt lat="45.99245" lon="3.6992">
        <ele>882.49</ele>
        <time>2013-11-01T14:55:34Z</time>
      </trkpt>
      <trkpt lat="45.99252" lon="3.69945">
        <ele>882.55</ele>
        <time>2013-11-01T14:55:42Z</time>
      </trkpt>
      <trkpt lat="45.99262" lon="3.69969">
        <ele>883.49</ele>
        <time>2013-11-01T14:55:46Z</time>
      </trkpt>
      <trkpt lat="45.99275" lon="3.69997">
        <ele>883.55</ele>
        <time>2013-11-01T14:55:50Z</time>
      </trkpt>
      <trkpt lat="45.99288" lon="3.70016">
        <ele>883.55</ele>
        <time>2013-11-01T14:55:55Z</time>
      </trkpt>
      <trkpt lat="45.993" lon="3.70038">
        <ele>883.55</ele>
        <time>2013-11-01T14:56:07Z</time>
      </trkpt>
      <trkpt lat="45.99319" lon="3.70027">
        <ele>882.3</ele>
        <time>2013-11-01T14:56:37Z</time>
      </trkpt>
      <trkpt lat="45.99328" lon="3.70001">
        <ele>881.15</ele>
        <time>2013-11-01T14:56:40Z</time>
      </trkpt>
      <trkpt lat="45.99338" lon="3.69971">
        <ele>876.84</ele>
        <time>2013-11-01T14:56:44Z</time>
      </trkpt>
      <trkpt lat="45.99346" lon="3.69947">
        <ele>874.76</ele>
        <time>2013-11-01T14:56:48Z</time>
      </trkpt>
      <trkpt lat="45.99355" lon="3.69922">
        <ele>873.68</ele>
        <time>2013-11-01T14:56:53Z</time>
      </trkpt>
      <trkpt lat="45.99363" lon="3.69887">
        <ele>873.05</ele>
        <time>2013-11-01T14:57:03Z</time>
      </trkpt>
      <trkpt lat="45.99369" lon="3.69862">
        <ele>870.81</ele>
        <time>2013-11-01T14:57:09Z</time>
      </trkpt>
      <trkpt lat="45.99374" lon="3.69832">
        <ele>858.82</ele>
        <time>2013-11-01T14:57:13Z</time>
      </trkpt>
      <trkpt lat="45.99379" lon="3.69802">
        <ele>850.38</ele>
        <time>2013-11-01T14:57:17Z</time>
      </trkpt>
      <trkpt lat="45.99383" lon="3.69776">
        <ele>846.85</ele>
        <time>2013-11-01T14:57:21Z</time>
      </trkpt>
      <trkpt lat="45.99394" lon="3.69754">
        <ele>845.59</ele>
        <time>2013-11-01T14:57:26Z</time>
      </trkpt>
      <trkpt lat="45.99408" lon="3.69735">
        <ele>841.8</ele>
        <time>2013-11-01T14:57:31Z</time>
      </trkpt>
      <trkpt lat="45.99422" lon="3.69709">
        <ele>829.72</ele>
        <time>2013-11-01T14:57:36Z</time>
      </trkpt>
      <trkpt lat="45.99431" lon="3.69686">
        <ele>826.65</ele>
        <time>2013-11-01T14:57:41Z</time>
      </trkpt>
      <trkpt lat="45.99439" lon="3.69662">
        <ele>825.59</ele>
        <time>2013-11-01T14:57:46Z</time>
      </trkpt>
      <trkpt lat="45.9945" lon="3.69636">
        <ele>824.81</ele>
        <time>2013-11-01T14:57:49Z</time>
      </trkpt>
      <trkpt lat="45.99468" lon="3.69608">
        <ele>823.33</ele>
        <time>2013-11-01T14:57:52Z</time>
      </trkpt>
      <trkpt lat="45.99485" lon="3.69585">
        <ele>819.65</ele>
        <time>2013-11-01T14:57:55Z</time>
      </trkpt>
      <trkpt lat="45.99499" lon="3.69561">
        <ele>816.57</ele>
        <time>2013-11-01T14:57:58Z</time>
      </trkpt>
      <trkpt lat="45.99513" lon="3.69538">
        <ele>814.3</ele>
        <time>2013-11-01T14:58:01Z</time>
      </trkpt>
      <trkpt lat="45.99526" lon="3.69518">
        <ele>814.15</ele>
        <time>2013-11-01T14:58:04Z</time>
      </trkpt>
      <trkpt lat="45.9954" lon="3.69499">
        <ele>817.28</ele>
        <time>2013-11-01T14:58:08Z</time>
      </trkpt>
      <trkpt lat="45.99553" lon="3.69478">
        <ele>817.55</ele>
        <time>2013-11-01T14:58:15Z</time>
      </trkpt>
      <trkpt lat="45.99566" lon="3.69456">
        <ele>817.55</ele>
        <time>2013-11-01T14:58:22Z</time>
      </trkpt>
      <trkpt lat="45.99579" lon="3.69435">
        <ele>816.8</ele>
        <time>2013-11-01T14:58:26Z</time>
      </trkpt>
      <trkpt lat="45.99593" lon="3.69411">
        <ele>814.94</ele>
        <time>2013-11-01T14:58:30Z</time>
      </trkpt>
      <trkpt lat="45.99614" lon="3.69394">
        <ele>813.2</ele>
        <time>2013-11-01T14:58:34Z</time>
      </trkpt>
      <trkpt lat="45.99631" lon="3.69379">
        <ele>811.01</ele>
        <time>2013-11-01T14:58:37Z</time>
      </trkpt>
      <trkpt lat="45.99648" lon="3.69362">
        <ele>809.74</ele>
        <time>2013-11-01T14:58:40Z</time>
      </trkpt>
      <trkpt lat="45.99667" lon="3.6934">
        <ele>811.7</ele>
        <time>2013-11-01T14:58:43Z</time>
      </trkpt>
      <trkpt lat="45.99686" lon="3.69323">
        <ele>813.7</ele>
        <time>2013-11-01T14:58:46Z</time>
      </trkpt>
      <trkpt lat="45.99706" lon="3.69308">
        <ele>814.45</ele>
        <time>2013-11-01T14:58:49Z</time>
      </trkpt>
      <trkpt lat="45.99727" lon="3.69297">
        <ele>813.29</ele>
        <time>2013-11-01T14:58:52Z</time>
      </trkpt>
      <trkpt lat="45.99747" lon="3.69291">
        <ele>810.52</ele>
        <time>2013-11-01T14:58:55Z</time>
      </trkpt>
      <trkpt lat="45.99767" lon="3.69287">
        <ele>808.3</ele>
        <time>2013-11-01T14:58:58Z</time>
      </trkpt>
      <trkpt lat="45.99791" lon="3.69276">
        <ele>803.29</ele>
        <time>2013-11-01T14:59:02Z</time>
      </trkpt>
      <trkpt lat="45.99813" lon="3.69267">
        <ele>795.91</ele>
        <time>2013-11-01T14:59:06Z</time>
      </trkpt>
      <trkpt lat="45.99834" lon="3.69256">
        <ele>785.95</ele>
        <time>2013-11-01T14:59:10Z</time>
      </trkpt>
      <trkpt lat="45.99853" lon="3.69244">
        <ele>778.58</ele>
        <time>2013-11-01T14:59:14Z</time>
      </trkpt>
      <trkpt lat="45.99873" lon="3.69248">
        <ele>777.06</ele>
        <time>2013-11-01T14:59:21Z</time>
      </trkpt>
      <trkpt lat="45.99867" lon="3.69278">
        <ele>784.82</ele>
        <time>2013-11-01T15:01:03Z</time>
      </trkpt>
      <trkpt lat="45.99849" lon="3.69306">
        <ele>790.96</ele>
        <time>2013-11-01T15:01:06Z</time>
      </trkpt>
      <trkpt lat="45.99836" lon="3.69325">
        <ele>793.41</ele>
        <time>2013-11-01T15:01:08Z</time>
      </trkpt>
      <trkpt lat="45.99821" lon="3.69344">
        <ele>795.52</ele>
        <time>2013-11-01T15:01:10Z</time>
      </trkpt>
      <trkpt lat="45.99806" lon="3.69366">
        <ele>797.54</ele>
        <time>2013-11-01T15:01:12Z</time>
      </trkpt>
      <trkpt lat="45.99792" lon="3.69387">
        <ele>798.8</ele>
        <time>2013-11-01T15:01:14Z</time>
      </trkpt>
      <trkpt lat="45.9978" lon="3.69417">
        <ele>798.96</ele>
        <time>2013-11-01T15:01:17Z</time>
      </trkpt>
      <trkpt lat="45.99774" lon="3.69445">
        <ele>797.2</ele>
        <time>2013-11-01T15:01:21Z</time>
      </trkpt>
      <trkpt lat="45.99773" lon="3.6948">
        <ele>795.34</ele>
        <time>2013-11-01T15:01:25Z</time>
      </trkpt>
      <trkpt lat="45.99776" lon="3.69512">
        <ele>791.28</ele>
        <time>2013-11-01T15:01:28Z</time>
      </trkpt>
      <trkpt lat="45.99779" lon="3.6954">
        <ele>786.27</ele>
        <time>2013-11-01T15:01:31Z</time>
      </trkpt>
      <trkpt lat="45.99787" lon="3.69568">
        <ele>783.39</ele>
        <time>2013-11-01T15:01:34Z</time>
      </trkpt>
      <trkpt lat="45.99794" lon="3.696">
        <ele>781.91</ele>
        <time>2013-11-01T15:01:37Z</time>
      </trkpt>
      <trkpt lat="45.99802" lon="3.69632">
        <ele>781.6</ele>
        <time>2013-11-01T15:01:40Z</time>
      </trkpt>
      <trkpt lat="45.99808" lon="3.69666">
        <ele>781.43</ele>
        <time>2013-11-01T15:01:43Z</time>
      </trkpt>
      <trkpt lat="45.99816" lon="3.69696">
        <ele>782.29</ele>
        <time>2013-11-01T15:01:46Z</time>
      </trkpt>
      <trkpt lat="45.99826" lon="3.69726">
        <ele>781.64</ele>
        <time>2013-11-01T15:01:49Z</time>
      </trkpt>
      <trkpt lat="45.99839" lon="3.69748">
        <ele>781.58</ele>
        <time>2013-11-01T15:01:51Z</time>
      </trkpt>
      <trkpt lat="45.99854" lon="3.69771">
        <ele>781.56</ele>
        <time>2013-11-01T15:01:53Z</time>
      </trkpt>
      <trkpt lat="45.99873" lon="3.69797">
        <ele>782.43</ele>
        <time>2013-11-01T15:01:56Z</time>
      </trkpt>
      <trkpt lat="45.99885" lon="3.69823">
        <ele>782.04</ele>
        <time>2013-11-01T15:01:59Z</time>
      </trkpt>
      <trkpt lat="45.99889" lon="3.69853">
        <ele>781.11</ele>
        <time>2013-11-01T15:02:02Z</time>
      </trkpt>
      <trkpt lat="45.99884" lon="3.69887">
        <ele>780.12</ele>
        <time>2013-11-01T15:02:05Z</time>
      </trkpt>
      <trkpt lat="45.99882" lon="3.69913">
        <ele>778</ele>
        <time>2013-11-01T15:02:08Z</time>
      </trkpt>
      <trkpt lat="45.99897" lon="3.6993">
        <ele>775.89</ele>
        <time>2013-11-01T15:02:12Z</time>
      </trkpt>
      <trkpt lat="45.99917" lon="3.6993">
        <ele>774.22</ele>
        <time>2013-11-01T15:02:15Z</time>
      </trkpt>
      <trkpt lat="45.99938" lon="3.69935">
        <ele>771.91</ele>
        <time>2013-11-01T15:02:19Z</time>
      </trkpt>
      <trkpt lat="45.99958" lon="3.69945">
        <ele>768.51</ele>
        <time>2013-11-01T15:02:23Z</time>
      </trkpt>
      <trkpt lat="45.99978" lon="3.69956">
        <ele>766.86</ele>
        <time>2013-11-01T15:02:27Z</time>
      </trkpt>
      <trkpt lat="45.99996" lon="3.69965">
        <ele>765.59</ele>
        <time>2013-11-01T15:02:32Z</time>
      </trkpt>
      <trkpt lat="46.00013" lon="3.69975">
        <ele>764.62</ele>
        <time>2013-11-01T15:02:37Z</time>
      </trkpt>
      <trkpt lat="46.00036" lon="3.69975">
        <ele>765.55</ele>
        <time>2013-11-01T15:02:47Z</time>
      </trkpt>
      <trkpt lat="46.00055" lon="3.69965">
        <ele>765.55</ele>
        <time>2013-11-01T15:03:00Z</time>
      </trkpt>
      <trkpt lat="46.00082" lon="3.69956">
        <ele>766.55</ele>
        <time>2013-11-01T15:03:16Z</time>
      </trkpt>
      <trkpt lat="46.00099" lon="3.69943">
        <ele>766.55</ele>
        <time>2013-11-01T15:03:27Z</time>
      </trkpt>
      <trkpt lat="46.00118" lon="3.6993">
        <ele>766.55</ele>
        <time>2013-11-01T15:03:37Z</time>
      </trkpt>
      <trkpt lat="46.00137" lon="3.69915">
        <ele>765.8</ele>
        <time>2013-11-01T15:03:43Z</time>
      </trkpt>
      <trkpt lat="46.00155" lon="3.69887">
        <ele>764.08</ele>
        <time>2013-11-01T15:03:54Z</time>
      </trkpt>
      <trkpt lat="46.00172" lon="3.69872">
        <ele>762.12</ele>
        <time>2013-11-01T15:04:01Z</time>
      </trkpt>
      <trkpt lat="46.00191" lon="3.69866">
        <ele>760.81</ele>
        <time>2013-11-01T15:04:07Z</time>
      </trkpt>
      <trkpt lat="46.00212" lon="3.69862">
        <ele>759.62</ele>
        <time>2013-11-01T15:04:13Z</time>
      </trkpt>
      <trkpt lat="46.0023" lon="3.69857">
        <ele>758.62</ele>
        <time>2013-11-01T15:04:19Z</time>
      </trkpt>
      <trkpt lat="46.00249" lon="3.69855">
        <ele>757.09</ele>
        <time>2013-11-01T15:04:24Z</time>
      </trkpt>
      <trkpt lat="46.00267" lon="3.69853">
        <ele>750.46</ele>
        <time>2013-11-01T15:04:28Z</time>
      </trkpt>
      <trkpt lat="46.00289" lon="3.69855">
        <ele>746.11</ele>
        <time>2013-11-01T15:04:32Z</time>
      </trkpt>
      <trkpt lat="46.00309" lon="3.69859">
        <ele>743.4</ele>
        <time>2013-11-01T15:04:36Z</time>
      </trkpt>
      <trkpt lat="46.00327" lon="3.69859">
        <ele>740.98</ele>
        <time>2013-11-01T15:04:40Z</time>
      </trkpt>
      <trkpt lat="46.00348" lon="3.69838">
        <ele>739.59</ele>
        <time>2013-11-01T15:04:47Z</time>
      </trkpt>
      <trkpt lat="46.00359" lon="3.69814">
        <ele>740.05</ele>
        <time>2013-11-01T15:04:55Z</time>
      </trkpt>
      <trkpt lat="46.00371" lon="3.69791">
        <ele>740.55</ele>
        <time>2013-11-01T15:05:02Z</time>
      </trkpt>
      <trkpt lat="46.00387" lon="3.69769">
        <ele>741.49</ele>
        <time>2013-11-01T15:05:08Z</time>
      </trkpt>
      <trkpt lat="46.0041" lon="3.69748">
        <ele>742.05</ele>
        <time>2013-11-01T15:05:16Z</time>
      </trkpt>
      <trkpt lat="46.00434" lon="3.69739">
        <ele>743.42</ele>
        <time>2013-11-01T15:05:23Z</time>
      </trkpt>
      <trkpt lat="46.00452" lon="3.69737">
        <ele>744.42</ele>
        <time>2013-11-01T15:05:27Z</time>
      </trkpt>
      <trkpt lat="46.00473" lon="3.69737">
        <ele>743.79</ele>
        <time>2013-11-01T15:05:31Z</time>
      </trkpt>
      <trkpt lat="46.00492" lon="3.69731">
        <ele>743.57</ele>
        <time>2013-11-01T15:05:35Z</time>
      </trkpt>
      <trkpt lat="46.00507" lon="3.69709">
        <ele>742.56</ele>
        <time>2013-11-01T15:05:42Z</time>
      </trkpt>
      <trkpt lat="46.00518" lon="3.69688">
        <ele>742.55</ele>
        <time>2013-11-01T15:05:48Z</time>
      </trkpt>
      <trkpt lat="46.00531" lon="3.69664">
        <ele>742.55</ele>
        <time>2013-11-01T15:05:55Z</time>
      </trkpt>
      <trkpt lat="46.00547" lon="3.69647">
        <ele>742.55</ele>
        <time>2013-11-01T15:06:02Z</time>
      </trkpt>
      <trkpt lat="46.00567" lon="3.69638">
        <ele>742.55</ele>
        <time>2013-11-01T15:06:09Z</time>
      </trkpt>
      <trkpt lat="46.00582" lon="3.69623">
        <ele>743.3</ele>
        <time>2013-11-01T15:06:16Z</time>
      </trkpt>
      <trkpt lat="46.00595" lon="3.69602">
        <ele>743.55</ele>
        <time>2013-11-01T15:06:23Z</time>
      </trkpt>
      <trkpt lat="46.00609" lon="3.69581">
        <ele>743.55</ele>
        <time>2013-11-01T15:06:31Z</time>
      </trkpt>
      <trkpt lat="46.00626" lon="3.69565">
        <ele>743.55</ele>
        <time>2013-11-01T15:06:37Z</time>
      </trkpt>
      <trkpt lat="46.00641" lon="3.69548">
        <ele>743.55</ele>
        <time>2013-11-01T15:06:42Z</time>
      </trkpt>
      <trkpt lat="46.00657" lon="3.69529">
        <ele>743.55</ele>
        <time>2013-11-01T15:06:48Z</time>
      </trkpt>
      <trkpt lat="46.00672" lon="3.69505">
        <ele>744.05</ele>
        <time>2013-11-01T15:06:53Z</time>
      </trkpt>
      <trkpt lat="46.00685" lon="3.69486">
        <ele>744.52</ele>
        <time>2013-11-01T15:06:57Z</time>
      </trkpt>
      <trkpt lat="46.007" lon="3.69465">
        <ele>744.55</ele>
        <time>2013-11-01T15:07:02Z</time>
      </trkpt>
      <trkpt lat="46.00715" lon="3.69447">
        <ele>745.3</ele>
        <time>2013-11-01T15:07:07Z</time>
      </trkpt>
      <trkpt lat="46.00732" lon="3.69439">
        <ele>745.55</ele>
        <time>2013-11-01T15:07:12Z</time>
      </trkpt>
      <trkpt lat="46.00749" lon="3.6943">
        <ele>744.58</ele>
        <time>2013-11-01T15:07:17Z</time>
      </trkpt>
      <trkpt lat="46.0077" lon="3.69426">
        <ele>742.43</ele>
        <time>2013-11-01T15:07:21Z</time>
      </trkpt>
      <trkpt lat="46.00791" lon="3.69424">
        <ele>740.04</ele>
        <time>2013-11-01T15:07:24Z</time>
      </trkpt>
      <trkpt lat="46.00816" lon="3.6942">
        <ele>737.99</ele>
        <time>2013-11-01T15:07:27Z</time>
      </trkpt>
      <trkpt lat="46.00842" lon="3.69413">
        <ele>736.86</ele>
        <time>2013-11-01T15:07:30Z</time>
      </trkpt>
      <trkpt lat="46.00868" lon="3.69405">
        <ele>735.22</ele>
        <time>2013-11-01T15:07:33Z</time>
      </trkpt>
      <trkpt lat="46.00891" lon="3.69396">
        <ele>734.64</ele>
        <time>2013-11-01T15:07:36Z</time>
      </trkpt>
      <trkpt lat="46.00911" lon="3.6939">
        <ele>734.06</ele>
        <time>2013-11-01T15:07:39Z</time>
      </trkpt>
      <trkpt lat="46.00933" lon="3.69394">
        <ele>733.62</ele>
        <time>2013-11-01T15:07:42Z</time>
      </trkpt>
      <trkpt lat="46.00954" lon="3.69407">
        <ele>732.69</ele>
        <time>2013-11-01T15:07:45Z</time>
      </trkpt>
      <trkpt lat="46.00973" lon="3.69415">
        <ele>731.19</ele>
        <time>2013-11-01T15:07:48Z</time>
      </trkpt>
      <trkpt lat="46.00993" lon="3.69422">
        <ele>728.51</ele>
        <time>2013-11-01T15:07:51Z</time>
      </trkpt>
      <trkpt lat="46.01012" lon="3.69413">
        <ele>723.68</ele>
        <time>2013-11-01T15:07:55Z</time>
      </trkpt>
      <trkpt lat="46.0103" lon="3.69396">
        <ele>723.44</ele>
        <time>2013-11-01T15:07:59Z</time>
      </trkpt>
      <trkpt lat="46.01051" lon="3.69379">
        <ele>729.23</ele>
        <time>2013-11-01T15:08:03Z</time>
      </trkpt>
      <trkpt lat="46.01068" lon="3.69359">
        <ele>732.51</ele>
        <time>2013-11-01T15:08:06Z</time>
      </trkpt>
      <trkpt lat="46.01088" lon="3.6934">
        <ele>734.17</ele>
        <time>2013-11-01T15:08:09Z</time>
      </trkpt>
      <trkpt lat="46.01105" lon="3.69321">
        <ele>734.01</ele>
        <time>2013-11-01T15:08:12Z</time>
      </trkpt>
      <trkpt lat="46.01121" lon="3.69304">
        <ele>732.36</ele>
        <time>2013-11-01T15:08:15Z</time>
      </trkpt>
      <trkpt lat="46.01138" lon="3.69278">
        <ele>729.98</ele>
        <time>2013-11-01T15:08:19Z</time>
      </trkpt>
      <trkpt lat="46.0115" lon="3.69256">
        <ele>728.7</ele>
        <time>2013-11-01T15:08:23Z</time>
      </trkpt>
      <trkpt lat="46.01165" lon="3.69226">
        <ele>730.05</ele>
        <time>2013-11-01T15:08:38Z</time>
      </trkpt>
      <trkpt lat="46.01166" lon="3.69199">
        <ele>732.55</ele>
        <time>2013-11-01T15:11:34Z</time>
      </trkpt>
      <trkpt lat="46.01164" lon="3.69171">
        <ele>733.54</ele>
        <time>2013-11-01T15:12:24Z</time>
      </trkpt>
      <trkpt lat="46.0116" lon="3.69143">
        <ele>733.55</ele>
        <time>2013-11-01T15:12:30Z</time>
      </trkpt>
      <trkpt lat="46.01155" lon="3.69117">
        <ele>733.05</ele>
        <time>2013-11-01T15:12:34Z</time>
      </trkpt>
      <trkpt lat="46.01153" lon="3.69091">
        <ele>731.71</ele>
        <time>2013-11-01T15:12:38Z</time>
      </trkpt>
      <trkpt lat="46.01161" lon="3.69066">
        <ele>732.31</ele>
        <time>2013-11-01T15:12:43Z</time>
      </trkpt>
      <trkpt lat="46.01176" lon="3.69046">
        <ele>732.55</ele>
        <time>2013-11-01T15:12:48Z</time>
      </trkpt>
      <trkpt lat="46.01194" lon="3.69035">
        <ele>732.55</ele>
        <time>2013-11-01T15:12:53Z</time>
      </trkpt>
      <trkpt lat="46.01213" lon="3.69033">
        <ele>731.58</ele>
        <time>2013-11-01T15:12:58Z</time>
      </trkpt>
      <trkpt lat="46.01233" lon="3.6904">
        <ele>731.55</ele>
        <time>2013-11-01T15:13:04Z</time>
      </trkpt>
      <trkpt lat="46.01252" lon="3.69048">
        <ele>730.56</ele>
        <time>2013-11-01T15:13:11Z</time>
      </trkpt>
      <trkpt lat="46.01269" lon="3.69057">
        <ele>730.55</ele>
        <time>2013-11-01T15:13:16Z</time>
      </trkpt>
      <trkpt lat="46.01289" lon="3.69063">
        <ele>729.8</ele>
        <time>2013-11-01T15:13:22Z</time>
      </trkpt>
      <trkpt lat="46.01309" lon="3.69072">
        <ele>729.56</ele>
        <time>2013-11-01T15:13:28Z</time>
      </trkpt>
      <trkpt lat="46.01331" lon="3.6907">
        <ele>730.3</ele>
        <time>2013-11-01T15:13:33Z</time>
      </trkpt>
      <trkpt lat="46.01348" lon="3.69046">
        <ele>731.02</ele>
        <time>2013-11-01T15:13:36Z</time>
      </trkpt>
      <trkpt lat="46.01361" lon="3.6902">
        <ele>731.49</ele>
        <time>2013-11-01T15:13:39Z</time>
      </trkpt>
      <trkpt lat="46.01371" lon="3.6899">
        <ele>731.17</ele>
        <time>2013-11-01T15:13:42Z</time>
      </trkpt>
      <trkpt lat="46.01379" lon="3.68967">
        <ele>731.46</ele>
        <time>2013-11-01T15:13:44Z</time>
      </trkpt>
      <trkpt lat="46.01389" lon="3.68937">
        <ele>730.29</ele>
        <time>2013-11-01T15:13:47Z</time>
      </trkpt>
      <trkpt lat="46.0139" lon="3.68909">
        <ele>727.02</ele>
        <time>2013-11-01T15:13:50Z</time>
      </trkpt>
      <trkpt lat="46.0139" lon="3.68879">
        <ele>722.56</ele>
        <time>2013-11-01T15:13:59Z</time>
      </trkpt>
      <trkpt lat="46.01392" lon="3.68851">
        <ele>720.07</ele>
        <time>2013-11-01T15:14:10Z</time>
      </trkpt>
      <trkpt lat="46.01405" lon="3.68827">
        <ele>719.55</ele>
        <time>2013-11-01T15:14:18Z</time>
      </trkpt>
      <trkpt lat="46.01411" lon="3.68799">
        <ele>717.8</ele>
        <time>2013-11-01T15:16:37Z</time>
      </trkpt>
      <trkpt lat="46.01411" lon="3.68772">
        <ele>717.55</ele>
        <time>2013-11-01T15:16:44Z</time>
      </trkpt>
      <trkpt lat="46.0141" lon="3.68744">
        <ele>717.55</ele>
        <time>2013-11-01T15:16:51Z</time>
      </trkpt>
      <trkpt lat="46.0141" lon="3.68716">
        <ele>717.55</ele>
        <time>2013-11-01T15:16:58Z</time>
      </trkpt>
      <trkpt lat="46.01403" lon="3.6869">
        <ele>717.55</ele>
        <time>2013-11-01T15:17:05Z</time>
      </trkpt>
      <trkpt lat="46.01393" lon="3.68664">
        <ele>717.55</ele>
        <time>2013-11-01T15:17:13Z</time>
      </trkpt>
      <trkpt lat="46.01386" lon="3.68639">
        <ele>717.55</ele>
        <time>2013-11-01T15:17:21Z</time>
      </trkpt>
      <trkpt lat="46.01405" lon="3.68647">
        <ele>716.55</ele>
        <time>2013-11-01T15:17:40Z</time>
      </trkpt>
      <trkpt lat="46.01422" lon="3.68658">
        <ele>717.43</ele>
        <time>2013-11-01T15:17:52Z</time>
      </trkpt>
      <trkpt lat="46.01438" lon="3.68673">
        <ele>717.55</ele>
        <time>2013-11-01T15:18:02Z</time>
      </trkpt>
      <trkpt lat="46.01451" lon="3.68694">
        <ele>718.54</ele>
        <time>2013-11-01T15:18:12Z</time>
      </trkpt>
      <trkpt lat="46.01463" lon="3.68716">
        <ele>719.55</ele>
        <time>2013-11-01T15:18:22Z</time>
      </trkpt>
      <trkpt lat="46.01474" lon="3.68737">
        <ele>720.55</ele>
        <time>2013-11-01T15:18:32Z</time>
      </trkpt>
      <trkpt lat="46.01487" lon="3.68759">
        <ele>722.49</ele>
        <time>2013-11-01T15:18:42Z</time>
      </trkpt>
      <trkpt lat="46.01501" lon="3.68776">
        <ele>724.49</ele>
        <time>2013-11-01T15:18:52Z</time>
      </trkpt>
      <trkpt lat="46.01516" lon="3.68793">
        <ele>726.42</ele>
        <time>2013-11-01T15:19:01Z</time>
      </trkpt>
      <trkpt lat="46.01534" lon="3.68804">
        <ele>728.42</ele>
        <time>2013-11-01T15:19:09Z</time>
      </trkpt>
      <trkpt lat="46.01555" lon="3.68808">
        <ele>730.49</ele>
        <time>2013-11-01T15:19:18Z</time>
      </trkpt>
      <trkpt lat="46.01573" lon="3.68812">
        <ele>732.49</ele>
        <time>2013-11-01T15:19:27Z</time>
      </trkpt>
      <trkpt lat="46.01591" lon="3.68814">
        <ele>735.02</ele>
        <time>2013-11-01T15:19:36Z</time>
      </trkpt>
      <trkpt lat="46.01611" lon="3.68814">
        <ele>737.29</ele>
        <time>2013-11-01T15:19:45Z</time>
      </trkpt>
      <trkpt lat="46.0163" lon="3.68817">
        <ele>739.29</ele>
        <time>2013-11-01T15:19:54Z</time>
      </trkpt>
      <trkpt lat="46.01648" lon="3.68819">
        <ele>741.29</ele>
        <time>2013-11-01T15:20:03Z</time>
      </trkpt>
      <trkpt lat="46.01668" lon="3.68823">
        <ele>743.29</ele>
        <time>2013-11-01T15:20:12Z</time>
      </trkpt>
      <trkpt lat="46.01686" lon="3.68825">
        <ele>744.52</ele>
        <time>2013-11-01T15:20:21Z</time>
      </trkpt>
      <trkpt lat="46.01704" lon="3.68825">
        <ele>745.55</ele>
        <time>2013-11-01T15:20:31Z</time>
      </trkpt>
      <trkpt lat="46.01722" lon="3.68827">
        <ele>746.55</ele>
        <time>2013-11-01T15:20:39Z</time>
      </trkpt>
      <trkpt lat="46.01742" lon="3.68827">
        <ele>746.55</ele>
        <time>2013-11-01T15:20:47Z</time>
      </trkpt>
      <trkpt lat="46.0176" lon="3.68827">
        <ele>746.55</ele>
        <time>2013-11-01T15:20:56Z</time>
      </trkpt>
      <trkpt lat="46.01778" lon="3.68827">
        <ele>746.55</ele>
        <time>2013-11-01T15:21:06Z</time>
      </trkpt>
      <trkpt lat="46.01796" lon="3.68821">
        <ele>747.49</ele>
        <time>2013-11-01T15:21:15Z</time>
      </trkpt>
      <trkpt lat="46.01816" lon="3.68814">
        <ele>748.49</ele>
        <time>2013-11-01T15:21:24Z</time>
      </trkpt>
      <trkpt lat="46.01835" lon="3.68814">
        <ele>749.52</ele>
        <time>2013-11-01T15:21:32Z</time>
      </trkpt>
      <trkpt lat="46.01852" lon="3.68829">
        <ele>751.49</ele>
        <time>2013-11-01T15:21:40Z</time>
      </trkpt>
      <trkpt lat="46.01864" lon="3.68851">
        <ele>754.27</ele>
        <time>2013-11-01T15:21:49Z</time>
      </trkpt>
      <trkpt lat="46.01869" lon="3.68877">
        <ele>757.02</ele>
        <time>2013-11-01T15:22:00Z</time>
      </trkpt>
      <trkpt lat="46.01874" lon="3.68902">
        <ele>759.52</ele>
        <time>2013-11-01T15:22:13Z</time>
      </trkpt>
      <trkpt lat="46.01878" lon="3.68928">
        <ele>762.29</ele>
        <time>2013-11-01T15:22:24Z</time>
      </trkpt>
      <trkpt lat="46.01881" lon="3.68954">
        <ele>764.29</ele>
        <time>2013-11-01T15:22:33Z</time>
      </trkpt>
      <trkpt lat="46.0189" lon="3.6898">
        <ele>765.52</ele>
        <time>2013-11-01T15:22:41Z</time>
      </trkpt>
      <trkpt lat="46.019" lon="3.69003">
        <ele>767.49</ele>
        <time>2013-11-01T15:22:50Z</time>
      </trkpt>
      <trkpt lat="46.01911" lon="3.69025">
        <ele>768.49</ele>
        <time>2013-11-01T15:22:56Z</time>
      </trkpt>
      <trkpt lat="46.01928" lon="3.69033">
        <ele>768.55</ele>
        <time>2013-11-01T15:23:04Z</time>
      </trkpt>
      <trkpt lat="46.01948" lon="3.69035">
        <ele>767.62</ele>
        <time>2013-11-01T15:23:14Z</time>
      </trkpt>
      <trkpt lat="46.01966" lon="3.69044">
        <ele>767.55</ele>
        <time>2013-11-01T15:23:24Z</time>
      </trkpt>
      <trkpt lat="46.01981" lon="3.69066">
        <ele>767.55</ele>
        <time>2013-11-01T15:23:32Z</time>
      </trkpt>
      <trkpt lat="46.01997" lon="3.69081">
        <ele>767.07</ele>
        <time>2013-11-01T15:23:40Z</time>
      </trkpt>
      <trkpt lat="46.02016" lon="3.69087">
        <ele>768.49</ele>
        <time>2013-11-01T15:23:51Z</time>
      </trkpt>
      <trkpt lat="46.02038" lon="3.69093">
        <ele>769.52</ele>
        <time>2013-11-01T15:23:57Z</time>
      </trkpt>
      <trkpt lat="46.02055" lon="3.69108">
        <ele>769.55</ele>
        <time>2013-11-01T15:24:03Z</time>
      </trkpt>
      <trkpt lat="46.02069" lon="3.6913">
        <ele>769.55</ele>
        <time>2013-11-01T15:24:10Z</time>
      </trkpt>
      <trkpt lat="46.02084" lon="3.69145">
        <ele>769.55</ele>
        <time>2013-11-01T15:24:18Z</time>
      </trkpt>
      <trkpt lat="46.02099" lon="3.6916">
        <ele>770.55</ele>
        <time>2013-11-01T15:24:28Z</time>
      </trkpt>
      <trkpt lat="46.02117" lon="3.69164">
        <ele>772.55</ele>
        <time>2013-11-01T15:25:22Z</time>
      </trkpt>
      <trkpt lat="46.02135" lon="3.6916">
        <ele>772.55</ele>
        <time>2013-11-01T15:25:29Z</time>
      </trkpt>
      <trkpt lat="46.02156" lon="3.6916">
        <ele>773.54</ele>
        <time>2013-11-01T15:25:35Z</time>
      </trkpt>
      <trkpt lat="46.02175" lon="3.6916">
        <ele>774.3</ele>
        <time>2013-11-01T15:25:40Z</time>
      </trkpt>
      <trkpt lat="46.02195" lon="3.69164">
        <ele>774.55</ele>
        <time>2013-11-01T15:25:45Z</time>
      </trkpt>
      <trkpt lat="46.02215" lon="3.69166">
        <ele>774.55</ele>
        <time>2013-11-01T15:25:50Z</time>
      </trkpt>
      <trkpt lat="46.02233" lon="3.69166">
        <ele>774.55</ele>
        <time>2013-11-01T15:25:55Z</time>
      </trkpt>
      <trkpt lat="46.02252" lon="3.69171">
        <ele>774.55</ele>
        <time>2013-11-01T15:26:01Z</time>
      </trkpt>
      <trkpt lat="46.0227" lon="3.69175">
        <ele>773.58</ele>
        <time>2013-11-01T15:26:07Z</time>
      </trkpt>
      <trkpt lat="46.02291" lon="3.69175">
        <ele>773.55</ele>
        <time>2013-11-01T15:26:15Z</time>
      </trkpt>
      <trkpt lat="46.02309" lon="3.69173">
        <ele>773.55</ele>
        <time>2013-11-01T15:26:21Z</time>
      </trkpt>
      <trkpt lat="46.02326" lon="3.69164">
        <ele>772.58</ele>
        <time>2013-11-01T15:26:27Z</time>
      </trkpt>
      <trkpt lat="46.02342" lon="3.69151">
        <ele>772.55</ele>
        <time>2013-11-01T15:26:34Z</time>
      </trkpt>
      <trkpt lat="46.02355" lon="3.6913">
        <ele>772.55</ele>
        <time>2013-11-01T15:26:39Z</time>
      </trkpt>
      <trkpt lat="46.02366" lon="3.69106">
        <ele>769.87</ele>
        <time>2013-11-01T15:26:43Z</time>
      </trkpt>
      <trkpt lat="46.02377" lon="3.69085">
        <ele>766.32</ele>
        <time>2013-11-01T15:26:47Z</time>
      </trkpt>
      <trkpt lat="46.02391" lon="3.69068">
        <ele>765.57</ele>
        <time>2013-11-01T15:26:53Z</time>
      </trkpt>
      <trkpt lat="46.02397" lon="3.69033">
        <ele>771.3</ele>
        <time>2013-11-01T15:27:21Z</time>
      </trkpt>
      <trkpt lat="46.0239" lon="3.69008">
        <ele>778.4</ele>
        <time>2013-11-01T15:27:24Z</time>
      </trkpt>
      <trkpt lat="46.02381" lon="3.68978">
        <ele>781.91</ele>
        <time>2013-11-01T15:27:27Z</time>
      </trkpt>
      <trkpt lat="46.02373" lon="3.68952">
        <ele>783.14</ele>
        <time>2013-11-01T15:27:29Z</time>
      </trkpt>
      <trkpt lat="46.02366" lon="3.68924">
        <ele>784.2</ele>
        <time>2013-11-01T15:27:31Z</time>
      </trkpt>
      <trkpt lat="46.0236" lon="3.68896">
        <ele>784.46</ele>
        <time>2013-11-01T15:27:33Z</time>
      </trkpt>
      <trkpt lat="46.0235" lon="3.68862">
        <ele>784.04</ele>
        <time>2013-11-01T15:27:36Z</time>
      </trkpt>
      <trkpt lat="46.02342" lon="3.68829">
        <ele>782.61</ele>
        <time>2013-11-01T15:27:39Z</time>
      </trkpt>
      <trkpt lat="46.02337" lon="3.68802">
        <ele>779.56</ele>
        <time>2013-11-01T15:27:42Z</time>
      </trkpt>
      <trkpt lat="46.02331" lon="3.68769">
        <ele>777.3</ele>
        <time>2013-11-01T15:27:45Z</time>
      </trkpt>
      <trkpt lat="46.02325" lon="3.68737">
        <ele>775.9</ele>
        <time>2013-11-01T15:27:48Z</time>
      </trkpt>
      <trkpt lat="46.02321" lon="3.68701">
        <ele>774.22</ele>
        <time>2013-11-01T15:27:51Z</time>
      </trkpt>
      <trkpt lat="46.02319" lon="3.68669">
        <ele>773.64</ele>
        <time>2013-11-01T15:27:54Z</time>
      </trkpt>
      <trkpt lat="46.02322" lon="3.68639">
        <ele>772.69</ele>
        <time>2013-11-01T15:27:57Z</time>
      </trkpt>
      <trkpt lat="46.02324" lon="3.68604">
        <ele>771.69</ele>
        <time>2013-11-01T15:28:00Z</time>
      </trkpt>
      <trkpt lat="46.02328" lon="3.6857">
        <ele>770.2</ele>
        <time>2013-11-01T15:28:03Z</time>
      </trkpt>
      <trkpt lat="46.02335" lon="3.68538">
        <ele>769.13</ele>
        <time>2013-11-01T15:28:06Z</time>
      </trkpt>
      <trkpt lat="46.02341" lon="3.6851">
        <ele>768.63</ele>
        <time>2013-11-01T15:28:09Z</time>
      </trkpt>
      <trkpt lat="46.02353" lon="3.68482">
        <ele>767.31</ele>
        <time>2013-11-01T15:28:12Z</time>
      </trkpt>
      <trkpt lat="46.02367" lon="3.68463">
        <ele>766.6</ele>
        <time>2013-11-01T15:28:16Z</time>
      </trkpt>
      <trkpt lat="46.02376" lon="3.68428">
        <ele>765.08</ele>
        <time>2013-11-01T15:28:25Z</time>
      </trkpt>
      <trkpt lat="46.0238" lon="3.68398">
        <ele>761.31</ele>
        <time>2013-11-01T15:28:31Z</time>
      </trkpt>
      <trkpt lat="46.02387" lon="3.68368">
        <ele>757.55</ele>
        <time>2013-11-01T15:28:42Z</time>
      </trkpt>
      <trkpt lat="46.02398" lon="3.68334">
        <ele>745.06</ele>
        <time>2013-11-01T15:29:05Z</time>
      </trkpt>
      <trkpt lat="46.02414" lon="3.68302">
        <ele>741.56</ele>
        <time>2013-11-01T15:29:23Z</time>
      </trkpt>
      <trkpt lat="46.02426" lon="3.6828">
        <ele>740.05</ele>
        <time>2013-11-01T15:29:42Z</time>
      </trkpt>
      <trkpt lat="46.02437" lon="3.68259">
        <ele>739.55</ele>
        <time>2013-11-01T15:30:00Z</time>
      </trkpt>
      <trkpt lat="46.02446" lon="3.68235">
        <ele>740.05</ele>
        <time>2013-11-01T15:30:18Z</time>
      </trkpt>
      <trkpt lat="46.02452" lon="3.68209">
        <ele>742.05</ele>
        <time>2013-11-01T15:30:33Z</time>
      </trkpt>
      <trkpt lat="46.02466" lon="3.6819">
        <ele>743.55</ele>
        <time>2013-11-01T15:30:46Z</time>
      </trkpt>
      <trkpt lat="46.02474" lon="3.68164">
        <ele>743.55</ele>
        <time>2013-11-01T15:30:57Z</time>
      </trkpt>
      <trkpt lat="46.02486" lon="3.68143">
        <ele>742.06</ele>
        <time>2013-11-01T15:31:09Z</time>
      </trkpt>
      <trkpt lat="46.02501" lon="3.68128">
        <ele>740.62</ele>
        <time>2013-11-01T15:31:19Z</time>
      </trkpt>
      <trkpt lat="46.02519" lon="3.68128">
        <ele>739.58</ele>
        <time>2013-11-01T15:31:27Z</time>
      </trkpt>
      <trkpt lat="46.02533" lon="3.68147">
        <ele>738.56</ele>
        <time>2013-11-01T15:31:36Z</time>
      </trkpt>
      <trkpt lat="46.02546" lon="3.68169">
        <ele>738.55</ele>
        <time>2013-11-01T15:31:52Z</time>
      </trkpt>
      <trkpt lat="46.02527" lon="3.6816">
        <ele>737.71</ele>
        <time>2013-11-01T15:33:42Z</time>
      </trkpt>
      <trkpt lat="46.0251" lon="3.68139">
        <ele>737.56</ele>
        <time>2013-11-01T15:33:47Z</time>
      </trkpt>
      <trkpt lat="46.02499" lon="3.68115">
        <ele>737.55</ele>
        <time>2013-11-01T15:33:51Z</time>
      </trkpt>
      <trkpt lat="46.02491" lon="3.68091">
        <ele>737.55</ele>
        <time>2013-11-01T15:33:55Z</time>
      </trkpt>
      <trkpt lat="46.02485" lon="3.68061">
        <ele>737.55</ele>
        <time>2013-11-01T15:34:00Z</time>
      </trkpt>
      <trkpt lat="46.02479" lon="3.68033">
        <ele>738.3</ele>
        <time>2013-11-01T15:34:04Z</time>
      </trkpt>
      <trkpt lat="46.02473" lon="3.68006">
        <ele>738.54</ele>
        <time>2013-11-01T15:34:08Z</time>
      </trkpt>
      <trkpt lat="46.0247" lon="3.67978">
        <ele>739.43</ele>
        <time>2013-11-01T15:34:12Z</time>
      </trkpt>
      <trkpt lat="46.02473" lon="3.67952">
        <ele>741.66</ele>
        <time>2013-11-01T15:34:15Z</time>
      </trkpt>
      <trkpt lat="46.02481" lon="3.67922">
        <ele>743.82</ele>
        <time>2013-11-01T15:34:18Z</time>
      </trkpt>
      <trkpt lat="46.0249" lon="3.6789">
        <ele>744.46</ele>
        <time>2013-11-01T15:34:21Z</time>
      </trkpt>
      <trkpt lat="46.02499" lon="3.67866">
        <ele>744.53</ele>
        <time>2013-11-01T15:34:23Z</time>
      </trkpt>
      <trkpt lat="46.02514" lon="3.67834">
        <ele>743.8</ele>
        <time>2013-11-01T15:34:26Z</time>
      </trkpt>
      <trkpt lat="46.02527" lon="3.67802">
        <ele>743.58</ele>
        <time>2013-11-01T15:34:29Z</time>
      </trkpt>
      <trkpt lat="46.0253" lon="3.67774">
        <ele>743.06</ele>
        <time>2013-11-01T15:34:32Z</time>
      </trkpt>
      <trkpt lat="46.02538" lon="3.67744">
        <ele>741.15</ele>
        <time>2013-11-01T15:34:36Z</time>
      </trkpt>
      <trkpt lat="46.02546" lon="3.67718">
        <ele>741.09</ele>
        <time>2013-11-01T15:34:40Z</time>
      </trkpt>
      <trkpt lat="46.02562" lon="3.67701">
        <ele>743.71</ele>
        <time>2013-11-01T15:34:44Z</time>
      </trkpt>
      <trkpt lat="46.02577" lon="3.67684">
        <ele>745.5</ele>
        <time>2013-11-01T15:34:49Z</time>
      </trkpt>
      <trkpt lat="46.0259" lon="3.67658">
        <ele>746.43</ele>
        <time>2013-11-01T15:34:55Z</time>
      </trkpt>
      <trkpt lat="46.02597" lon="3.67628">
        <ele>748.24</ele>
        <time>2013-11-01T15:35:00Z</time>
      </trkpt>
      <trkpt lat="46.02602" lon="3.67602">
        <ele>749.51</ele>
        <time>2013-11-01T15:35:05Z</time>
      </trkpt>
      <trkpt lat="46.02607" lon="3.67576">
        <ele>750.05</ele>
        <time>2013-11-01T15:35:14Z</time>
      </trkpt>
      <trkpt lat="46.02625" lon="3.67602">
        <ele>749.61</ele>
        <time>2013-11-01T15:35:23Z</time>
      </trkpt>
      <trkpt lat="46.02633" lon="3.67628">
        <ele>749.55</ele>
        <time>2013-11-01T15:35:34Z</time>
      </trkpt>
      <trkpt lat="46.02642" lon="3.67654">
        <ele>749.55</ele>
        <time>2013-11-01T15:35:52Z</time>
      </trkpt>
      <trkpt lat="46.02656" lon="3.67677">
        <ele>752.04</ele>
        <time>2013-11-01T15:36:15Z</time>
      </trkpt>
      <trkpt lat="46.02678" lon="3.67697">
        <ele>757.05</ele>
        <time>2013-11-01T15:36:39Z</time>
      </trkpt>
      <trkpt lat="46.02691" lon="3.67716">
        <ele>760.05</ele>
        <time>2013-11-01T15:36:55Z</time>
      </trkpt>
      <trkpt lat="46.02709" lon="3.67739">
        <ele>764.05</ele>
        <time>2013-11-01T15:37:18Z</time>
      </trkpt>
      <trkpt lat="46.02728" lon="3.67737">
        <ele>765.55</ele>
        <time>2013-11-01T15:38:30Z</time>
      </trkpt>
      <trkpt lat="46.02746" lon="3.67729">
        <ele>768.54</ele>
        <time>2013-11-01T15:39:19Z</time>
      </trkpt>
      <trkpt lat="46.02764" lon="3.6772">
        <ele>770.3</ele>
        <time>2013-11-01T15:39:29Z</time>
      </trkpt>
      <trkpt lat="46.02782" lon="3.67712">
        <ele>771.3</ele>
        <time>2013-11-01T15:39:39Z</time>
      </trkpt>
      <trkpt lat="46.028" lon="3.67701">
        <ele>771.55</ele>
        <time>2013-11-01T15:39:50Z</time>
      </trkpt>
      <trkpt lat="46.0282" lon="3.67701">
        <ele>771.55</ele>
        <time>2013-11-01T15:39:58Z</time>
      </trkpt>
      <trkpt lat="46.02839" lon="3.67701">
        <ele>771.55</ele>
        <time>2013-11-01T15:40:07Z</time>
      </trkpt>
      <trkpt lat="46.02857" lon="3.67703">
        <ele>771.55</ele>
        <time>2013-11-01T15:40:15Z</time>
      </trkpt>
      <trkpt lat="46.02876" lon="3.67707">
        <ele>770.55</ele>
        <time>2013-11-01T15:40:25Z</time>
      </trkpt>
      <trkpt lat="46.02894" lon="3.67701">
        <ele>771.52</ele>
        <time>2013-11-01T15:40:35Z</time>
      </trkpt>
      <trkpt lat="46.02912" lon="3.67694">
        <ele>772.05</ele>
        <time>2013-11-01T15:40:44Z</time>
      </trkpt>
      <trkpt lat="46.02925" lon="3.67675">
        <ele>773.55</ele>
        <time>2013-11-01T15:41:17Z</time>
      </trkpt>
      <trkpt lat="46.02942" lon="3.67662">
        <ele>779.98</ele>
        <time>2013-11-01T15:42:45Z</time>
      </trkpt>
      <trkpt lat="46.02958" lon="3.67649">
        <ele>784.29</ele>
        <time>2013-11-01T15:43:00Z</time>
      </trkpt>
      <trkpt lat="46.02976" lon="3.67643">
        <ele>786.52</ele>
        <time>2013-11-01T15:43:11Z</time>
      </trkpt>
      <trkpt lat="46.02996" lon="3.67643">
        <ele>788.52</ele>
        <time>2013-11-01T15:43:21Z</time>
      </trkpt>
      <trkpt lat="46.03014" lon="3.67645">
        <ele>790.52</ele>
        <time>2013-11-01T15:43:32Z</time>
      </trkpt>
      <trkpt lat="46.03032" lon="3.67641">
        <ele>791.55</ele>
        <time>2013-11-01T15:43:44Z</time>
      </trkpt>
      <trkpt lat="46.03048" lon="3.67628">
        <ele>793.05</ele>
        <time>2013-11-01T15:43:58Z</time>
      </trkpt>
      <trkpt lat="46.03065" lon="3.67615">
        <ele>793.55</ele>
        <time>2013-11-01T15:44:10Z</time>
      </trkpt>
      <trkpt lat="46.03083" lon="3.67606">
        <ele>794.52</ele>
        <time>2013-11-01T15:44:23Z</time>
      </trkpt>
      <trkpt lat="46.031" lon="3.67596">
        <ele>795.52</ele>
        <time>2013-11-01T15:44:35Z</time>
      </trkpt>
      <trkpt lat="46.03118" lon="3.67583">
        <ele>796.54</ele>
        <time>2013-11-01T15:44:48Z</time>
      </trkpt>
      <trkpt lat="46.03134" lon="3.6757">
        <ele>796.55</ele>
        <time>2013-11-01T15:44:59Z</time>
      </trkpt>
      <trkpt lat="46.03149" lon="3.67555">
        <ele>797.55</ele>
        <time>2013-11-01T15:45:09Z</time>
      </trkpt>
      <trkpt lat="46.03164" lon="3.6754">
        <ele>798.43</ele>
        <time>2013-11-01T15:45:20Z</time>
      </trkpt>
      <trkpt lat="46.03179" lon="3.67525">
        <ele>798.55</ele>
        <time>2013-11-01T15:45:30Z</time>
      </trkpt>
      <trkpt lat="46.03193" lon="3.67508">
        <ele>799.43</ele>
        <time>2013-11-01T15:45:37Z</time>
      </trkpt>
      <trkpt lat="46.03207" lon="3.67491">
        <ele>799.55</ele>
        <time>2013-11-01T15:45:44Z</time>
      </trkpt>
      <trkpt lat="46.03223" lon="3.67473">
        <ele>799.55</ele>
        <time>2013-11-01T15:45:51Z</time>
      </trkpt>
      <trkpt lat="46.03239" lon="3.6746">
        <ele>800.52</ele>
        <time>2013-11-01T15:45:58Z</time>
      </trkpt>
      <trkpt lat="46.03255" lon="3.67448">
        <ele>800.55</ele>
        <time>2013-11-01T15:46:05Z</time>
      </trkpt>
      <trkpt lat="46.03276" lon="3.67439">
        <ele>801.3</ele>
        <time>2013-11-01T15:46:12Z</time>
      </trkpt>
      <trkpt lat="46.03296" lon="3.67441">
        <ele>801.55</ele>
        <time>2013-11-01T15:46:18Z</time>
      </trkpt>
      <trkpt lat="46.03315" lon="3.67445">
        <ele>802.52</ele>
        <time>2013-11-01T15:46:26Z</time>
      </trkpt>
      <trkpt lat="46.03327" lon="3.67424">
        <ele>803.43</ele>
        <time>2013-11-01T15:46:35Z</time>
      </trkpt>
      <trkpt lat="46.03336" lon="3.674">
        <ele>803.55</ele>
        <time>2013-11-01T15:46:46Z</time>
      </trkpt>
      <trkpt lat="46.03346" lon="3.67377">
        <ele>809.93</ele>
        <time>2013-11-01T15:48:20Z</time>
      </trkpt>
      <trkpt lat="46.03351" lon="3.67347">
        <ele>813.97</ele>
        <time>2013-11-01T15:48:28Z</time>
      </trkpt>
      <trkpt lat="46.03349" lon="3.67319">
        <ele>815.97</ele>
        <time>2013-11-01T15:48:33Z</time>
      </trkpt>
      <trkpt lat="46.03346" lon="3.67291">
        <ele>817.97</ele>
        <time>2013-11-01T15:48:38Z</time>
      </trkpt>
      <trkpt lat="46.03344" lon="3.67259">
        <ele>819.48</ele>
        <time>2013-11-01T15:48:44Z</time>
      </trkpt>
      <trkpt lat="46.03338" lon="3.67231">
        <ele>821.29</ele>
        <time>2013-11-01T15:48:50Z</time>
      </trkpt>
      <trkpt lat="46.03326" lon="3.67209">
        <ele>821.54</ele>
        <time>2013-11-01T15:48:55Z</time>
      </trkpt>
      <trkpt lat="46.03315" lon="3.67188">
        <ele>822.52</ele>
        <time>2013-11-01T15:49:00Z</time>
      </trkpt>
      <trkpt lat="46.03303" lon="3.67167">
        <ele>823.43</ele>
        <time>2013-11-01T15:49:06Z</time>
      </trkpt>
      <trkpt lat="46.03291" lon="3.67143">
        <ele>824.3</ele>
        <time>2013-11-01T15:49:11Z</time>
      </trkpt>
      <trkpt lat="46.03278" lon="3.67115">
        <ele>824.72</ele>
        <time>2013-11-01T15:49:15Z</time>
      </trkpt>
      <trkpt lat="46.03268" lon="3.67085">
        <ele>824.06</ele>
        <time>2013-11-01T15:49:19Z</time>
      </trkpt>
      <trkpt lat="46.03264" lon="3.67059">
        <ele>823.62</ele>
        <time>2013-11-01T15:49:22Z</time>
      </trkpt>
      <trkpt lat="46.03266" lon="3.67029">
        <ele>823.56</ele>
        <time>2013-11-01T15:49:25Z</time>
      </trkpt>
      <trkpt lat="46.03269" lon="3.67003">
        <ele>823.55</ele>
        <time>2013-11-01T15:49:27Z</time>
      </trkpt>
      <trkpt lat="46.03273" lon="3.66969">
        <ele>823.05</ele>
        <time>2013-11-01T15:49:29Z</time>
      </trkpt>
      <trkpt lat="46.03276" lon="3.6693">
        <ele>820.93</ele>
        <time>2013-11-01T15:49:31Z</time>
      </trkpt>
      <trkpt lat="46.03278" lon="3.66896">
        <ele>819.15</ele>
        <time>2013-11-01T15:49:33Z</time>
      </trkpt>
      <trkpt lat="46.03279" lon="3.66866">
        <ele>817.95</ele>
        <time>2013-11-01T15:49:35Z</time>
      </trkpt>
      <trkpt lat="46.03277" lon="3.66838">
        <ele>817.65</ele>
        <time>2013-11-01T15:49:37Z</time>
      </trkpt>
      <trkpt lat="46.03276" lon="3.66808">
        <ele>816.69</ele>
        <time>2013-11-01T15:49:40Z</time>
      </trkpt>
      <trkpt lat="46.03281" lon="3.66778">
        <ele>815.2</ele>
        <time>2013-11-01T15:49:43Z</time>
      </trkpt>
      <trkpt lat="46.03288" lon="3.66744">
        <ele>812.51</ele>
        <time>2013-11-01T15:49:46Z</time>
      </trkpt>
      <trkpt lat="46.03292" lon="3.66718">
        <ele>810.54</ele>
        <time>2013-11-01T15:49:48Z</time>
      </trkpt>
      <trkpt lat="46.03296" lon="3.66686">
        <ele>809.8</ele>
        <time>2013-11-01T15:49:50Z</time>
      </trkpt>
      <trkpt lat="46.03302" lon="3.66647">
        <ele>809.61</ele>
        <time>2013-11-01T15:49:52Z</time>
      </trkpt>
      <trkpt lat="46.03304" lon="3.66606">
        <ele>809.57</ele>
        <time>2013-11-01T15:49:54Z</time>
      </trkpt>
      <trkpt lat="46.03305" lon="3.66564">
        <ele>809.56</ele>
        <time>2013-11-01T15:49:56Z</time>
      </trkpt>
      <trkpt lat="46.03307" lon="3.66523">
        <ele>809.55</ele>
        <time>2013-11-01T15:49:58Z</time>
      </trkpt>
      <trkpt lat="46.03309" lon="3.66484">
        <ele>809.55</ele>
        <time>2013-11-01T15:50:00Z</time>
      </trkpt>
      <trkpt lat="46.03312" lon="3.66446">
        <ele>809.55</ele>
        <time>2013-11-01T15:50:02Z</time>
      </trkpt>
      <trkpt lat="46.03313" lon="3.66403">
        <ele>810.05</ele>
        <time>2013-11-01T15:50:04Z</time>
      </trkpt>
      <trkpt lat="46.03313" lon="3.66355">
        <ele>810.43</ele>
        <time>2013-11-01T15:50:06Z</time>
      </trkpt>
      <trkpt lat="46.03314" lon="3.66308">
        <ele>810.52</ele>
        <time>2013-11-01T15:50:08Z</time>
      </trkpt>
      <trkpt lat="46.03314" lon="3.66261">
        <ele>810.55</ele>
        <time>2013-11-01T15:50:10Z</time>
      </trkpt>
      <trkpt lat="46.03315" lon="3.66212">
        <ele>810.55</ele>
        <time>2013-11-01T15:50:12Z</time>
      </trkpt>
      <trkpt lat="46.03318" lon="3.6616">
        <ele>810.55</ele>
        <time>2013-11-01T15:50:14Z</time>
      </trkpt>
      <trkpt lat="46.03321" lon="3.66111">
        <ele>810.55</ele>
        <time>2013-11-01T15:50:16Z</time>
      </trkpt>
      <trkpt lat="46.03335" lon="3.66083">
        <ele>808.05</ele>
        <time>2013-11-01T15:50:18Z</time>
      </trkpt>
      <trkpt lat="46.03342" lon="3.66057">
        <ele>803.18</ele>
        <time>2013-11-01T15:50:20Z</time>
      </trkpt>
      <trkpt lat="46.03346" lon="3.66027">
        <ele>792.38</ele>
        <time>2013-11-01T15:50:23Z</time>
      </trkpt>
      <trkpt lat="46.03364" lon="3.66016">
        <ele>757.12</ele>
        <time>2013-11-01T15:50:59Z</time>
      </trkpt>
      <trkpt lat="46.03382" lon="3.66019">
        <ele>741.84</ele>
        <time>2013-11-01T15:51:03Z</time>
      </trkpt>
      <trkpt lat="46.03405" lon="3.66023">
        <ele>734.01</ele>
        <time>2013-11-01T15:51:07Z</time>
      </trkpt>
      <trkpt lat="46.03426" lon="3.66029">
        <ele>729.58</ele>
        <time>2013-11-01T15:51:11Z</time>
      </trkpt>
      <trkpt lat="46.03444" lon="3.66042">
        <ele>726.43</ele>
        <time>2013-11-01T15:51:15Z</time>
      </trkpt>
      <trkpt lat="46.03457" lon="3.66061">
        <ele>724.57</ele>
        <time>2013-11-01T15:51:22Z</time>
      </trkpt>
      <trkpt lat="46.03471" lon="3.66079">
        <ele>722.58</ele>
        <time>2013-11-01T15:51:27Z</time>
      </trkpt>
      <trkpt lat="46.03486" lon="3.66102">
        <ele>715.65</ele>
        <time>2013-11-01T15:51:32Z</time>
      </trkpt>
      <trkpt lat="46.03499" lon="3.66124">
        <ele>709.87</ele>
        <time>2013-11-01T15:51:36Z</time>
      </trkpt>
      <trkpt lat="46.03519" lon="3.66139">
        <ele>705.06</ele>
        <time>2013-11-01T15:51:41Z</time>
      </trkpt>
      <trkpt lat="46.03542" lon="3.66141">
        <ele>700.54</ele>
        <time>2013-11-01T15:51:46Z</time>
      </trkpt>
      <trkpt lat="46.03559" lon="3.66149">
        <ele>699.11</ele>
        <time>2013-11-01T15:51:50Z</time>
      </trkpt>
      <trkpt lat="46.03579" lon="3.66158">
        <ele>698.59</ele>
        <time>2013-11-01T15:51:54Z</time>
      </trkpt>
      <trkpt lat="46.03599" lon="3.66162">
        <ele>698.55</ele>
        <time>2013-11-01T15:51:59Z</time>
      </trkpt>
      <trkpt lat="46.03619" lon="3.6616">
        <ele>698.05</ele>
        <time>2013-11-01T15:52:03Z</time>
      </trkpt>
      <trkpt lat="46.03642" lon="3.66152">
        <ele>696.33</ele>
        <time>2013-11-01T15:52:07Z</time>
      </trkpt>
      <trkpt lat="46.03659" lon="3.66139">
        <ele>693.79</ele>
        <time>2013-11-01T15:52:11Z</time>
      </trkpt>
      <trkpt lat="46.03679" lon="3.66126">
        <ele>692.06</ele>
        <time>2013-11-01T15:52:18Z</time>
      </trkpt>
      <trkpt lat="46.037" lon="3.66117">
        <ele>690.69</ele>
        <time>2013-11-01T15:52:24Z</time>
      </trkpt>
      <trkpt lat="46.03721" lon="3.66109">
        <ele>686.62</ele>
        <time>2013-11-01T15:52:29Z</time>
      </trkpt>
      <trkpt lat="46.0374" lon="3.661">
        <ele>679.93</ele>
        <time>2013-11-01T15:52:33Z</time>
      </trkpt>
      <trkpt lat="46.0376" lon="3.66085">
        <ele>676.32</ele>
        <time>2013-11-01T15:52:40Z</time>
      </trkpt>
      <trkpt lat="46.03775" lon="3.6607">
        <ele>671.66</ele>
        <time>2013-11-01T15:52:44Z</time>
      </trkpt>
      <trkpt lat="46.03791" lon="3.66044">
        <ele>668.9</ele>
        <time>2013-11-01T15:52:49Z</time>
      </trkpt>
      <trkpt lat="46.03805" lon="3.66021">
        <ele>666.45</ele>
        <time>2013-11-01T15:52:53Z</time>
      </trkpt>
      <trkpt lat="46.03814" lon="3.65995">
        <ele>663.05</ele>
        <time>2013-11-01T15:52:57Z</time>
      </trkpt>
      <trkpt lat="46.03821" lon="3.65965">
        <ele>660.9</ele>
        <time>2013-11-01T15:53:01Z</time>
      </trkpt>
      <trkpt lat="46.03829" lon="3.65937">
        <ele>659.82</ele>
        <time>2013-11-01T15:53:05Z</time>
      </trkpt>
      <trkpt lat="46.03833" lon="3.65909">
        <ele>658.84</ele>
        <time>2013-11-01T15:53:08Z</time>
      </trkpt>
      <trkpt lat="46.03839" lon="3.65883">
        <ele>656.46</ele>
        <time>2013-11-01T15:53:11Z</time>
      </trkpt>
      <trkpt lat="46.03853" lon="3.65858">
        <ele>652.02</ele>
        <time>2013-11-01T15:53:16Z</time>
      </trkpt>
      <trkpt lat="46.03869" lon="3.6584">
        <ele>648.61</ele>
        <time>2013-11-01T15:53:19Z</time>
      </trkpt>
      <trkpt lat="46.03882" lon="3.65819">
        <ele>645.56</ele>
        <time>2013-11-01T15:53:22Z</time>
      </trkpt>
      <trkpt lat="46.03889" lon="3.65789">
        <ele>640.68</ele>
        <time>2013-11-01T15:53:26Z</time>
      </trkpt>
      <trkpt lat="46.03899" lon="3.65761">
        <ele>637.31</ele>
        <time>2013-11-01T15:53:30Z</time>
      </trkpt>
      <trkpt lat="46.03908" lon="3.65735">
        <ele>631.85</ele>
        <time>2013-11-01T15:53:34Z</time>
      </trkpt>
      <trkpt lat="46.03908" lon="3.65707">
        <ele>630.59</ele>
        <time>2013-11-01T15:53:39Z</time>
      </trkpt>
      <trkpt lat="46.03889" lon="3.6569">
        <ele>627.05</ele>
        <time>2013-11-01T15:55:08Z</time>
      </trkpt>
      <trkpt lat="46.03868" lon="3.65695">
        <ele>624.57</ele>
        <time>2013-11-01T15:55:17Z</time>
      </trkpt>
      <trkpt lat="46.0385" lon="3.65692">
        <ele>623.58</ele>
        <time>2013-11-01T15:55:23Z</time>
      </trkpt>
      <trkpt lat="46.03833" lon="3.65682">
        <ele>622.8</ele>
        <time>2013-11-01T15:55:27Z</time>
      </trkpt>
      <trkpt lat="46.03813" lon="3.65669">
        <ele>621.33</ele>
        <time>2013-11-01T15:55:30Z</time>
      </trkpt>
      <trkpt lat="46.03793" lon="3.65647">
        <ele>619.4</ele>
        <time>2013-11-01T15:55:33Z</time>
      </trkpt>
      <trkpt lat="46.03776" lon="3.65626">
        <ele>617.91</ele>
        <time>2013-11-01T15:55:36Z</time>
      </trkpt>
      <trkpt lat="46.03761" lon="3.65604">
        <ele>616.85</ele>
        <time>2013-11-01T15:55:39Z</time>
      </trkpt>
      <trkpt lat="46.03747" lon="3.65583">
        <ele>614.88</ele>
        <time>2013-11-01T15:55:43Z</time>
      </trkpt>
      <trkpt lat="46.03736" lon="3.65561">
        <ele>613.81</ele>
        <time>2013-11-01T15:55:48Z</time>
      </trkpt>
      <trkpt lat="46.03738" lon="3.65527">
        <ele>611.25</ele>
        <time>2013-11-01T15:55:53Z</time>
      </trkpt>
      <trkpt lat="46.03739" lon="3.65493">
        <ele>608.91</ele>
        <time>2013-11-01T15:55:57Z</time>
      </trkpt>
      <trkpt lat="46.03731" lon="3.65461">
        <ele>606.39</ele>
        <time>2013-11-01T15:56:01Z</time>
      </trkpt>
      <trkpt lat="46.03723" lon="3.65435">
        <ele>605.06</ele>
        <time>2013-11-01T15:56:09Z</time>
      </trkpt>
      <trkpt lat="46.03729" lon="3.65409">
        <ele>603.63</ele>
        <time>2013-11-01T15:56:14Z</time>
      </trkpt>
      <trkpt lat="46.03742" lon="3.65383">
        <ele>596.71</ele>
        <time>2013-11-01T15:56:19Z</time>
      </trkpt>
      <trkpt lat="46.03754" lon="3.65358">
        <ele>592.81</ele>
        <time>2013-11-01T15:56:24Z</time>
      </trkpt>
      <trkpt lat="46.03762" lon="3.65332">
        <ele>592.56</ele>
        <time>2013-11-01T15:56:29Z</time>
      </trkpt>
      <trkpt lat="46.03756" lon="3.65306">
        <ele>591.55</ele>
        <time>2013-11-01T15:56:41Z</time>
      </trkpt>
      <trkpt lat="46.03737" lon="3.65308">
        <ele>590.62</ele>
        <time>2013-11-01T15:56:50Z</time>
      </trkpt>
      <trkpt lat="46.03719" lon="3.65308">
        <ele>590.55</ele>
        <time>2013-11-01T15:56:56Z</time>
      </trkpt>
      <trkpt lat="46.03696" lon="3.65306">
        <ele>588.43</ele>
        <time>2013-11-01T15:57:01Z</time>
      </trkpt>
      <trkpt lat="46.03672" lon="3.65304">
        <ele>583.67</ele>
        <time>2013-11-01T15:57:05Z</time>
      </trkpt>
      <trkpt lat="46.03649" lon="3.65302">
        <ele>581.07</ele>
        <time>2013-11-01T15:57:08Z</time>
      </trkpt>
      <trkpt lat="46.03626" lon="3.65295">
        <ele>579.24</ele>
        <time>2013-11-01T15:57:11Z</time>
      </trkpt>
      <trkpt lat="46.03607" lon="3.65289">
        <ele>577.39</ele>
        <time>2013-11-01T15:57:14Z</time>
      </trkpt>
      <trkpt lat="46.03589" lon="3.65274">
        <ele>576.61</ele>
        <time>2013-11-01T15:57:18Z</time>
      </trkpt>
      <trkpt lat="46.03573" lon="3.65259">
        <ele>577.49</ele>
        <time>2013-11-01T15:57:22Z</time>
      </trkpt>
      <trkpt lat="46.03554" lon="3.65235">
        <ele>577.55</ele>
        <time>2013-11-01T15:57:33Z</time>
      </trkpt>
      <trkpt lat="46.03543" lon="3.6521">
        <ele>577.05</ele>
        <time>2013-11-01T15:57:43Z</time>
      </trkpt>
      <trkpt lat="46.03533" lon="3.65184">
        <ele>576.06</ele>
        <time>2013-11-01T15:57:49Z</time>
      </trkpt>
      <trkpt lat="46.03521" lon="3.65158">
        <ele>575.56</ele>
        <time>2013-11-01T15:57:55Z</time>
      </trkpt>
      <trkpt lat="46.03511" lon="3.65137">
        <ele>574.68</ele>
        <time>2013-11-01T15:58:01Z</time>
      </trkpt>
      <trkpt lat="46.03501" lon="3.65113">
        <ele>574.55</ele>
        <time>2013-11-01T15:58:07Z</time>
      </trkpt>
      <trkpt lat="46.03495" lon="3.65087">
        <ele>574.55</ele>
        <time>2013-11-01T15:58:14Z</time>
      </trkpt>
      <trkpt lat="46.03491" lon="3.65062">
        <ele>574.55</ele>
        <time>2013-11-01T15:58:20Z</time>
      </trkpt>
      <trkpt lat="46.03489" lon="3.65036">
        <ele>575.05</ele>
        <time>2013-11-01T15:58:24Z</time>
      </trkpt>
      <trkpt lat="46.03487" lon="3.6501">
        <ele>575.52</ele>
        <time>2013-11-01T15:58:28Z</time>
      </trkpt>
      <trkpt lat="46.03484" lon="3.64984">
        <ele>576.49</ele>
        <time>2013-11-01T15:58:32Z</time>
      </trkpt>
      <trkpt lat="46.0348" lon="3.64956">
        <ele>577.49</ele>
        <time>2013-11-01T15:58:36Z</time>
      </trkpt>
      <trkpt lat="46.03474" lon="3.64931">
        <ele>578.49</ele>
        <time>2013-11-01T15:58:40Z</time>
      </trkpt>
      <trkpt lat="46.03467" lon="3.64905">
        <ele>580.02</ele>
        <time>2013-11-01T15:58:45Z</time>
      </trkpt>
      <trkpt lat="46.03457" lon="3.64881">
        <ele>581.29</ele>
        <time>2013-11-01T15:58:50Z</time>
      </trkpt>
      <trkpt lat="46.03442" lon="3.64856">
        <ele>581.54</ele>
        <time>2013-11-01T15:58:55Z</time>
      </trkpt>
      <trkpt lat="46.03428" lon="3.64836">
        <ele>582.49</ele>
        <time>2013-11-01T15:58:59Z</time>
      </trkpt>
      <trkpt lat="46.03414" lon="3.64817">
        <ele>583.05</ele>
        <time>2013-11-01T15:59:03Z</time>
      </trkpt>
      <trkpt lat="46.03394" lon="3.64806">
        <ele>583.54</ele>
        <time>2013-11-01T15:59:08Z</time>
      </trkpt>
      <trkpt lat="46.03374" lon="3.64798">
        <ele>584.49</ele>
        <time>2013-11-01T15:59:13Z</time>
      </trkpt>
      <trkpt lat="46.03356" lon="3.64793">
        <ele>585.3</ele>
        <time>2013-11-01T15:59:18Z</time>
      </trkpt>
      <trkpt lat="46.03338" lon="3.64791">
        <ele>585.55</ele>
        <time>2013-11-01T15:59:23Z</time>
      </trkpt>
      <trkpt lat="46.0332" lon="3.64793">
        <ele>585.55</ele>
        <time>2013-11-01T15:59:29Z</time>
      </trkpt>
      <trkpt lat="46.03302" lon="3.64802">
        <ele>585.55</ele>
        <time>2013-11-01T15:59:37Z</time>
      </trkpt>
      <trkpt lat="46.03283" lon="3.64813">
        <ele>584.68</ele>
        <time>2013-11-01T15:59:43Z</time>
      </trkpt>
      <trkpt lat="46.03267" lon="3.64825">
        <ele>584.56</ele>
        <time>2013-11-01T15:59:48Z</time>
      </trkpt>
      <trkpt lat="46.03249" lon="3.64836">
        <ele>585.55</ele>
        <time>2013-11-01T15:59:56Z</time>
      </trkpt>
      <trkpt lat="46.03231" lon="3.64847">
        <ele>586.49</ele>
        <time>2013-11-01T16:00:02Z</time>
      </trkpt>
      <trkpt lat="46.03212" lon="3.64851">
        <ele>587.43</ele>
        <time>2013-11-01T16:00:08Z</time>
      </trkpt>
      <trkpt lat="46.03193" lon="3.64858">
        <ele>588.43</ele>
        <time>2013-11-01T16:00:14Z</time>
      </trkpt>
      <trkpt lat="46.03174" lon="3.64858">
        <ele>590.04</ele>
        <time>2013-11-01T16:00:22Z</time>
      </trkpt>
      <trkpt lat="46.03159" lon="3.64841">
        <ele>591.42</ele>
        <time>2013-11-01T16:00:29Z</time>
      </trkpt>
      <trkpt lat="46.0314" lon="3.64838">
        <ele>593.55</ele>
        <time>2013-11-01T16:02:06Z</time>
      </trkpt>
      <trkpt lat="46.03123" lon="3.64851">
        <ele>594.3</ele>
        <time>2013-11-01T16:02:13Z</time>
      </trkpt>
      <trkpt lat="46.03107" lon="3.64868">
        <ele>594.55</ele>
        <time>2013-11-01T16:02:20Z</time>
      </trkpt>
      <trkpt lat="46.03097" lon="3.64892">
        <ele>594.55</ele>
        <time>2013-11-01T16:02:26Z</time>
      </trkpt>
      <trkpt lat="46.03089" lon="3.64918">
        <ele>595.93</ele>
        <time>2013-11-01T16:02:31Z</time>
      </trkpt>
      <trkpt lat="46.03078" lon="3.64944">
        <ele>597.26</ele>
        <time>2013-11-01T16:02:35Z</time>
      </trkpt>
      <trkpt lat="46.03061" lon="3.64967">
        <ele>597.52</ele>
        <time>2013-11-01T16:02:38Z</time>
      </trkpt>
      <trkpt lat="46.03044" lon="3.64978">
        <ele>597.54</ele>
        <time>2013-11-01T16:02:40Z</time>
      </trkpt>
      <trkpt lat="46.03027" lon="3.64989">
        <ele>597.55</ele>
        <time>2013-11-01T16:02:42Z</time>
      </trkpt>
      <trkpt lat="46.03004" lon="3.65008">
        <ele>597.55</ele>
        <time>2013-11-01T16:02:45Z</time>
      </trkpt>
      <trkpt lat="46.02987" lon="3.65016">
        <ele>598.3</ele>
        <time>2013-11-01T16:02:47Z</time>
      </trkpt>
      <trkpt lat="46.02964" lon="3.65023">
        <ele>598.52</ele>
        <time>2013-11-01T16:02:50Z</time>
      </trkpt>
      <trkpt lat="46.02945" lon="3.65023">
        <ele>598.55</ele>
        <time>2013-11-01T16:02:53Z</time>
      </trkpt>
      <trkpt lat="46.02926" lon="3.65021">
        <ele>597.56</ele>
        <time>2013-11-01T16:03:00Z</time>
      </trkpt>
      <trkpt lat="46.02907" lon="3.65023">
        <ele>596.06</ele>
        <time>2013-11-01T16:03:12Z</time>
      </trkpt>
      <trkpt lat="46.02888" lon="3.65029">
        <ele>594.05</ele>
        <time>2013-11-01T16:03:32Z</time>
      </trkpt>
      <trkpt lat="46.0287" lon="3.65036">
        <ele>591.09</ele>
        <time>2013-11-01T16:03:44Z</time>
      </trkpt>
      <trkpt lat="46.02852" lon="3.65044">
        <ele>589.08</ele>
        <time>2013-11-01T16:03:56Z</time>
      </trkpt>
      <trkpt lat="46.02831" lon="3.65044">
        <ele>577.18</ele>
        <time>2013-11-01T16:11:39Z</time>
      </trkpt>
      <trkpt lat="46.02809" lon="3.65053">
        <ele>573.09</ele>
        <time>2013-11-01T16:11:43Z</time>
      </trkpt>
      <trkpt lat="46.02788" lon="3.65053">
        <ele>570.4</ele>
        <time>2013-11-01T16:11:47Z</time>
      </trkpt>
      <trkpt lat="46.02766" lon="3.65049">
        <ele>567.53</ele>
        <time>2013-11-01T16:11:50Z</time>
      </trkpt>
      <trkpt lat="46.02743" lon="3.65051">
        <ele>565.3</ele>
        <time>2013-11-01T16:11:53Z</time>
      </trkpt>
      <trkpt lat="46.0272" lon="3.65047">
        <ele>563.02</ele>
        <time>2013-11-01T16:11:56Z</time>
      </trkpt>
      <trkpt lat="46.027" lon="3.65042">
        <ele>560.99</ele>
        <time>2013-11-01T16:11:59Z</time>
      </trkpt>
      <trkpt lat="46.0268" lon="3.65038">
        <ele>559.63</ele>
        <time>2013-11-01T16:12:04Z</time>
      </trkpt>
      <trkpt lat="46.02663" lon="3.65019">
        <ele>559.56</ele>
        <time>2013-11-01T16:12:09Z</time>
      </trkpt>
      <trkpt lat="46.02647" lon="3.64999">
        <ele>559.55</ele>
        <time>2013-11-01T16:12:13Z</time>
      </trkpt>
      <trkpt lat="46.02629" lon="3.6498">
        <ele>559.55</ele>
        <time>2013-11-01T16:12:17Z</time>
      </trkpt>
      <trkpt lat="46.02611" lon="3.64963">
        <ele>559.55</ele>
        <time>2013-11-01T16:12:21Z</time>
      </trkpt>
      <trkpt lat="46.0259" lon="3.64948">
        <ele>559.55</ele>
        <time>2013-11-01T16:12:25Z</time>
      </trkpt>
      <trkpt lat="46.02571" lon="3.64933">
        <ele>558.68</ele>
        <time>2013-11-01T16:12:29Z</time>
      </trkpt>
      <trkpt lat="46.02553" lon="3.6492">
        <ele>558.56</ele>
        <time>2013-11-01T16:12:33Z</time>
      </trkpt>
      <trkpt lat="46.02533" lon="3.64916">
        <ele>557.55</ele>
        <time>2013-11-01T16:13:08Z</time>
      </trkpt>
      <trkpt lat="46.02524" lon="3.64939">
        <ele>557.55</ele>
        <time>2013-11-01T16:13:15Z</time>
      </trkpt>
      <trkpt lat="46.02516" lon="3.64967">
        <ele>556.62</ele>
        <time>2013-11-01T16:13:21Z</time>
      </trkpt>
      <trkpt lat="46.02509" lon="3.64993">
        <ele>557.49</ele>
        <time>2013-11-01T16:13:27Z</time>
      </trkpt>
      <trkpt lat="46.02501" lon="3.65021">
        <ele>557.55</ele>
        <time>2013-11-01T16:13:33Z</time>
      </trkpt>
      <trkpt lat="46.02494" lon="3.65051">
        <ele>558.49</ele>
        <time>2013-11-01T16:13:39Z</time>
      </trkpt>
      <trkpt lat="46.02485" lon="3.65081">
        <ele>558.55</ele>
        <time>2013-11-01T16:13:45Z</time>
      </trkpt>
      <trkpt lat="46.02474" lon="3.65104">
        <ele>559.43</ele>
        <time>2013-11-01T16:13:50Z</time>
      </trkpt>
      <trkpt lat="46.02457" lon="3.65124">
        <ele>561.36</ele>
        <time>2013-11-01T16:13:54Z</time>
      </trkpt>
      <trkpt lat="46.02436" lon="3.65134">
        <ele>561.53</ele>
        <time>2013-11-01T16:13:57Z</time>
      </trkpt>
      <trkpt lat="46.02413" lon="3.65141">
        <ele>561.55</ele>
        <time>2013-11-01T16:14:00Z</time>
      </trkpt>
      <trkpt lat="46.02394" lon="3.65147">
        <ele>560.68</ele>
        <time>2013-11-01T16:14:03Z</time>
      </trkpt>
      <trkpt lat="46.02379" lon="3.65162">
        <ele>559.69</ele>
        <time>2013-11-01T16:14:06Z</time>
      </trkpt>
      <trkpt lat="46.02362" lon="3.65184">
        <ele>558.12</ele>
        <time>2013-11-01T16:14:10Z</time>
      </trkpt>
      <trkpt lat="46.02348" lon="3.65203">
        <ele>557.59</ele>
        <time>2013-11-01T16:14:14Z</time>
      </trkpt>
      <trkpt lat="46.02329" lon="3.65214">
        <ele>556.56</ele>
        <time>2013-11-01T16:14:22Z</time>
      </trkpt>
      <trkpt lat="46.02322" lon="3.65188">
        <ele>556.55</ele>
        <time>2013-11-01T16:14:28Z</time>
      </trkpt>
      <trkpt lat="46.02325" lon="3.65156">
        <ele>554.05</ele>
        <time>2013-11-01T16:15:40Z</time>
      </trkpt>
    </trkseg>
  </trk>
</gpx>